SWI199 YSSY-KSAN
Flight info
| Callsign | SWI199 |
|---|---|
| Flight time | N/A |
| Altitude | 32000 |
| Route | YSSY ENTRA ABARB LHI TEKEP NF LEKAX SADIM TERUX NILAX VENAN VIPOB VIBEX LATIT LENUM LUNKI BONLO BAXIL GOMIK WOOBY WACOS WAYSE WINTY CAMOS BALKS AFONE WEDES FICKY MALIT GOATZ SXC KSAN |
| Aircraft | A333/H-GPS/L |
Departure
| Time | 2026-04-24 03:17 |
|---|---|
| Airport | Sydney Kingsford Smith International Airport (YSSY) |
Arrival
| Time | N/A |
|---|---|
| Airport | San Diego International Airport (KSAN) |
| Time | Latitude | Longitude | Altitude | Speed | Heading |
|---|---|---|---|---|---|
| 2026-04-24 01:30 | -33.93889 | 151.16644 | 29 ft | 0 kts | 253° |
| 2026-04-24 02:53 | -33.93888 | 151.16647 | 29 ft | 2 kts | 253° |
| 2026-04-24 02:54 | -33.93882 | 151.16675 | 29 ft | 1 kts | 253° |
| 2026-04-24 02:54 | -33.93879 | 151.16687 | 29 ft | 1 kts | 249° |
| 2026-04-24 02:54 | -33.93875 | 151.16698 | 29 ft | 1 kts | 238° |
| 2026-04-24 02:54 | -33.93869 | 151.16707 | 29 ft | 1 kts | 221° |
| 2026-04-24 02:55 | -33.93863 | 151.16713 | 29 ft | 1 kts | 206° |
| 2026-04-24 02:55 | -33.93856 | 151.16716 | 29 ft | 1 kts | 192° |
| 2026-04-24 02:55 | -33.93849 | 151.16717 | 30 ft | 1 kts | 178° |
| 2026-04-24 02:55 | -33.93842 | 151.16716 | 30 ft | 0 kts | 166° |
| 2026-04-24 02:56 | -33.93836 | 151.16715 | 30 ft | 0 kts | 163° |
| 2026-04-24 02:59 | -33.93837 | 151.16715 | 30 ft | 0 kts | 163° |
| 2026-04-24 02:59 | -33.93864 | 151.16725 | 29 ft | 8 kts | 164° |
| 2026-04-24 02:59 | -33.93943 | 151.16751 | 29 ft | 14 kts | 165° |
| 2026-04-24 02:59 | -33.94036 | 151.16808 | 28 ft | 15 kts | 128° |
| 2026-04-24 03:00 | -33.94043 | 151.16925 | 28 ft | 13 kts | 76° |
| 2026-04-24 03:00 | -33.94019 | 151.17030 | 28 ft | 12 kts | 72° |
| 2026-04-24 03:00 | -33.93992 | 151.17129 | 26 ft | 12 kts | 73° |
| 2026-04-24 03:00 | -33.93967 | 151.17238 | 22 ft | 14 kts | 75° |
| 2026-04-24 03:01 | -33.93939 | 151.17366 | 17 ft | 17 kts | 75° |
| 2026-04-24 03:01 | -33.93901 | 151.17545 | 13 ft | 24 kts | 76° |
| 2026-04-24 03:01 | -33.93867 | 151.17680 | 13 ft | 0 kts | 70° |
| 2026-04-24 03:01 | -33.93866 | 151.17682 | 13 ft | 1 kts | 70° |
| 2026-04-24 03:02 | -33.93859 | 151.17741 | 13 ft | 10 kts | 102° |
| 2026-04-24 03:02 | -33.93921 | 151.17792 | 15 ft | 11 kts | 168° |
| 2026-04-24 03:02 | -33.93960 | 151.17802 | 15 ft | 0 kts | 168° |
| 2026-04-24 03:02 | -33.93963 | 151.17802 | 15 ft | 0 kts | 168° |
| 2026-04-24 03:03 | -33.93974 | 151.17806 | 15 ft | 8 kts | 168° |
| 2026-04-24 03:04 | -33.94093 | 151.17835 | 17 ft | 19 kts | 168° |
| 2026-04-24 03:04 | -33.94217 | 151.17865 | 21 ft | 16 kts | 168° |
| 2026-04-24 03:04 | -33.94297 | 151.17885 | 24 ft | 0 kts | 165° |
| 2026-04-24 03:04 | -33.94298 | 151.17885 | 24 ft | 1 kts | 165° |
| 2026-04-24 03:05 | -33.94361 | 151.17903 | 27 ft | 12 kts | 169° |
| 2026-04-24 03:05 | -33.94441 | 151.17906 | 29 ft | 10 kts | 187° |
| 2026-04-24 03:05 | -33.94531 | 151.17896 | 29 ft | 17 kts | 179° |
| 2026-04-24 03:05 | -33.94648 | 151.17918 | 30 ft | 16 kts | 167° |
| 2026-04-24 03:06 | -33.94752 | 151.17947 | 31 ft | 14 kts | 168° |
| 2026-04-24 03:06 | -33.94843 | 151.17967 | 31 ft | 12 kts | 169° |
| 2026-04-24 03:06 | -33.94929 | 151.17989 | 30 ft | 12 kts | 169° |
| 2026-04-24 03:06 | -33.95013 | 151.18008 | 28 ft | 12 kts | 167° |
| 2026-04-24 03:07 | -33.95022 | 151.18012 | 28 ft | 0 kts | 166° |
| 2026-04-24 03:07 | -33.95050 | 151.18021 | 27 ft | 11 kts | 163° |
| 2026-04-24 03:08 | -33.95097 | 151.18140 | 25 ft | 23 kts | 78° |
| 2026-04-24 03:08 | -33.95008 | 151.18634 | 20 ft | 21 kts | 76° |
| 2026-04-24 03:08 | -33.94994 | 151.18704 | 19 ft | 0 kts | 74° |
| 2026-04-24 03:14 | -33.94991 | 151.18720 | 19 ft | 5 kts | 74° |
| 2026-04-24 03:14 | -33.94986 | 151.18790 | 19 ft | 12 kts | 103° |
| 2026-04-24 03:15 | -33.95076 | 151.18858 | 18 ft | 18 kts | 168° |
| 2026-04-24 03:15 | -33.95086 | 151.18861 | 18 ft | 0 kts | 168° |
| 2026-04-24 03:16 | -33.95088 | 151.18861 | 18 ft | 2 kts | 168° |
| 2026-04-24 03:16 | -33.95264 | 151.18907 | 16 ft | 55 kts | 167° |
| 2026-04-24 03:16 | -33.95436 | 151.18953 | 16 ft | 78 kts | 168° |
| 2026-04-24 03:17 | -33.96094 | 151.19125 | 14 ft | 141 kts | 168° |
| 2026-04-24 03:17 | -33.97245 | 151.19418 | 153 ft | 189 kts | 169° |
| 2026-04-24 03:17 | -33.98627 | 151.19713 | 811 ft | 211 kts | 168° |
| 2026-04-24 03:17 | -34.00106 | 151.20042 | 1699 ft | 232 kts | 169° |
| 2026-04-24 03:18 | -34.01783 | 151.20395 | 2309 ft | 269 kts | 168° |
| 2026-04-24 03:18 | -34.03811 | 151.20830 | 2582 ft | 322 kts | 168° |
| 2026-04-24 03:18 | -34.06131 | 151.21339 | 3390 ft | 340 kts | 168° |
| 2026-04-24 03:18 | -34.08314 | 151.22058 | 3559 ft | 317 kts | 153° |
| 2026-04-24 03:19 | -34.10213 | 151.23494 | 3123 ft | 313 kts | 148° |
| 2026-04-24 03:19 | -34.12027 | 151.24713 | 3485 ft | 284 kts | 149° |
| 2026-04-24 03:19 | -34.13744 | 151.25865 | 3731 ft | 291 kts | 149° |
| 2026-04-24 03:19 | -34.15548 | 151.27083 | 3992 ft | 305 kts | 148° |
| 2026-04-24 03:20 | -34.17151 | 151.28737 | 4228 ft | 305 kts | 125° |
| 2026-04-24 03:20 | -34.18026 | 151.31027 | 4465 ft | 302 kts | 101° |
| 2026-04-24 03:20 | -34.18010 | 151.33524 | 4719 ft | 299 kts | 76° |
| 2026-04-24 03:20 | -34.17104 | 151.35782 | 4965 ft | 301 kts | 52° |
| 2026-04-24 03:21 | -34.15485 | 151.37361 | 5216 ft | 304 kts | 27° |
| 2026-04-24 03:21 | -34.14101 | 151.37973 | 5394 ft | 307 kts | 18° |
| 2026-04-24 03:21 | -34.12812 | 151.38444 | 5552 ft | 308 kts | 19° |
| 2026-04-24 03:21 | -34.12709 | 151.38483 | 5564 ft | 308 kts | 19° |
| 2026-04-24 03:22 | -34.11486 | 151.38936 | 5716 ft | 309 kts | 19° |
| 2026-04-24 03:22 | -34.11314 | 151.39000 | 5738 ft | 309 kts | 19° |
| 2026-04-24 03:22 | -34.10019 | 151.39479 | 5894 ft | 310 kts | 19° |
| 2026-04-24 03:23 | -34.08719 | 151.39960 | 6045 ft | 310 kts | 19° |
| 2026-04-24 03:23 | -34.08194 | 151.40153 | 6104 ft | 310 kts | 19° |
| 2026-04-24 03:23 | -34.07883 | 151.40268 | 6138 ft | 310 kts | 19° |
| 2026-04-24 03:24 | -34.07301 | 151.40483 | 6207 ft | 311 kts | 19° |
| 2026-04-24 03:24 | -34.06823 | 151.40662 | 6264 ft | 311 kts | 19° |
| 2026-04-24 03:24 | -34.05497 | 151.41272 | 6421 ft | 311 kts | 27° |
| 2026-04-24 03:24 | -34.02995 | 151.43289 | 6756 ft | 311 kts | 41° |
| 2026-04-24 03:25 | -34.01380 | 151.45007 | 7004 ft | 312 kts | 45° |
| 2026-04-24 03:25 | -34.00095 | 151.46506 | 7212 ft | 312 kts | 47° |
| 2026-04-24 03:25 | -34.00085 | 151.46518 | 7214 ft | 312 kts | 47° |
| 2026-04-24 03:25 | -33.98657 | 151.48267 | 7291 ft | 314 kts | 47° |
| 2026-04-24 03:26 | -33.97131 | 151.50188 | 7552 ft | 317 kts | 49° |
| 2026-04-24 03:26 | -33.95805 | 151.51877 | 7801 ft | 322 kts | 49° |
| 2026-04-24 03:26 | -33.95625 | 151.52107 | 7834 ft | 322 kts | 49° |
| 2026-04-24 03:27 | -33.94072 | 151.54103 | 8086 ft | 329 kts | 49° |
| 2026-04-24 03:27 | -33.92506 | 151.56122 | 8332 ft | 331 kts | 49° |
| 2026-04-24 03:27 | -33.90931 | 151.58153 | 8571 ft | 332 kts | 49° |
| 2026-04-24 03:27 | -33.89365 | 151.60173 | 8791 ft | 332 kts | 49° |
| 2026-04-24 03:28 | -33.87769 | 151.62231 | 9041 ft | 337 kts | 49° |
| 2026-04-24 03:28 | -33.86160 | 151.64307 | 9293 ft | 343 kts | 49° |
| 2026-04-24 03:28 | -33.84530 | 151.66408 | 9531 ft | 348 kts | 49° |
| 2026-04-24 03:28 | -33.82849 | 151.68573 | 9802 ft | 354 kts | 49° |
| 2026-04-24 03:29 | -33.81155 | 151.70754 | 10073 ft | 359 kts | 49° |
| 2026-04-24 03:29 | -33.79451 | 151.72967 | 10328 ft | 363 kts | 52° |
| 2026-04-24 03:29 | -33.78175 | 151.75565 | 10573 ft | 363 kts | 71° |
| 2026-04-24 03:29 | -33.77390 | 151.78456 | 10860 ft | 366 kts | 73° |
| 2026-04-24 03:30 | -33.76585 | 151.81370 | 11122 ft | 370 kts | 73° |
| 2026-04-24 03:30 | -33.75772 | 151.84306 | 11376 ft | 373 kts | 73° |
| 2026-04-24 03:30 | -33.74958 | 151.87241 | 11585 ft | 372 kts | 73° |
| 2026-04-24 03:30 | -33.74136 | 151.90199 | 11838 ft | 367 kts | 72° |
| 2026-04-24 03:31 | -33.73351 | 151.93012 | 12045 ft | 347 kts | 73° |
| 2026-04-24 03:31 | -33.72602 | 151.95702 | 12254 ft | 340 kts | 73° |
| 2026-04-24 03:31 | -33.71847 | 151.98410 | 12531 ft | 342 kts | 73° |
| 2026-04-24 03:31 | -33.71095 | 152.01108 | 12793 ft | 345 kts | 73° |
| 2026-04-24 03:32 | -33.70321 | 152.03876 | 13044 ft | 349 kts | 73° |
| 2026-04-24 03:32 | -33.69548 | 152.06638 | 13288 ft | 351 kts | 73° |
| 2026-04-24 03:32 | -33.68774 | 152.09399 | 13533 ft | 352 kts | 73° |
| 2026-04-24 03:32 | -33.67992 | 152.12193 | 13786 ft | 354 kts | 73° |
| 2026-04-24 03:33 | -33.67206 | 152.14993 | 14032 ft | 355 kts | 73° |
| 2026-04-24 03:33 | -33.66414 | 152.17809 | 14282 ft | 355 kts | 73° |
| 2026-04-24 03:33 | -33.65624 | 152.20625 | 14532 ft | 357 kts | 73° |
| 2026-04-24 03:33 | -33.64829 | 152.23447 | 14776 ft | 358 kts | 73° |
| 2026-04-24 03:34 | -33.64032 | 152.26273 | 15026 ft | 358 kts | 73° |
| 2026-04-24 03:34 | -33.63236 | 152.29097 | 15275 ft | 359 kts | 73° |
| 2026-04-24 03:34 | -33.62438 | 152.31924 | 15523 ft | 360 kts | 73° |
| 2026-04-24 03:34 | -33.61640 | 152.34753 | 15774 ft | 361 kts | 73° |
| 2026-04-24 03:35 | -33.60836 | 152.37593 | 16022 ft | 361 kts | 73° |
| 2026-04-24 03:35 | -33.60032 | 152.40439 | 16270 ft | 363 kts | 73° |
| 2026-04-24 03:35 | -33.59211 | 152.43332 | 16521 ft | 364 kts | 73° |
| 2026-04-24 03:35 | -33.58397 | 152.46201 | 16772 ft | 364 kts | 73° |
| 2026-04-24 03:36 | -33.57590 | 152.49046 | 17023 ft | 365 kts | 73° |
| 2026-04-24 03:36 | -33.56762 | 152.51961 | 17272 ft | 367 kts | 73° |
| 2026-04-24 03:36 | -33.55940 | 152.54846 | 17522 ft | 368 kts | 73° |
| 2026-04-24 03:36 | -33.55125 | 152.57713 | 17766 ft | 368 kts | 73° |
| 2026-04-24 03:37 | -33.54297 | 152.60614 | 18014 ft | 368 kts | 73° |
| 2026-04-24 03:37 | -33.53466 | 152.63527 | 18262 ft | 370 kts | 73° |
| 2026-04-24 03:37 | -33.52629 | 152.66455 | 18514 ft | 371 kts | 73° |
| 2026-04-24 03:37 | -33.51801 | 152.69351 | 18772 ft | 373 kts | 73° |
| 2026-04-24 03:38 | -33.50954 | 152.72307 | 19029 ft | 374 kts | 73° |
| 2026-04-24 03:38 | -33.50113 | 152.75243 | 19285 ft | 375 kts | 73° |
| 2026-04-24 03:38 | -33.49266 | 152.78197 | 19543 ft | 375 kts | 73° |
| 2026-04-24 03:38 | -33.48421 | 152.81142 | 19797 ft | 376 kts | 73° |
| 2026-04-24 03:39 | -33.47571 | 152.84099 | 20053 ft | 376 kts | 73° |
| 2026-04-24 03:39 | -33.46711 | 152.87085 | 20311 ft | 377 kts | 73° |
| 2026-04-24 03:39 | -33.45860 | 152.90039 | 20568 ft | 377 kts | 73° |
| 2026-04-24 03:39 | -33.45009 | 152.92995 | 20819 ft | 377 kts | 73° |
| 2026-04-24 03:40 | -33.44156 | 152.95950 | 21079 ft | 377 kts | 73° |
| 2026-04-24 03:40 | -33.43300 | 152.98910 | 21335 ft | 376 kts | 73° |
| 2026-04-24 03:40 | -33.42445 | 153.01869 | 21591 ft | 376 kts | 74° |
| 2026-04-24 03:40 | -33.41594 | 153.04810 | 21848 ft | 376 kts | 74° |
| 2026-04-24 03:41 | -33.40742 | 153.07752 | 22106 ft | 375 kts | 74° |
| 2026-04-24 03:41 | -33.39889 | 153.10690 | 22359 ft | 374 kts | 74° |
| 2026-04-24 03:41 | -33.39030 | 153.13652 | 22615 ft | 373 kts | 74° |
| 2026-04-24 03:41 | -33.38179 | 153.16576 | 22870 ft | 372 kts | 74° |
| 2026-04-24 03:42 | -33.37329 | 153.19501 | 23126 ft | 371 kts | 74° |
| 2026-04-24 03:42 | -33.36489 | 153.22382 | 23376 ft | 370 kts | 74° |
| 2026-04-24 03:42 | -33.35638 | 153.25301 | 23640 ft | 368 kts | 75° |
| 2026-04-24 03:42 | -33.34801 | 153.28168 | 23902 ft | 366 kts | 75° |
| 2026-04-24 03:43 | -33.33968 | 153.31024 | 24157 ft | 364 kts | 75° |
| 2026-04-24 03:43 | -33.33129 | 153.33891 | 24422 ft | 362 kts | 75° |
| 2026-04-24 03:43 | -33.32309 | 153.36693 | 24686 ft | 360 kts | 75° |
| 2026-04-24 03:43 | -33.31478 | 153.39531 | 24949 ft | 358 kts | 75° |
| 2026-04-24 03:44 | -33.30660 | 153.42320 | 25204 ft | 356 kts | 75° |
| 2026-04-24 03:44 | -33.29851 | 153.45076 | 25452 ft | 354 kts | 75° |
| 2026-04-24 03:44 | -33.29042 | 153.47830 | 25707 ft | 351 kts | 75° |
| 2026-04-24 03:44 | -33.28230 | 153.50592 | 25964 ft | 348 kts | 75° |
| 2026-04-24 03:45 | -33.27436 | 153.53288 | 26212 ft | 345 kts | 75° |
| 2026-04-24 03:45 | -33.26648 | 153.55963 | 26462 ft | 342 kts | 75° |
| 2026-04-24 03:45 | -33.25856 | 153.58649 | 26717 ft | 338 kts | 75° |
| 2026-04-24 03:45 | -33.25081 | 153.61275 | 26967 ft | 334 kts | 75° |
| 2026-04-24 03:46 | -33.24314 | 153.63870 | 27200 ft | 331 kts | 75° |
| 2026-04-24 03:46 | -33.23555 | 153.66438 | 27439 ft | 327 kts | 75° |
| 2026-04-24 03:46 | -33.22810 | 153.68956 | 27710 ft | 322 kts | 75° |
| 2026-04-24 03:46 | -33.22064 | 153.71475 | 27998 ft | 318 kts | 75° |
| 2026-04-24 03:47 | -33.21334 | 153.73935 | 28294 ft | 313 kts | 75° |
| 2026-04-24 03:47 | -33.20624 | 153.76337 | 28634 ft | 305 kts | 76° |
| 2026-04-24 03:47 | -33.19951 | 153.78726 | 28801 ft | 302 kts | 77° |
| 2026-04-24 03:47 | -33.19353 | 153.81136 | 28691 ft | 306 kts | 80° |
| 2026-04-24 03:48 | -33.18868 | 153.83632 | 28541 ft | 311 kts | 84° |
| 2026-04-24 03:48 | -33.18466 | 153.88705 | 28869 ft | 302 kts | 95° |
| 2026-04-24 03:48 | -33.18639 | 153.91196 | 29026 ft | 298 kts | 102° |
| 2026-04-24 03:49 | -33.19102 | 153.93581 | 28931 ft | 302 kts | 110° |
| 2026-04-24 03:49 | -33.19928 | 153.95934 | 28750 ft | 308 kts | 119° |
| 2026-04-24 03:49 | -33.21113 | 153.98051 | 28751 ft | 311 kts | 130° |
| 2026-04-24 03:49 | -33.22649 | 153.99835 | 28959 ft | 309 kts | 141° |
| 2026-04-24 03:50 | -33.24513 | 154.01175 | 29157 ft | 309 kts | 154° |
| 2026-04-24 03:50 | -33.26586 | 154.01941 | 29108 ft | 319 kts | 167° |
| 2026-04-24 03:50 | -33.28857 | 154.02061 | 28907 ft | 335 kts | 181° |
| 2026-04-24 03:50 | -33.31173 | 154.01416 | 28815 ft | 349 kts | 198° |
| 2026-04-24 03:51 | -33.33310 | 153.99965 | 28928 ft | 358 kts | 215° |
| 2026-04-24 03:51 | -33.35038 | 153.97778 | 29058 ft | 367 kts | 233° |
| 2026-04-24 03:51 | -33.36166 | 153.95021 | 29010 ft | 379 kts | 251° |
| 2026-04-24 03:51 | -33.36541 | 153.91867 | 28837 ft | 392 kts | 272° |
| 2026-04-24 03:52 | -33.36024 | 153.88646 | 28659 ft | 398 kts | 294° |
| 2026-04-24 03:52 | -33.34618 | 153.85835 | 28596 ft | 397 kts | 316° |
| 2026-04-24 03:52 | -33.32452 | 153.83813 | 28606 ft | 388 kts | 341° |
| 2026-04-24 03:52 | -33.29939 | 153.82960 | 28571 ft | 375 kts | 5° |
| 2026-04-24 03:53 | -33.27416 | 153.83342 | 28463 ft | 361 kts | 29° |
| 2026-04-24 03:53 | -33.25344 | 153.84876 | 28348 ft | 346 kts | 54° |
| 2026-04-24 03:53 | -33.24098 | 153.87264 | 28298 ft | 332 kts | 80° |
| 2026-04-24 03:53 | -33.23935 | 153.89925 | 28311 ft | 322 kts | 105° |
| 2026-04-24 03:54 | -33.24833 | 153.92316 | 28292 ft | 321 kts | 131° |
| 2026-04-24 03:54 | -33.26605 | 153.93938 | 28179 ft | 331 kts | 156° |
| 2026-04-24 03:54 | -33.28932 | 153.94397 | 28031 ft | 348 kts | 183° |
| 2026-04-24 03:54 | -33.31242 | 153.93520 | 27956 ft | 365 kts | 209° |
| 2026-04-24 03:55 | -33.33117 | 153.91367 | 27987 ft | 378 kts | 236° |
| 2026-04-24 03:55 | -33.34054 | 153.88428 | 28013 ft | 388 kts | 262° |
| 2026-04-24 03:55 | -33.33889 | 153.85208 | 27922 ft | 396 kts | 289° |
| 2026-04-24 03:55 | -33.32612 | 153.82318 | 27771 ft | 397 kts | 316° |
| 2026-04-24 03:56 | -33.30466 | 153.80350 | 27687 ft | 390 kts | 342° |
| 2026-04-24 03:56 | -33.27863 | 153.79680 | 27709 ft | 373 kts | 10° |
| 2026-04-24 03:56 | -33.25443 | 153.80400 | 27751 ft | 354 kts | 37° |
| 2026-04-24 03:56 | -33.23646 | 153.82285 | 27673 ft | 338 kts | 65° |
| 2026-04-24 03:57 | -33.22880 | 153.84842 | 27509 ft | 329 kts | 92° |
| 2026-04-24 03:57 | -33.23302 | 153.87471 | 27404 ft | 326 kts | 120° |
| 2026-04-24 03:57 | -33.24731 | 153.89511 | 27628 ft | 320 kts | 142° |
| 2026-04-24 03:57 | -33.26632 | 153.90726 | 28229 ft | 307 kts | 174° |
| 2026-04-24 03:58 | -33.28589 | 153.90718 | 22588 ft | 437 kts | 153° |
| 2026-04-24 03:58 | -33.31034 | 153.92775 | 18811 ft | 473 kts | 139° |
| 2026-04-24 03:58 | -33.32904 | 153.94556 | 24017 ft | 315 kts | 144° |
| 2026-04-24 03:58 | -33.33588 | 153.95056 | 28760 ft | 106 kts | 141° |
| 2026-04-24 03:59 | -33.34134 | 153.95344 | 27377 ft | 203 kts | 147° |
| 2026-04-24 03:59 | -33.35508 | 153.95917 | 21163 ft | 406 kts | 169° |
| 2026-04-24 03:59 | -33.38387 | 153.96104 | 19405 ft | 419 kts | 178° |
| 2026-04-24 03:59 | -33.40437 | 153.95892 | 24012 ft | 264 kts | 183° |
| 2026-04-24 04:00 | -33.41533 | 153.95638 | 26608 ft | 146 kts | 179° |
| 2026-04-24 04:00 | -33.42707 | 153.95435 | 23962 ft | 282 kts | 183° |
| 2026-04-24 04:00 | -33.44915 | 153.94899 | 19748 ft | 407 kts | 191° |
| 2026-04-24 04:00 | -33.47534 | 153.94545 | 20967 ft | 350 kts | 193° |
| 2026-04-24 04:01 | -33.49518 | 153.93488 | 23049 ft | 293 kts | 202° |
| 2026-04-24 04:01 | -33.51147 | 153.92564 | 24414 ft | 244 kts | 190° |
| 2026-04-24 04:01 | -33.52895 | 153.91995 | 23328 ft | 292 kts | 189° |
| 2026-04-24 04:01 | -33.55060 | 153.91219 | 21904 ft | 345 kts | 196° |
| 2026-04-24 04:02 | -33.57309 | 153.90552 | 22601 ft | 316 kts | 174° |
| 2026-04-24 04:02 | -33.59303 | 153.90584 | 24135 ft | 265 kts | 173° |
| 2026-04-24 04:02 | -33.61053 | 153.90830 | 24544 ft | 254 kts | 164° |
| 2026-04-24 04:02 | -33.62931 | 153.91136 | 23413 ft | 301 kts | 171° |
| 2026-04-24 04:03 | -33.65133 | 153.91402 | 22840 ft | 323 kts | 172° |
| 2026-04-24 04:03 | -33.67291 | 153.91547 | 23975 ft | 291 kts | 174° |
| 2026-04-24 04:03 | -33.69155 | 153.91516 | 25147 ft | 258 kts | 177° |
| 2026-04-24 04:03 | -33.70986 | 153.91351 | 24762 ft | 281 kts | 181° |
| 2026-04-24 04:04 | -33.73071 | 153.91008 | 23681 ft | 324 kts | 186° |
| 2026-04-24 04:04 | -33.75214 | 153.90428 | 23622 ft | 313 kts | 191° |
| 2026-04-24 04:04 | -33.76604 | 153.89908 | 23846 ft | 292 kts | 198° |
| 2026-04-24 04:04 | -33.78511 | 153.89177 | 23467 ft | 286 kts | 190° |
| 2026-04-24 04:05 | -33.80488 | 153.88513 | 22354 ft | 307 kts | 192° |
| 2026-04-24 04:05 | -33.82577 | 153.87915 | 21446 ft | 313 kts | 187° |
| 2026-04-24 04:05 | -33.84651 | 153.87135 | 21122 ft | 303 kts | 189° |
| 2026-04-24 04:05 | -33.86624 | 153.86675 | 20591 ft | 291 kts | 174° |
| 2026-04-24 04:06 | -33.88646 | 153.86835 | 19834 ft | 294 kts | 167° |
| 2026-04-24 04:06 | -33.90624 | 153.87286 | 19581 ft | 280 kts | 161° |
| 2026-04-24 04:06 | -33.92446 | 153.87921 | 19395 ft | 269 kts | 157° |
| 2026-04-24 04:06 | -33.94245 | 153.88737 | 19071 ft | 283 kts | 153° |
| 2026-04-24 04:07 | -33.96021 | 153.89729 | 19475 ft | 275 kts | 148° |
| 2026-04-24 04:07 | -33.97559 | 153.90922 | 20097 ft | 259 kts | 150° |
| 2026-04-24 04:07 | -33.99275 | 153.91711 | 20176 ft | 271 kts | 165° |
| 2026-04-24 04:07 | -34.01226 | 153.91977 | 20009 ft | 289 kts | 171° |
| 2026-04-24 04:08 | -34.03204 | 153.92325 | 20454 ft | 278 kts | 162° |
| 2026-04-24 04:08 | -34.04990 | 153.92961 | 21141 ft | 258 kts | 154° |
| 2026-04-24 04:08 | -34.05852 | 153.93404 | 21281 ft | 257 kts | 150° |
| 2026-04-24 04:08 | -34.07255 | 153.94411 | 21749 ft | 251 kts | 140° |
| 2026-04-24 04:09 | -34.08367 | 153.95592 | 22615 ft | 229 kts | 131° |
| 2026-04-24 04:09 | -34.09121 | 153.96608 | 23317 ft | 209 kts | 135° |
| 2026-04-24 04:09 | -34.10177 | 153.97757 | 23661 ft | 202 kts | 144° |
| 2026-04-24 04:09 | -34.11460 | 153.98585 | 22651 ft | 235 kts | 152° |
| 2026-04-24 04:10 | -34.13001 | 153.99429 | 21605 ft | 250 kts | 142° |
| 2026-04-24 04:10 | -34.14349 | 154.00644 | 21462 ft | 228 kts | 131° |
| 2026-04-24 04:10 | -34.15263 | 154.02144 | 21389 ft | 211 kts | 116° |
| 2026-04-24 04:11 | -34.16122 | 154.05724 | 20068 ft | 229 kts | 105° |
| 2026-04-24 04:11 | -34.16589 | 154.07520 | 19748 ft | 225 kts | 112° |
| 2026-04-24 04:11 | -34.17282 | 154.09245 | 19014 ft | 239 kts | 120° |
| 2026-04-24 04:11 | -34.18251 | 154.10951 | 18356 ft | 249 kts | 127° |
| 2026-04-24 04:12 | -34.19424 | 154.12561 | 17310 ft | 274 kts | 137° |
| 2026-04-24 04:12 | -34.21087 | 154.13745 | 16571 ft | 284 kts | 155° |
| 2026-04-24 04:12 | -34.22835 | 154.14610 | 16845 ft | 262 kts | 154° |
| 2026-04-24 04:12 | -34.24587 | 154.15511 | 16868 ft | 281 kts | 154° |
| 2026-04-24 04:13 | -34.26427 | 154.16467 | 16934 ft | 295 kts | 154° |
| 2026-04-24 04:13 | -34.26756 | 154.16638 | 16976 ft | 297 kts | 154° |
| 2026-04-24 04:13 | -34.28664 | 154.17630 | 17050 ft | 302 kts | 154° |
| 2026-04-24 04:13 | -34.30587 | 154.18625 | 17334 ft | 299 kts | 154° |
| 2026-04-24 04:14 | -34.32060 | 154.19385 | 17524 ft | 298 kts | 154° |
| 2026-04-24 04:14 | -34.33969 | 154.20371 | 17775 ft | 302 kts | 154° |
| 2026-04-24 04:14 | -34.35930 | 154.21382 | 17931 ft | 310 kts | 154° |
| 2026-04-24 04:14 | -34.37912 | 154.22519 | 18079 ft | 318 kts | 151° |
| 2026-04-24 04:15 | -34.39930 | 154.23712 | 18229 ft | 327 kts | 156° |
| 2026-04-24 04:15 | -34.42171 | 154.24506 | 18386 ft | 335 kts | 157° |
| 2026-04-24 04:15 | -34.44184 | 154.25891 | 18565 ft | 336 kts | 135° |
| 2026-04-24 04:15 | -34.45615 | 154.28124 | 18757 ft | 340 kts | 115° |
| 2026-04-24 04:16 | -34.46261 | 154.30876 | 18948 ft | 346 kts | 97° |
| 2026-04-24 04:16 | -34.46469 | 154.33801 | 19133 ft | 354 kts | 95° |
| 2026-04-24 04:16 | -34.46651 | 154.36801 | 19277 ft | 363 kts | 95° |
| 2026-04-24 04:16 | -34.46828 | 154.39876 | 19422 ft | 371 kts | 92° |
| 2026-04-24 04:17 | -34.46485 | 154.43015 | 19545 ft | 383 kts | 73° |
| 2026-04-24 04:17 | -34.45252 | 154.45889 | 19716 ft | 395 kts | 55° |
| 2026-04-24 04:17 | -34.43366 | 154.48361 | 19902 ft | 404 kts | 47° |
| 2026-04-24 04:17 | -34.41522 | 154.50958 | 20035 ft | 407 kts | 62° |
| 2026-04-24 04:18 | -34.40137 | 154.53954 | 20203 ft | 413 kts | 61° |
| 2026-04-24 04:18 | -34.38554 | 154.56891 | 20368 ft | 421 kts | 59° |
| 2026-04-24 04:18 | -34.36853 | 154.59860 | 20576 ft | 428 kts | 58° |
| 2026-04-24 04:18 | -34.35134 | 154.62784 | 20950 ft | 429 kts | 58° |
| 2026-04-24 04:19 | -34.33390 | 154.65718 | 21343 ft | 430 kts | 57° |
| 2026-04-24 04:19 | -34.31654 | 154.68628 | 21738 ft | 431 kts | 57° |
| 2026-04-24 04:19 | -34.29882 | 154.71590 | 22145 ft | 431 kts | 57° |
| 2026-04-24 04:19 | -34.28135 | 154.74506 | 22532 ft | 431 kts | 57° |
| 2026-04-24 04:20 | -34.26398 | 154.77405 | 22917 ft | 431 kts | 57° |
| 2026-04-24 04:20 | -34.24623 | 154.80364 | 23312 ft | 430 kts | 57° |
| 2026-04-24 04:20 | -34.22866 | 154.83289 | 23704 ft | 430 kts | 57° |
| 2026-04-24 04:20 | -34.21125 | 154.86186 | 24098 ft | 429 kts | 57° |
| 2026-04-24 04:21 | -34.19373 | 154.89099 | 24503 ft | 427 kts | 57° |
| 2026-04-24 04:21 | -34.17636 | 154.91983 | 24895 ft | 426 kts | 57° |
| 2026-04-24 04:21 | -34.15904 | 154.94858 | 25286 ft | 424 kts | 58° |
| 2026-04-24 04:21 | -34.14193 | 154.97696 | 25677 ft | 421 kts | 57° |
| 2026-04-24 04:22 | -34.12458 | 155.00572 | 26078 ft | 418 kts | 58° |
| 2026-04-24 04:22 | -34.10771 | 155.03365 | 26469 ft | 415 kts | 58° |
| 2026-04-24 04:22 | -34.09082 | 155.06158 | 26858 ft | 412 kts | 58° |
| 2026-04-24 04:22 | -34.07385 | 155.08966 | 27076 ft | 413 kts | 58° |
| 2026-04-24 04:23 | -34.05695 | 155.11762 | 27167 ft | 416 kts | 58° |
| 2026-04-24 04:23 | -34.03992 | 155.14572 | 27317 ft | 418 kts | 58° |
| 2026-04-24 04:23 | -34.02250 | 155.17442 | 27476 ft | 420 kts | 58° |
| 2026-04-24 04:23 | -34.00522 | 155.20285 | 27618 ft | 422 kts | 58° |
| 2026-04-24 04:24 | -33.98523 | 155.22884 | 27721 ft | 431 kts | 42° |
| 2026-04-24 04:24 | -33.95906 | 155.24698 | 27868 ft | 441 kts | 25° |
| 2026-04-24 04:24 | -33.92865 | 155.25525 | 28059 ft | 450 kts | 7° |
| 2026-04-24 04:24 | -33.89738 | 155.25266 | 28234 ft | 458 kts | 350° |
| 2026-04-24 04:25 | -33.86744 | 155.23940 | 28392 ft | 465 kts | 333° |
| 2026-04-24 04:25 | -33.84112 | 155.21663 | 28563 ft | 468 kts | 321° |
| 2026-04-24 04:25 | -33.81655 | 155.19104 | 28730 ft | 468 kts | 321° |
| 2026-04-24 04:25 | -33.79170 | 155.16573 | 28853 ft | 468 kts | 326° |
| 2026-04-24 04:26 | -33.76353 | 155.14664 | 28978 ft | 462 kts | 343° |
| 2026-04-24 04:26 | -33.73288 | 155.13673 | 29202 ft | 455 kts | 351° |
| 2026-04-24 04:26 | -33.70184 | 155.12880 | 29374 ft | 455 kts | 352° |
| 2026-04-24 04:26 | -33.67045 | 155.12129 | 29493 ft | 455 kts | 353° |
| 2026-04-24 04:27 | -33.63903 | 155.11397 | 29632 ft | 456 kts | 353° |
| 2026-04-24 04:27 | -33.60785 | 155.10678 | 29779 ft | 456 kts | 353° |
| 2026-04-24 04:27 | -33.57690 | 155.09967 | 29910 ft | 456 kts | 353° |
| 2026-04-24 04:27 | -33.54554 | 155.09247 | 30039 ft | 456 kts | 353° |
| 2026-04-24 04:28 | -33.51446 | 155.08534 | 30172 ft | 456 kts | 353° |
| 2026-04-24 04:28 | -33.48325 | 155.07819 | 30308 ft | 456 kts | 353° |
| 2026-04-24 04:28 | -33.45209 | 155.07106 | 30444 ft | 456 kts | 353° |
| 2026-04-24 04:28 | -33.42091 | 155.06395 | 30580 ft | 455 kts | 353° |
| 2026-04-24 04:29 | -33.38997 | 155.05687 | 30707 ft | 455 kts | 353° |
| 2026-04-24 04:29 | -33.35887 | 155.04977 | 30841 ft | 454 kts | 353° |
| 2026-04-24 04:29 | -33.32798 | 155.04272 | 30974 ft | 453 kts | 354° |
| 2026-04-24 04:29 | -33.29705 | 155.03567 | 31100 ft | 452 kts | 354° |
| 2026-04-24 04:30 | -33.26619 | 155.02866 | 31224 ft | 451 kts | 353° |
| 2026-04-24 04:30 | -33.23547 | 155.02165 | 31358 ft | 450 kts | 353° |
| 2026-04-24 04:30 | -33.17355 | 155.00758 | 31373 ft | 455 kts | 354° |
| 2026-04-24 04:31 | -33.11149 | 154.99350 | 31416 ft | 458 kts | 354° |
| 2026-04-24 04:31 | -33.04811 | 154.97913 | 31437 ft | 461 kts | 353° |
| 2026-04-24 04:32 | -32.98456 | 154.96474 | 31393 ft | 465 kts | 353° |
| 2026-04-24 04:32 | -32.92073 | 154.95406 | 31348 ft | 459 kts | 9° |
| 2026-04-24 04:33 | -32.88987 | 154.96156 | 31512 ft | 442 kts | 27° |
| 2026-04-24 04:33 | -32.86328 | 154.97847 | 31419 ft | 433 kts | 43° |
| 2026-04-24 04:33 | -32.84156 | 155.00255 | 31395 ft | 424 kts | 57° |
| 2026-04-24 04:33 | -32.82644 | 155.03188 | 31516 ft | 414 kts | 68° |
| 2026-04-24 04:34 | -32.81473 | 155.06343 | 31345 ft | 418 kts | 72° |
| 2026-04-24 04:34 | -32.80426 | 155.09521 | 31415 ft | 416 kts | 73° |
| 2026-04-24 04:34 | -32.78415 | 155.16037 | 31320 ft | 421 kts | 74° |
| 2026-04-24 04:35 | -32.77429 | 155.19287 | 31481 ft | 418 kts | 74° |
| 2026-04-24 04:35 | -32.76452 | 155.22523 | 31337 ft | 423 kts | 73° |
| 2026-04-24 04:35 | -32.74466 | 155.29089 | 31553 ft | 418 kts | 74° |
| 2026-04-24 04:36 | -32.73502 | 155.32271 | 31985 ft | 408 kts | 73° |
| 2026-04-24 04:36 | -32.72549 | 155.35419 | 32379 ft | 400 kts | 74° |
| 2026-04-24 04:36 | -32.71621 | 155.38480 | 32583 ft | 396 kts | 74° |
| 2026-04-24 04:36 | -32.70686 | 155.41566 | 32497 ft | 399 kts | 74° |
| 2026-04-24 04:37 | -32.68792 | 155.47801 | 32325 ft | 404 kts | 74° |
| 2026-04-24 04:37 | -32.67825 | 155.50978 | 32005 ft | 412 kts | 74° |
| 2026-04-24 04:37 | -32.66833 | 155.54233 | 31753 ft | 418 kts | 73° |
| 2026-04-24 04:38 | -32.65830 | 155.57520 | 31513 ft | 424 kts | 74° |
| 2026-04-24 04:38 | -32.64816 | 155.60840 | 31320 ft | 428 kts | 73° |
| 2026-04-24 04:38 | -32.63789 | 155.64192 | 31438 ft | 424 kts | 74° |
| 2026-04-24 04:38 | -32.62786 | 155.67471 | 31370 ft | 426 kts | 73° |
| 2026-04-24 04:39 | -32.60764 | 155.74069 | 31446 ft | 424 kts | 73° |
| 2026-04-24 04:39 | -32.59747 | 155.77377 | 31328 ft | 427 kts | 73° |
| 2026-04-24 04:39 | -32.58735 | 155.80673 | 31410 ft | 425 kts | 73° |
| 2026-04-24 04:40 | -32.56704 | 155.87267 | 31319 ft | 427 kts | 73° |
| 2026-04-24 04:40 | -32.55694 | 155.90543 | 31452 ft | 424 kts | 73° |
| 2026-04-24 04:40 | -32.54682 | 155.93823 | 31352 ft | 427 kts | 73° |
| 2026-04-24 04:41 | -32.52634 | 156.00441 | 31448 ft | 425 kts | 73° |
| 2026-04-24 04:41 | -32.51627 | 156.03699 | 31320 ft | 427 kts | 73° |
| 2026-04-24 04:41 | -32.50597 | 156.07016 | 31432 ft | 424 kts | 73° |
| 2026-04-24 04:42 | -32.48558 | 156.13588 | 31335 ft | 427 kts | 73° |
| 2026-04-24 04:42 | -32.47537 | 156.16866 | 31465 ft | 424 kts | 73° |
| 2026-04-24 04:42 | -32.46520 | 156.20132 | 31327 ft | 427 kts | 73° |
| 2026-04-24 04:43 | -32.44477 | 156.26683 | 31440 ft | 425 kts | 73° |
| 2026-04-24 04:43 | -32.43446 | 156.29988 | 31303 ft | 428 kts | 73° |
| 2026-04-24 04:43 | -32.42421 | 156.33263 | 31462 ft | 423 kts | 73° |
| 2026-04-24 04:44 | -32.40369 | 156.39813 | 31338 ft | 426 kts | 73° |
| 2026-04-24 04:44 | -32.39353 | 156.43054 | 31476 ft | 424 kts | 73° |
| 2026-04-24 04:44 | -32.38320 | 156.46343 | 31293 ft | 428 kts | 73° |
| 2026-04-24 04:45 | -32.37284 | 156.49638 | 31426 ft | 424 kts | 72° |
| 2026-04-24 04:45 | -32.36255 | 156.52905 | 31404 ft | 425 kts | 73° |
| 2026-04-24 04:45 | -32.34192 | 156.59450 | 31467 ft | 423 kts | 73° |
| 2026-04-24 04:46 | -32.33172 | 156.62686 | 31326 ft | 427 kts | 73° |
| 2026-04-24 04:46 | -32.32136 | 156.65962 | 31373 ft | 425 kts | 72° |
| 2026-04-24 04:46 | -32.30063 | 156.72513 | 31297 ft | 428 kts | 72° |
| 2026-04-24 04:47 | -32.29026 | 156.75783 | 31457 ft | 424 kts | 72° |
| 2026-04-24 04:47 | -32.28002 | 156.79011 | 31368 ft | 427 kts | 72° |
| 2026-04-24 04:47 | -32.25908 | 156.85596 | 31465 ft | 425 kts | 72° |
| 2026-04-24 04:48 | -32.24876 | 156.88844 | 31306 ft | 428 kts | 72° |
| 2026-04-24 04:48 | -32.23829 | 156.92128 | 31425 ft | 425 kts | 72° |
| 2026-04-24 04:48 | -32.21738 | 156.98682 | 31312 ft | 428 kts | 72° |
| 2026-04-24 04:49 | -32.20705 | 157.01915 | 31460 ft | 425 kts | 72° |
| 2026-04-24 04:49 | -32.19654 | 157.05200 | 31334 ft | 428 kts | 72° |
| 2026-04-24 04:49 | -32.17559 | 157.11736 | 31435 ft | 426 kts | 72° |
| 2026-04-24 04:50 | -32.16510 | 157.15007 | 31307 ft | 429 kts | 72° |
| 2026-04-24 04:50 | -32.15464 | 157.18262 | 31429 ft | 425 kts | 72° |
| 2026-04-24 04:50 | -32.13351 | 157.24829 | 31333 ft | 428 kts | 72° |
| 2026-04-24 04:51 | -32.11253 | 157.31335 | 31312 ft | 429 kts | 72° |
| 2026-04-24 04:51 | -32.09144 | 157.37865 | 31405 ft | 426 kts | 72° |
| 2026-04-24 04:52 | -32.08083 | 157.41148 | 31297 ft | 429 kts | 72° |
| 2026-04-24 04:52 | -32.07020 | 157.44423 | 31410 ft | 426 kts | 72° |
| 2026-04-24 04:52 | -32.04909 | 157.50935 | 31308 ft | 428 kts | 72° |
| 2026-04-24 04:53 | -32.03842 | 157.54213 | 31425 ft | 425 kts | 72° |
| 2026-04-24 04:53 | -32.02795 | 157.57442 | 31309 ft | 429 kts | 72° |
| 2026-04-24 04:53 | -32.00674 | 157.63948 | 31401 ft | 426 kts | 72° |
| 2026-04-24 04:54 | -31.99601 | 157.67236 | 31296 ft | 429 kts | 71° |
| 2026-04-24 04:54 | -31.98537 | 157.70489 | 31412 ft | 426 kts | 71° |
| 2026-04-24 04:54 | -31.96405 | 157.77013 | 31316 ft | 428 kts | 71° |
| 2026-04-24 04:55 | -31.95332 | 157.80286 | 31435 ft | 426 kts | 71° |
| 2026-04-24 04:55 | -31.94274 | 157.83513 | 31312 ft | 429 kts | 71° |
| 2026-04-24 04:55 | -31.92123 | 157.90068 | 31409 ft | 427 kts | 71° |
| 2026-04-24 04:56 | -31.91057 | 157.93304 | 31286 ft | 431 kts | 71° |
| 2026-04-24 04:56 | -31.89978 | 157.96582 | 31399 ft | 427 kts | 71° |
| 2026-04-24 04:56 | -31.87822 | 158.03125 | 31308 ft | 430 kts | 71° |
| 2026-04-24 04:57 | -31.86750 | 158.06372 | 31421 ft | 427 kts | 70° |
| 2026-04-24 04:57 | -31.85666 | 158.09650 | 31326 ft | 430 kts | 70° |
| 2026-04-24 04:57 | -31.83502 | 158.16188 | 31405 ft | 429 kts | 70° |
| 2026-04-24 04:58 | -31.81341 | 158.22700 | 31393 ft | 429 kts | 70° |
| 2026-04-24 04:58 | -31.79168 | 158.29237 | 31328 ft | 431 kts | 71° |
| 2026-04-24 04:59 | -31.76993 | 158.35768 | 31344 ft | 432 kts | 70° |
| 2026-04-24 04:59 | -31.74802 | 158.42333 | 31402 ft | 431 kts | 70° |
| 2026-04-24 05:00 | -31.72613 | 158.48881 | 31372 ft | 432 kts | 70° |
| 2026-04-24 05:00 | -31.70419 | 158.55431 | 31330 ft | 433 kts | 70° |
| 2026-04-24 05:01 | -31.68224 | 158.61969 | 31375 ft | 433 kts | 70° |
| 2026-04-24 05:01 | -31.66010 | 158.68550 | 31385 ft | 433 kts | 69° |
| 2026-04-24 05:02 | -31.63788 | 158.75140 | 31336 ft | 436 kts | 69° |
| 2026-04-24 05:02 | -31.61564 | 158.81728 | 31350 ft | 437 kts | 69° |
| 2026-04-24 05:03 | -31.59335 | 158.88312 | 31384 ft | 436 kts | 69° |
| 2026-04-24 05:03 | -31.57082 | 158.94957 | 31338 ft | 438 kts | 69° |
| 2026-04-24 05:04 | -31.54830 | 159.01588 | 31325 ft | 440 kts | 68° |
| 2026-04-24 05:04 | -31.52599 | 159.08237 | 31367 ft | 439 kts | 72° |
| 2026-04-24 05:05 | -31.50944 | 159.15131 | 31372 ft | 439 kts | 73° |
| 2026-04-24 05:05 | -31.49244 | 159.22023 | 31321 ft | 442 kts | 73° |
| 2026-04-24 05:06 | -31.47544 | 159.28876 | 31362 ft | 442 kts | 73° |
| 2026-04-24 05:06 | -31.45826 | 159.35776 | 31376 ft | 442 kts | 73° |
| 2026-04-24 05:07 | -31.44106 | 159.42674 | 31314 ft | 444 kts | 73° |
| 2026-04-24 05:07 | -31.42376 | 159.49596 | 31319 ft | 445 kts | 73° |
| 2026-04-24 05:08 | -31.40638 | 159.56528 | 31376 ft | 444 kts | 72° |
| 2026-04-24 05:08 | -31.38885 | 159.63495 | 31353 ft | 446 kts | 72° |
| 2026-04-24 05:09 | -31.37141 | 159.70416 | 31319 ft | 448 kts | 72° |
| 2026-04-24 05:09 | -31.35375 | 159.77409 | 31351 ft | 448 kts | 71° |
| 2026-04-24 05:10 | -31.33611 | 159.84372 | 31356 ft | 449 kts | 71° |
| 2026-04-24 05:10 | -31.31831 | 159.91377 | 31304 ft | 452 kts | 71° |
| 2026-04-24 05:11 | -31.30042 | 159.98406 | 31327 ft | 453 kts | 71° |
| 2026-04-24 05:11 | -31.28235 | 160.05490 | 31342 ft | 454 kts | 71° |
| 2026-04-24 05:12 | -31.26426 | 160.12556 | 31307 ft | 457 kts | 71° |
| 2026-04-24 05:12 | -31.24609 | 160.19640 | 31335 ft | 458 kts | 71° |
| 2026-04-24 05:13 | -31.21866 | 160.30302 | 31328 ft | 460 kts | 71° |
| 2026-04-24 05:14 | -31.20011 | 160.37486 | 31328 ft | 461 kts | 71° |
| 2026-04-24 05:14 | -31.18168 | 160.44608 | 31334 ft | 462 kts | 70° |
| 2026-04-24 05:15 | -31.16297 | 160.51819 | 31331 ft | 464 kts | 70° |
| 2026-04-24 05:15 | -31.14430 | 160.59003 | 31332 ft | 465 kts | 70° |
| 2026-04-24 05:16 | -31.12548 | 160.66219 | 31342 ft | 467 kts | 69° |
| 2026-04-24 05:16 | -31.10657 | 160.73450 | 31313 ft | 468 kts | 69° |
| 2026-04-24 05:17 | -31.08759 | 160.80690 | 31327 ft | 469 kts | 69° |
| 2026-04-24 05:17 | -31.06846 | 160.87975 | 31366 ft | 469 kts | 69° |
| 2026-04-24 05:18 | -31.04927 | 160.95256 | 31328 ft | 471 kts | 69° |
| 2026-04-24 05:18 | -31.03008 | 161.02522 | 31282 ft | 474 kts | 69° |
| 2026-04-24 05:19 | -31.01065 | 161.09865 | 31344 ft | 474 kts | 68° |
| 2026-04-24 05:19 | -30.99116 | 161.17207 | 31362 ft | 475 kts | 69° |
| 2026-04-24 05:20 | -30.97163 | 161.24544 | 31310 ft | 478 kts | 68° |
| 2026-04-24 05:20 | -30.95190 | 161.31943 | 31308 ft | 480 kts | 68° |
| 2026-04-24 05:21 | -30.93218 | 161.39308 | 31354 ft | 480 kts | 68° |
| 2026-04-24 05:21 | -30.91226 | 161.46744 | 31345 ft | 482 kts | 68° |
| 2026-04-24 05:22 | -30.89220 | 161.54201 | 31309 ft | 484 kts | 68° |
| 2026-04-24 05:22 | -30.87207 | 161.61673 | 31323 ft | 486 kts | 68° |
| 2026-04-24 05:23 | -30.85178 | 161.69180 | 31354 ft | 487 kts | 67° |
| 2026-04-24 05:23 | -30.83148 | 161.76677 | 31321 ft | 488 kts | 67° |
| 2026-04-24 05:24 | -30.81109 | 161.84183 | 31286 ft | 491 kts | 67° |
| 2026-04-24 05:24 | -30.79056 | 161.91724 | 31327 ft | 491 kts | 66° |
| 2026-04-24 05:25 | -30.76991 | 161.99287 | 31339 ft | 492 kts | 66° |
| 2026-04-24 05:25 | -30.74917 | 162.06865 | 31290 ft | 494 kts | 66° |
| 2026-04-24 05:26 | -30.72839 | 162.14445 | 31296 ft | 495 kts | 66° |
| 2026-04-24 05:26 | -30.70749 | 162.22037 | 31339 ft | 495 kts | 66° |
| 2026-04-24 05:27 | -30.68637 | 162.29694 | 31313 ft | 496 kts | 66° |
| 2026-04-24 05:27 | -30.66529 | 162.37321 | 31286 ft | 499 kts | 66° |
| 2026-04-24 05:28 | -30.64410 | 162.44968 | 31326 ft | 499 kts | 66° |
| 2026-04-24 05:28 | -30.62286 | 162.52611 | 31339 ft | 499 kts | 66° |
| 2026-04-24 05:29 | -30.60145 | 162.60294 | 31283 ft | 502 kts | 65° |
| 2026-04-24 05:29 | -30.57998 | 162.67973 | 31283 ft | 503 kts | 65° |
| 2026-04-24 05:30 | -30.55846 | 162.75671 | 31347 ft | 502 kts | 65° |
| 2026-04-24 05:30 | -30.53680 | 162.83388 | 31306 ft | 502 kts | 64° |
| 2026-04-24 05:31 | -30.51508 | 162.91097 | 31261 ft | 505 kts | 64° |
| 2026-04-24 05:31 | -30.49336 | 162.98798 | 31311 ft | 504 kts | 64° |
| 2026-04-24 05:32 | -30.47188 | 163.06491 | 31347 ft | 504 kts | 64° |
| 2026-04-24 05:32 | -30.45018 | 163.14253 | 31291 ft | 506 kts | 64° |
| 2026-04-24 05:33 | -30.42855 | 163.21970 | 31266 ft | 508 kts | 64° |
| 2026-04-24 05:33 | -30.40683 | 163.29710 | 31346 ft | 507 kts | 64° |
| 2026-04-24 05:34 | -30.37402 | 163.41354 | 31311 ft | 510 kts | 64° |
| 2026-04-24 05:34 | -30.35191 | 163.49176 | 31356 ft | 509 kts | 63° |
| 2026-04-24 05:35 | -30.32989 | 163.56949 | 31309 ft | 511 kts | 64° |
| 2026-04-24 05:35 | -30.30765 | 163.64781 | 31252 ft | 514 kts | 64° |
| 2026-04-24 05:36 | -30.28542 | 163.72582 | 31282 ft | 513 kts | 63° |
| 2026-04-24 05:36 | -30.26320 | 163.80370 | 31327 ft | 511 kts | 63° |
| 2026-04-24 05:37 | -30.24081 | 163.88190 | 31271 ft | 512 kts | 63° |
| 2026-04-24 05:37 | -30.21845 | 163.95978 | 31241 ft | 513 kts | 63° |
| 2026-04-24 05:38 | -30.19603 | 164.03773 | 31308 ft | 513 kts | 63° |
| 2026-04-24 05:38 | -30.17354 | 164.11572 | 31337 ft | 512 kts | 62° |
| 2026-04-24 05:39 | -30.15092 | 164.19392 | 31277 ft | 514 kts | 62° |
| 2026-04-24 05:39 | -30.12831 | 164.27197 | 31256 ft | 515 kts | 62° |
| 2026-04-24 05:40 | -30.10556 | 164.35025 | 31310 ft | 515 kts | 62° |
| 2026-04-24 05:40 | -30.08272 | 164.42868 | 31319 ft | 515 kts | 62° |
| 2026-04-24 05:41 | -30.05985 | 164.50696 | 31268 ft | 517 kts | 62° |
| 2026-04-24 05:41 | -30.03692 | 164.58527 | 31264 ft | 518 kts | 62° |
| 2026-04-24 05:42 | -30.01386 | 164.66376 | 31317 ft | 518 kts | 62° |
| 2026-04-24 05:42 | -30.00221 | 164.70342 | 31215 ft | 520 kts | 62° |
| 2026-04-24 05:42 | -29.99072 | 164.74258 | 31300 ft | 517 kts | 62° |
| 2026-04-24 05:43 | -29.96766 | 164.82066 | 31218 ft | 518 kts | 61° |
| 2026-04-24 05:43 | -29.95597 | 164.86029 | 31322 ft | 516 kts | 61° |
| 2026-04-24 05:43 | -29.94442 | 164.89928 | 31249 ft | 518 kts | 61° |
| 2026-04-24 05:44 | -29.92126 | 164.97742 | 31330 ft | 515 kts | 60° |
| 2026-04-24 05:44 | -29.89815 | 165.05522 | 31299 ft | 516 kts | 61° |
| 2026-04-24 05:45 | -29.87483 | 165.13341 | 31239 ft | 519 kts | 61° |
| 2026-04-24 05:45 | -29.86321 | 165.17248 | 31343 ft | 517 kts | 61° |
| 2026-04-24 05:45 | -29.85139 | 165.21197 | 31275 ft | 520 kts | 61° |
| 2026-04-24 05:46 | -29.82798 | 165.29022 | 31342 ft | 520 kts | 61° |
| 2026-04-24 05:46 | -29.80428 | 165.36917 | 31312 ft | 521 kts | 61° |
| 2026-04-24 05:47 | -29.78065 | 165.44766 | 31241 ft | 525 kts | 61° |
| 2026-04-24 05:47 | -29.76875 | 165.48726 | 31344 ft | 522 kts | 60° |
| 2026-04-24 05:47 | -29.75672 | 165.52713 | 31269 ft | 525 kts | 61° |
| 2026-04-24 05:48 | -29.73294 | 165.60584 | 31354 ft | 524 kts | 60° |
| 2026-04-24 05:48 | -29.72093 | 165.64540 | 31246 ft | 527 kts | 61° |
| 2026-04-24 05:48 | -29.70888 | 165.68521 | 31276 ft | 525 kts | 60° |
| 2026-04-24 05:49 | -29.68481 | 165.76436 | 31222 ft | 526 kts | 60° |
| 2026-04-24 05:49 | -29.66071 | 165.84363 | 31276 ft | 525 kts | 60° |
| 2026-04-24 05:50 | -29.63672 | 165.92227 | 31333 ft | 523 kts | 60° |
| 2026-04-24 05:50 | -29.61257 | 166.00107 | 31267 ft | 525 kts | 60° |
| 2026-04-24 05:51 | -29.58841 | 166.07979 | 31231 ft | 526 kts | 60° |
| 2026-04-24 05:51 | -29.56403 | 166.15916 | 31292 ft | 525 kts | 60° |
| 2026-04-24 05:52 | -29.53978 | 166.23791 | 31332 ft | 525 kts | 60° |
| 2026-04-24 05:52 | -29.51537 | 166.31682 | 31254 ft | 527 kts | 60° |
| 2026-04-24 05:53 | -29.49087 | 166.39592 | 31224 ft | 529 kts | 59° |
| 2026-04-24 05:53 | -29.46623 | 166.47533 | 31280 ft | 528 kts | 60° |
| 2026-04-24 05:54 | -29.44162 | 166.55446 | 31305 ft | 528 kts | 60° |
| 2026-04-24 05:54 | -29.41690 | 166.63373 | 31226 ft | 530 kts | 60° |
| 2026-04-24 05:55 | -29.39207 | 166.71318 | 31214 ft | 530 kts | 59° |
| 2026-04-24 05:55 | -29.36725 | 166.79240 | 31266 ft | 528 kts | 59° |
| 2026-04-24 05:56 | -29.34242 | 166.87137 | 31241 ft | 528 kts | 59° |
| 2026-04-24 05:56 | -29.31750 | 166.95050 | 31203 ft | 529 kts | 59° |
| 2026-04-24 05:57 | -29.29273 | 167.02908 | 31238 ft | 528 kts | 59° |
| 2026-04-24 05:57 | -29.26780 | 167.10788 | 31281 ft | 527 kts | 59° |
| 2026-04-24 05:58 | -29.24270 | 167.18697 | 31245 ft | 528 kts | 59° |
| 2026-04-24 05:58 | -29.21765 | 167.26572 | 31198 ft | 530 kts | 59° |
| 2026-04-24 05:59 | -29.19267 | 167.34419 | 31235 ft | 530 kts | 59° |
| 2026-04-24 05:59 | -29.16735 | 167.42358 | 31298 ft | 529 kts | 59° |
| 2026-04-24 06:00 | -29.14205 | 167.50258 | 31252 ft | 530 kts | 59° |
| 2026-04-24 06:00 | -29.11667 | 167.58162 | 31190 ft | 532 kts | 59° |
| 2026-04-24 06:01 | -29.09127 | 167.66074 | 31232 ft | 532 kts | 59° |
| 2026-04-24 06:01 | -29.06586 | 167.73961 | 31280 ft | 529 kts | 58° |
| 2026-04-24 06:02 | -29.04040 | 167.81834 | 31229 ft | 529 kts | 58° |
| 2026-04-24 06:02 | -29.01119 | 167.89410 | 31180 ft | 500 kts | 40° |
| 2026-04-24 06:03 | -28.98891 | 167.92206 | 31352 ft | 465 kts | 26° |
| 2026-04-24 06:03 | -28.96354 | 167.94409 | 31247 ft | 449 kts | 17° |
| 2026-04-24 06:03 | -28.91005 | 167.97948 | 31314 ft | 439 kts | 13° |
| 2026-04-24 06:04 | -28.88311 | 167.99608 | 31191 ft | 442 kts | 13° |
| 2026-04-24 06:04 | -28.85619 | 168.01259 | 31304 ft | 439 kts | 13° |
| 2026-04-24 06:04 | -28.80207 | 168.04546 | 31214 ft | 443 kts | 13° |
| 2026-04-24 06:05 | -28.74750 | 168.07854 | 31222 ft | 444 kts | 13° |
| 2026-04-24 06:05 | -28.69299 | 168.11156 | 31284 ft | 443 kts | 13° |
| 2026-04-24 06:06 | -28.63854 | 168.14450 | 31268 ft | 444 kts | 13° |
| 2026-04-24 06:06 | -28.58384 | 168.17754 | 31203 ft | 447 kts | 13° |
| 2026-04-24 06:07 | -28.52881 | 168.21071 | 31214 ft | 448 kts | 13° |
| 2026-04-24 06:07 | -28.47383 | 168.24387 | 31275 ft | 447 kts | 13° |
| 2026-04-24 06:08 | -28.41899 | 168.27687 | 31232 ft | 448 kts | 13° |
| 2026-04-24 06:08 | -28.36361 | 168.31017 | 31192 ft | 450 kts | 13° |
| 2026-04-24 06:09 | -28.30866 | 168.34317 | 31246 ft | 449 kts | 14° |
| 2026-04-24 06:09 | -28.25308 | 168.37648 | 31263 ft | 448 kts | 13° |
| 2026-04-24 06:10 | -28.19789 | 168.40953 | 31210 ft | 451 kts | 14° |
| 2026-04-24 06:11 | -28.11470 | 168.45931 | 31221 ft | 451 kts | 14° |
| 2026-04-24 06:11 | -28.05892 | 168.49262 | 31183 ft | 452 kts | 14° |
| 2026-04-24 06:12 | -28.00365 | 168.52560 | 31235 ft | 451 kts | 14° |
| 2026-04-24 06:12 | -27.94798 | 168.55876 | 31232 ft | 450 kts | 14° |
| 2026-04-24 06:13 | -27.89252 | 168.59178 | 31167 ft | 452 kts | 14° |
| 2026-04-24 06:13 | -27.86456 | 168.60840 | 31276 ft | 449 kts | 14° |
| 2026-04-24 06:13 | -27.83693 | 168.62480 | 31182 ft | 452 kts | 14° |
| 2026-04-24 06:14 | -27.78123 | 168.65793 | 31240 ft | 451 kts | 13° |
| 2026-04-24 06:14 | -27.75328 | 168.67445 | 31131 ft | 453 kts | 14° |
| 2026-04-24 06:14 | -27.72555 | 168.69090 | 31240 ft | 449 kts | 14° |
| 2026-04-24 06:15 | -27.67000 | 168.72382 | 31134 ft | 452 kts | 14° |
| 2026-04-24 06:15 | -27.64217 | 168.74033 | 31255 ft | 448 kts | 14° |
| 2026-04-24 06:15 | -27.61472 | 168.75653 | 31147 ft | 451 kts | 14° |
| 2026-04-24 06:16 | -27.55924 | 168.78934 | 31246 ft | 447 kts | 14° |
| 2026-04-24 06:16 | -27.53146 | 168.80571 | 31113 ft | 450 kts | 13° |
| 2026-04-24 06:16 | -27.50389 | 168.82202 | 31205 ft | 447 kts | 14° |
| 2026-04-24 06:17 | -27.44885 | 168.85443 | 31115 ft | 448 kts | 14° |
| 2026-04-24 06:17 | -27.42145 | 168.87062 | 31242 ft | 445 kts | 13° |
| 2026-04-24 06:17 | -27.39357 | 168.88702 | 31137 ft | 448 kts | 14° |
| 2026-04-24 06:18 | -27.33889 | 168.91921 | 31222 ft | 444 kts | 14° |
| 2026-04-24 06:18 | -27.31139 | 168.93535 | 31120 ft | 447 kts | 14° |
| 2026-04-24 06:18 | -27.28356 | 168.95171 | 31220 ft | 444 kts | 14° |
| 2026-04-24 06:19 | -27.22899 | 168.98373 | 31120 ft | 445 kts | 14° |
| 2026-04-24 06:19 | -27.20138 | 168.99995 | 31221 ft | 442 kts | 14° |
| 2026-04-24 06:19 | -27.17403 | 169.01598 | 31146 ft | 445 kts | 13° |
| 2026-04-24 06:20 | -27.11953 | 169.04788 | 31230 ft | 442 kts | 14° |
| 2026-04-24 06:20 | -27.09250 | 169.06500 | 31106 ft | 458 kts | 24° |
| 2026-04-24 06:20 | -27.06856 | 169.08989 | 31220 ft | 477 kts | 34° |
| 2026-04-24 06:20 | -27.04479 | 169.11508 | 31209 ft | 454 kts | 21° |
| 2026-04-24 06:21 | -27.01810 | 169.13078 | 31146 ft | 420 kts | 4° |
| 2026-04-24 06:21 | -26.99027 | 169.13660 | 31318 ft | 395 kts | 354° |
| 2026-04-24 06:21 | -26.96273 | 169.14414 | 31117 ft | 422 kts | 8° |
| 2026-04-24 06:21 | -26.93564 | 169.15727 | 31245 ft | 426 kts | 11° |
| 2026-04-24 06:22 | -26.90885 | 169.17169 | 31197 ft | 432 kts | 13° |
| 2026-04-24 06:22 | -26.85496 | 169.20248 | 31289 ft | 432 kts | 14° |
| 2026-04-24 06:22 | -26.82823 | 169.21799 | 31126 ft | 438 kts | 14° |
| 2026-04-24 06:23 | -26.80126 | 169.23366 | 31191 ft | 436 kts | 14° |
| 2026-04-24 06:23 | -26.74719 | 169.26504 | 31130 ft | 439 kts | 14° |
| 2026-04-24 06:23 | -26.72026 | 169.28078 | 31231 ft | 437 kts | 14° |
| 2026-04-24 06:24 | -26.69331 | 169.29636 | 31185 ft | 439 kts | 14° |
| 2026-04-24 06:24 | -26.63902 | 169.32790 | 31234 ft | 439 kts | 14° |
| 2026-04-24 06:25 | -26.58438 | 169.35957 | 31183 ft | 440 kts | 14° |
| 2026-04-24 06:25 | -26.53019 | 169.39094 | 31146 ft | 442 kts | 14° |
| 2026-04-24 06:26 | -26.47573 | 169.42247 | 31195 ft | 440 kts | 14° |
| 2026-04-24 06:26 | -26.42139 | 169.45383 | 31218 ft | 438 kts | 15° |
| 2026-04-24 06:27 | -26.36721 | 169.48511 | 31153 ft | 440 kts | 15° |
| 2026-04-24 06:27 | -26.31299 | 169.51634 | 31162 ft | 440 kts | 15° |
| 2026-04-24 06:28 | -26.25857 | 169.54770 | 31225 ft | 438 kts | 15° |
| 2026-04-24 06:28 | -26.20411 | 169.57906 | 31208 ft | 438 kts | 14° |
| 2026-04-24 06:29 | -26.15012 | 169.61006 | 31138 ft | 439 kts | 15° |
| 2026-04-24 06:29 | -26.09574 | 169.64128 | 31183 ft | 438 kts | 15° |
| 2026-04-24 06:30 | -26.04151 | 169.67238 | 31192 ft | 436 kts | 15° |
| 2026-04-24 06:30 | -25.98750 | 169.70332 | 31147 ft | 436 kts | 14° |
| 2026-04-24 06:31 | -25.93381 | 169.73406 | 31127 ft | 435 kts | 15° |
| 2026-04-24 06:31 | -25.87996 | 169.76485 | 31191 ft | 433 kts | 15° |
| 2026-04-24 06:32 | -25.82632 | 169.79547 | 31172 ft | 433 kts | 16° |
| 2026-04-24 06:32 | -25.77273 | 169.82603 | 31137 ft | 434 kts | 15° |
| 2026-04-24 06:33 | -25.71920 | 169.85658 | 31172 ft | 433 kts | 15° |
| 2026-04-24 06:33 | -25.66547 | 169.88715 | 31189 ft | 432 kts | 16° |
| 2026-04-24 06:34 | -25.61167 | 169.91774 | 31131 ft | 433 kts | 15° |
| 2026-04-24 06:34 | -25.55821 | 169.94814 | 31122 ft | 433 kts | 15° |
| 2026-04-24 06:35 | -25.50476 | 169.97847 | 31194 ft | 431 kts | 15° |
| 2026-04-24 06:35 | -25.45107 | 170.00891 | 31178 ft | 431 kts | 16° |
| 2026-04-24 06:36 | -25.39735 | 170.03932 | 31095 ft | 433 kts | 15° |
| 2026-04-24 06:36 | -25.34380 | 170.06966 | 31112 ft | 432 kts | 16° |
| 2026-04-24 06:37 | -25.29074 | 170.09967 | 31192 ft | 430 kts | 15° |
| 2026-04-24 06:37 | -25.26397 | 170.11475 | 31091 ft | 431 kts | 16° |
| 2026-04-24 06:37 | -25.23730 | 170.12985 | 31138 ft | 430 kts | 16° |
| 2026-04-24 06:38 | -25.18399 | 170.15993 | 31077 ft | 432 kts | 16° |
| 2026-04-24 06:38 | -25.13077 | 170.18988 | 31142 ft | 429 kts | 17° |
| 2026-04-24 06:39 | -25.07742 | 170.21995 | 31189 ft | 428 kts | 16° |
| 2026-04-24 06:39 | -25.05079 | 170.23496 | 31088 ft | 430 kts | 17° |
| 2026-04-24 06:39 | -25.02420 | 170.24988 | 31116 ft | 429 kts | 17° |
| 2026-04-24 06:40 | -24.97105 | 170.27977 | 31060 ft | 431 kts | 16° |
| 2026-04-24 06:40 | -24.94444 | 170.29472 | 31174 ft | 427 kts | 16° |
| 2026-04-24 06:40 | -24.91784 | 170.30962 | 31106 ft | 429 kts | 17° |
| 2026-04-24 06:41 | -24.86478 | 170.33939 | 31204 ft | 426 kts | 17° |
| 2026-04-24 06:41 | -24.83822 | 170.35429 | 31071 ft | 430 kts | 17° |
| 2026-04-24 06:41 | -24.81162 | 170.36920 | 31152 ft | 428 kts | 17° |
| 2026-04-24 06:42 | -24.75846 | 170.39897 | 31064 ft | 430 kts | 18° |
| 2026-04-24 06:42 | -24.73156 | 170.41403 | 31197 ft | 427 kts | 17° |
| 2026-04-24 06:42 | -24.70534 | 170.42866 | 31109 ft | 430 kts | 17° |
| 2026-04-24 06:43 | -24.65181 | 170.45856 | 31194 ft | 428 kts | 17° |
| 2026-04-24 06:43 | -24.62532 | 170.47334 | 31068 ft | 431 kts | 17° |
| 2026-04-24 06:43 | -24.59868 | 170.48824 | 31145 ft | 428 kts | 18° |
| 2026-04-24 06:44 | -24.54546 | 170.51790 | 31059 ft | 430 kts | 18° |
| 2026-04-24 06:44 | -24.51885 | 170.53276 | 31187 ft | 427 kts | 17° |
| 2026-04-24 06:44 | -24.49217 | 170.54759 | 31089 ft | 430 kts | 18° |
| 2026-04-24 06:45 | -24.43905 | 170.57716 | 31175 ft | 427 kts | 18° |
| 2026-04-24 06:45 | -24.41245 | 170.59196 | 31057 ft | 430 kts | 17° |
| 2026-04-24 06:45 | -24.38566 | 170.60686 | 31155 ft | 428 kts | 18° |
| 2026-04-24 06:46 | -24.33253 | 170.63638 | 31067 ft | 430 kts | 18° |
| 2026-04-24 06:46 | -24.30569 | 170.65128 | 31180 ft | 427 kts | 17° |
| 2026-04-24 06:46 | -24.27916 | 170.66597 | 31050 ft | 430 kts | 18° |
| 2026-04-24 06:47 | -24.22614 | 170.69537 | 31147 ft | 426 kts | 18° |
| 2026-04-24 06:47 | -24.19962 | 170.71010 | 31028 ft | 428 kts | 17° |
| 2026-04-24 06:47 | -24.17312 | 170.72478 | 31152 ft | 424 kts | 18° |
| 2026-04-24 06:48 | -24.11998 | 170.75420 | 31069 ft | 426 kts | 18° |
| 2026-04-24 06:48 | -24.06744 | 170.78322 | 31064 ft | 426 kts | 18° |
| 2026-04-24 06:49 | -24.01451 | 170.81247 | 31123 ft | 424 kts | 18° |
| 2026-04-24 06:49 | -23.96164 | 170.84164 | 31144 ft | 423 kts | 18° |
| 2026-04-24 06:50 | -23.90903 | 170.87067 | 31077 ft | 425 kts | 18° |
| 2026-04-24 06:50 | -23.85621 | 170.89977 | 31069 ft | 426 kts | 18° |
| 2026-04-24 06:51 | -23.80333 | 170.92885 | 31133 ft | 425 kts | 18° |
| 2026-04-24 06:51 | -23.75052 | 170.95792 | 31134 ft | 425 kts | 18° |
| 2026-04-24 06:52 | -23.69726 | 170.98717 | 31068 ft | 427 kts | 18° |
| 2026-04-24 06:52 | -23.64419 | 171.01630 | 31057 ft | 428 kts | 18° |
| 2026-04-24 06:53 | -23.59109 | 171.04542 | 31129 ft | 427 kts | 18° |
| 2026-04-24 06:53 | -23.53787 | 171.07460 | 31134 ft | 427 kts | 18° |
| 2026-04-24 06:54 | -23.48446 | 171.10381 | 31061 ft | 429 kts | 18° |
| 2026-04-24 06:54 | -23.43099 | 171.13304 | 31055 ft | 429 kts | 19° |
| 2026-04-24 06:55 | -23.37802 | 171.16200 | 31120 ft | 428 kts | 18° |
| 2026-04-24 06:55 | -23.32425 | 171.19135 | 31113 ft | 428 kts | 18° |
| 2026-04-24 06:56 | -23.27100 | 171.22038 | 31045 ft | 430 kts | 18° |
| 2026-04-24 06:56 | -23.21767 | 171.24944 | 31038 ft | 430 kts | 18° |
| 2026-04-24 06:57 | -23.16435 | 171.27847 | 31110 ft | 428 kts | 18° |
| 2026-04-24 06:57 | -23.11079 | 171.30759 | 31115 ft | 428 kts | 18° |
| 2026-04-24 06:58 | -23.05743 | 171.33661 | 31041 ft | 429 kts | 18° |
| 2026-04-24 06:58 | -23.00417 | 171.36552 | 31007 ft | 430 kts | 18° |
| 2026-04-24 06:59 | -22.95078 | 171.39450 | 31072 ft | 429 kts | 18° |
| 2026-04-24 06:59 | -22.89705 | 171.42362 | 31120 ft | 427 kts | 19° |
| 2026-04-24 07:00 | -22.84341 | 171.45265 | 31072 ft | 429 kts | 19° |
| 2026-04-24 07:00 | -22.79020 | 171.48143 | 31021 ft | 431 kts | 19° |
| 2026-04-24 07:01 | -22.73665 | 171.51038 | 31074 ft | 431 kts | 19° |
| 2026-04-24 07:01 | -22.68292 | 171.53941 | 31122 ft | 430 kts | 19° |
| 2026-04-24 07:02 | -22.62915 | 171.56841 | 31063 ft | 432 kts | 19° |
| 2026-04-24 07:02 | -22.57532 | 171.59743 | 31014 ft | 433 kts | 19° |
| 2026-04-24 07:03 | -22.52141 | 171.62648 | 31067 ft | 433 kts | 19° |
| 2026-04-24 07:03 | -22.46740 | 171.65555 | 31131 ft | 431 kts | 19° |
| 2026-04-24 07:03 | -22.44043 | 171.67004 | 30993 ft | 434 kts | 18° |
| 2026-04-24 07:04 | -22.41344 | 171.68455 | 31080 ft | 431 kts | 19° |
| 2026-04-24 07:04 | -22.35940 | 171.71359 | 30987 ft | 433 kts | 19° |
| 2026-04-24 07:04 | -22.33273 | 171.72792 | 31123 ft | 429 kts | 19° |
| 2026-04-24 07:05 | -22.30559 | 171.74246 | 31008 ft | 432 kts | 19° |
| 2026-04-24 07:05 | -22.25220 | 171.77112 | 31093 ft | 429 kts | 19° |
| 2026-04-24 07:05 | -22.22505 | 171.78564 | 30987 ft | 432 kts | 19° |
| 2026-04-24 07:06 | -22.19838 | 171.79996 | 31100 ft | 429 kts | 19° |
| 2026-04-24 07:06 | -22.14462 | 171.82873 | 31019 ft | 430 kts | 19° |
| 2026-04-24 07:07 | -22.09111 | 171.85733 | 30993 ft | 431 kts | 19° |
| 2026-04-24 07:07 | -22.01072 | 171.90030 | 31000 ft | 430 kts | 19° |
| 2026-04-24 07:08 | -21.95715 | 171.92891 | 31010 ft | 430 kts | 19° |
| 2026-04-24 07:08 | -21.90383 | 171.95734 | 31073 ft | 428 kts | 20° |
| 2026-04-24 07:09 | -21.85003 | 171.98601 | 31098 ft | 428 kts | 20° |
| 2026-04-24 07:09 | -21.79640 | 172.01454 | 31026 ft | 430 kts | 20° |
| 2026-04-24 07:10 | -21.74261 | 172.04317 | 30988 ft | 432 kts | 20° |
| 2026-04-24 07:10 | -21.68867 | 172.07184 | 31051 ft | 431 kts | 20° |
| 2026-04-24 07:11 | -21.63486 | 172.10043 | 31106 ft | 430 kts | 20° |
| 2026-04-24 07:11 | -21.60799 | 172.11469 | 30991 ft | 433 kts | 20° |
| 2026-04-24 07:11 | -21.58092 | 172.12907 | 31054 ft | 431 kts | 20° |
| 2026-04-24 07:12 | -21.52688 | 172.15770 | 30989 ft | 433 kts | 20° |
| 2026-04-24 07:12 | -21.49999 | 172.17195 | 31095 ft | 430 kts | 20° |
| 2026-04-24 07:12 | -21.47321 | 172.18614 | 31015 ft | 432 kts | 20° |
| 2026-04-24 07:13 | -21.41919 | 172.21472 | 31090 ft | 430 kts | 20° |
| 2026-04-24 07:13 | -21.39223 | 172.22900 | 30988 ft | 433 kts | 20° |
| 2026-04-24 07:13 | -21.36535 | 172.24318 | 31067 ft | 431 kts | 21° |
| 2026-04-24 07:14 | -21.31107 | 172.27187 | 31000 ft | 432 kts | 21° |
| 2026-04-24 07:14 | -21.25721 | 172.30032 | 30999 ft | 433 kts | 21° |
| 2026-04-24 07:15 | -21.20351 | 172.32866 | 31056 ft | 431 kts | 20° |
| 2026-04-24 07:15 | -21.14942 | 172.35716 | 31073 ft | 430 kts | 21° |
| 2026-04-24 07:16 | -21.09548 | 172.38556 | 31015 ft | 431 kts | 21° |
| 2026-04-24 07:16 | -21.04133 | 172.41408 | 30992 ft | 432 kts | 21° |
| 2026-04-24 07:17 | -20.98770 | 172.44226 | 31033 ft | 431 kts | 21° |
| 2026-04-24 07:17 | -20.93357 | 172.47072 | 31065 ft | 430 kts | 21° |
| 2026-04-24 07:18 | -20.87954 | 172.49908 | 31022 ft | 432 kts | 21° |
| 2026-04-24 07:18 | -20.82558 | 172.52739 | 30981 ft | 433 kts | 21° |
| 2026-04-24 07:19 | -20.77126 | 172.55586 | 31032 ft | 433 kts | 21° |
| 2026-04-24 07:19 | -20.71706 | 172.58427 | 31070 ft | 433 kts | 21° |
| 2026-04-24 07:20 | -20.66267 | 172.61270 | 31019 ft | 435 kts | 21° |
| 2026-04-24 07:20 | -20.60812 | 172.64125 | 30975 ft | 437 kts | 21° |
| 2026-04-24 07:21 | -20.55359 | 172.66972 | 31013 ft | 437 kts | 21° |
| 2026-04-24 07:21 | -20.49886 | 172.69830 | 31067 ft | 436 kts | 21° |
| 2026-04-24 07:22 | -20.44409 | 172.72687 | 31025 ft | 437 kts | 21° |
| 2026-04-24 07:22 | -20.38920 | 172.75548 | 30934 ft | 438 kts | 21° |
| 2026-04-24 07:23 | -20.36198 | 172.76968 | 31079 ft | 435 kts | 21° |
| 2026-04-24 07:23 | -20.33460 | 172.78391 | 30977 ft | 438 kts | 21° |
| 2026-04-24 07:23 | -20.27976 | 172.81245 | 31066 ft | 437 kts | 21° |
| 2026-04-24 07:24 | -20.25236 | 172.82671 | 30949 ft | 439 kts | 21° |
| 2026-04-24 07:24 | -20.22519 | 172.84082 | 31065 ft | 437 kts | 21° |
| 2026-04-24 07:24 | -20.17004 | 172.86949 | 30989 ft | 439 kts | 21° |
| 2026-04-24 07:25 | -20.11486 | 172.89813 | 30971 ft | 441 kts | 21° |
| 2026-04-24 07:25 | -20.05990 | 172.92665 | 31028 ft | 440 kts | 21° |
| 2026-04-24 07:26 | -20.00473 | 172.95526 | 31073 ft | 439 kts | 21° |
| 2026-04-24 07:26 | -19.94956 | 172.98381 | 31016 ft | 441 kts | 21° |
| 2026-04-24 07:27 | -19.89430 | 173.01242 | 30970 ft | 440 kts | 21° |
| 2026-04-24 07:27 | -19.86695 | 173.02658 | 31085 ft | 438 kts | 21° |
| 2026-04-24 07:27 | -19.83942 | 173.04080 | 30994 ft | 441 kts | 21° |
| 2026-04-24 07:28 | -19.78422 | 173.06934 | 31055 ft | 441 kts | 21° |
| 2026-04-24 07:28 | -19.72871 | 173.09799 | 31058 ft | 442 kts | 21° |
| 2026-04-24 07:29 | -19.67292 | 173.12677 | 30989 ft | 444 kts | 21° |
| 2026-04-24 07:29 | -19.61733 | 173.15543 | 30965 ft | 446 kts | 21° |
| 2026-04-24 07:30 | -19.56158 | 173.18414 | 31026 ft | 446 kts | 21° |
| 2026-04-24 07:30 | -19.50565 | 173.21294 | 31054 ft | 446 kts | 21° |
| 2026-04-24 07:31 | -19.44939 | 173.24185 | 30996 ft | 448 kts | 21° |
| 2026-04-24 07:31 | -19.39318 | 173.27075 | 30967 ft | 449 kts | 21° |
| 2026-04-24 07:32 | -19.33684 | 173.29968 | 31012 ft | 449 kts | 21° |
| 2026-04-24 07:32 | -19.28065 | 173.32854 | 31035 ft | 449 kts | 21° |
| 2026-04-24 07:33 | -19.22396 | 173.35761 | 30999 ft | 450 kts | 21° |
| 2026-04-24 07:33 | -19.16755 | 173.38649 | 30972 ft | 451 kts | 22° |
| 2026-04-24 07:34 | -19.11106 | 173.41540 | 30976 ft | 451 kts | 22° |
| 2026-04-24 07:34 | -19.05439 | 173.44441 | 31010 ft | 451 kts | 22° |
| 2026-04-24 07:35 | -18.99797 | 173.47325 | 30995 ft | 451 kts | 22° |
| 2026-04-24 07:35 | -18.94129 | 173.50220 | 30955 ft | 453 kts | 22° |
| 2026-04-24 07:36 | -18.88434 | 173.53126 | 30992 ft | 453 kts | 22° |
| 2026-04-24 07:36 | -18.82771 | 173.56015 | 31024 ft | 452 kts | 22° |
| 2026-04-24 07:37 | -18.77062 | 173.58925 | 30980 ft | 454 kts | 22° |
| 2026-04-24 07:37 | -18.71348 | 173.61835 | 30951 ft | 455 kts | 22° |
| 2026-04-24 07:38 | -18.65637 | 173.64739 | 31002 ft | 455 kts | 22° |
| 2026-04-24 07:38 | -18.59952 | 173.67631 | 31018 ft | 454 kts | 22° |
| 2026-04-24 07:39 | -18.54193 | 173.70557 | 30953 ft | 455 kts | 22° |
| 2026-04-24 07:39 | -18.48501 | 173.73445 | 30939 ft | 456 kts | 22° |
| 2026-04-24 07:40 | -18.42779 | 173.76349 | 30999 ft | 454 kts | 22° |
| 2026-04-24 07:40 | -18.37065 | 173.79246 | 31016 ft | 454 kts | 22° |
| 2026-04-24 07:41 | -18.31374 | 173.82129 | 30958 ft | 455 kts | 22° |
| 2026-04-24 07:41 | -18.25667 | 173.85017 | 30930 ft | 456 kts | 22° |
| 2026-04-24 07:42 | -18.19934 | 173.87918 | 30985 ft | 454 kts | 22° |
| 2026-04-24 07:42 | -18.14251 | 173.90791 | 31013 ft | 454 kts | 22° |
| 2026-04-24 07:43 | -18.08516 | 173.93686 | 30948 ft | 455 kts | 22° |
| 2026-04-24 07:43 | -18.02796 | 173.96574 | 30925 ft | 456 kts | 22° |
| 2026-04-24 07:44 | -17.97075 | 173.99460 | 30982 ft | 455 kts | 22° |
| 2026-04-24 07:44 | -17.91363 | 174.02339 | 31012 ft | 454 kts | 22° |
| 2026-04-24 07:45 | -17.85640 | 174.05220 | 30949 ft | 456 kts | 22° |
| 2026-04-24 07:45 | -17.79929 | 174.08093 | 30915 ft | 457 kts | 22° |
| 2026-04-24 07:46 | -17.74175 | 174.10988 | 30982 ft | 456 kts | 22° |
| 2026-04-24 07:46 | -17.68437 | 174.13873 | 31014 ft | 455 kts | 22° |
| 2026-04-24 07:47 | -17.62719 | 174.16745 | 30957 ft | 456 kts | 22° |
| 2026-04-24 07:47 | -17.56987 | 174.19620 | 30916 ft | 458 kts | 23° |
| 2026-04-24 07:48 | -17.51235 | 174.22507 | 30972 ft | 457 kts | 22° |
| 2026-04-24 07:48 | -17.45501 | 174.25380 | 31018 ft | 456 kts | 22° |
| 2026-04-24 07:49 | -17.39702 | 174.28282 | 30965 ft | 458 kts | 22° |
| 2026-04-24 07:49 | -17.33949 | 174.31161 | 30917 ft | 459 kts | 23° |
| 2026-04-24 07:50 | -17.28182 | 174.34045 | 30959 ft | 459 kts | 23° |
| 2026-04-24 07:50 | -17.22421 | 174.36925 | 31017 ft | 457 kts | 23° |
| 2026-04-24 07:51 | -17.16649 | 174.39806 | 30973 ft | 458 kts | 23° |
| 2026-04-24 07:51 | -17.10877 | 174.42688 | 30918 ft | 460 kts | 23° |
| 2026-04-24 07:52 | -17.05104 | 174.45566 | 30954 ft | 459 kts | 23° |
| 2026-04-24 07:52 | -16.99346 | 174.48438 | 31012 ft | 458 kts | 23° |
| 2026-04-24 07:53 | -16.93564 | 174.51317 | 30973 ft | 458 kts | 23° |
| 2026-04-24 07:53 | -16.87791 | 174.54189 | 30918 ft | 460 kts | 23° |
| 2026-04-24 07:54 | -16.82029 | 174.57054 | 30952 ft | 460 kts | 23° |
| 2026-04-24 07:54 | -16.76272 | 174.59917 | 31011 ft | 458 kts | 23° |
| 2026-04-24 07:55 | -16.70452 | 174.62807 | 30967 ft | 459 kts | 23° |
| 2026-04-24 07:55 | -16.64686 | 174.65666 | 30902 ft | 460 kts | 23° |
| 2026-04-24 07:56 | -16.58915 | 174.68529 | 30933 ft | 459 kts | 23° |
| 2026-04-24 07:56 | -16.53154 | 174.71387 | 30993 ft | 457 kts | 23° |
| 2026-04-24 07:57 | -16.47370 | 174.74249 | 30953 ft | 458 kts | 23° |
| 2026-04-24 07:57 | -16.41615 | 174.77100 | 30895 ft | 459 kts | 23° |
| 2026-04-24 07:58 | -16.35873 | 174.79939 | 30933 ft | 458 kts | 23° |
| 2026-04-24 07:58 | -16.30082 | 174.82803 | 30996 ft | 456 kts | 23° |
| 2026-04-24 07:59 | -16.24325 | 174.85646 | 30960 ft | 456 kts | 23° |
| 2026-04-24 07:59 | -16.18587 | 174.88480 | 30898 ft | 458 kts | 23° |
| 2026-04-24 08:00 | -16.12827 | 174.91321 | 30923 ft | 457 kts | 23° |
| 2026-04-24 08:00 | -16.07077 | 174.94156 | 30989 ft | 456 kts | 23° |
| 2026-04-24 08:01 | -16.01361 | 174.96973 | 30961 ft | 456 kts | 23° |
| 2026-04-24 08:01 | -15.95584 | 174.99818 | 30897 ft | 457 kts | 23° |
| 2026-04-24 08:02 | -15.89862 | 175.02634 | 30914 ft | 458 kts | 23° |
| 2026-04-24 08:02 | -15.84098 | 175.05469 | 30996 ft | 456 kts | 23° |
| 2026-04-24 08:03 | -15.78310 | 175.08311 | 30995 ft | 456 kts | 23° |
| 2026-04-24 08:03 | -15.72586 | 175.11124 | 30913 ft | 458 kts | 23° |
| 2026-04-24 08:04 | -15.66836 | 175.13948 | 30914 ft | 458 kts | 24° |
| 2026-04-24 08:04 | -15.61080 | 175.16771 | 30987 ft | 457 kts | 23° |
| 2026-04-24 08:05 | -15.55283 | 175.19614 | 30996 ft | 457 kts | 24° |
| 2026-04-24 08:05 | -15.49506 | 175.22444 | 30918 ft | 459 kts | 23° |
| 2026-04-24 08:06 | -15.43747 | 175.25264 | 30896 ft | 460 kts | 23° |
| 2026-04-24 08:06 | -15.37978 | 175.28085 | 30964 ft | 458 kts | 23° |
| 2026-04-24 08:07 | -15.32196 | 175.30914 | 30993 ft | 458 kts | 23° |
| 2026-04-24 08:07 | -15.26384 | 175.33754 | 30929 ft | 459 kts | 24° |
| 2026-04-24 08:08 | -15.20596 | 175.36581 | 30903 ft | 460 kts | 23° |
| 2026-04-24 08:09 | -15.11929 | 175.40810 | 30907 ft | 460 kts | 23° |
| 2026-04-24 08:09 | -15.06128 | 175.43640 | 30917 ft | 461 kts | 23° |
| 2026-04-24 08:10 | -15.00335 | 175.46464 | 30982 ft | 459 kts | 23° |
| 2026-04-24 08:10 | -14.94516 | 175.49298 | 30970 ft | 459 kts | 24° |
| 2026-04-24 08:11 | -14.88721 | 175.52118 | 30911 ft | 461 kts | 24° |
| 2026-04-24 08:11 | -14.82924 | 175.54939 | 30923 ft | 461 kts | 23° |
| 2026-04-24 08:12 | -14.77097 | 175.57773 | 30985 ft | 460 kts | 24° |
| 2026-04-24 08:12 | -14.71312 | 175.60585 | 30964 ft | 460 kts | 24° |
| 2026-04-24 08:13 | -14.65467 | 175.63423 | 30902 ft | 462 kts | 24° |
| 2026-04-24 08:13 | -14.59649 | 175.66248 | 30923 ft | 462 kts | 24° |
| 2026-04-24 08:14 | -14.53844 | 175.69063 | 30980 ft | 460 kts | 24° |
| 2026-04-24 08:14 | -14.48000 | 175.71896 | 30948 ft | 461 kts | 24° |
| 2026-04-24 08:15 | -14.42198 | 175.74707 | 30895 ft | 462 kts | 24° |
| 2026-04-24 08:15 | -14.36380 | 175.77524 | 30925 ft | 462 kts | 24° |
| 2026-04-24 08:16 | -14.30563 | 175.80339 | 30977 ft | 460 kts | 24° |
| 2026-04-24 08:16 | -14.24709 | 175.83171 | 30934 ft | 461 kts | 24° |
| 2026-04-24 08:17 | -14.18900 | 175.85979 | 30877 ft | 463 kts | 24° |
| 2026-04-24 08:17 | -14.13062 | 175.88798 | 30921 ft | 462 kts | 24° |
| 2026-04-24 08:18 | -14.07234 | 175.91614 | 30976 ft | 461 kts | 24° |
| 2026-04-24 08:18 | -14.01402 | 175.94428 | 30928 ft | 461 kts | 24° |
| 2026-04-24 08:19 | -13.95571 | 175.97240 | 30871 ft | 463 kts | 24° |
| 2026-04-24 08:19 | -13.89740 | 176.00050 | 30912 ft | 462 kts | 24° |
| 2026-04-24 08:20 | -13.83909 | 176.02859 | 30978 ft | 460 kts | 24° |
| 2026-04-24 08:20 | -13.78087 | 176.05664 | 30934 ft | 461 kts | 24° |
| 2026-04-24 08:21 | -13.72258 | 176.08469 | 30882 ft | 463 kts | 24° |
| 2026-04-24 08:21 | -13.66390 | 176.11290 | 30909 ft | 462 kts | 24° |
| 2026-04-24 08:22 | -13.60595 | 176.14076 | 30970 ft | 460 kts | 24° |
| 2026-04-24 08:22 | -13.54720 | 176.16898 | 30936 ft | 461 kts | 24° |
| 2026-04-24 08:23 | -13.48896 | 176.19696 | 30874 ft | 463 kts | 24° |
| 2026-04-24 08:23 | -13.43069 | 176.22492 | 30905 ft | 462 kts | 24° |
| 2026-04-24 08:24 | -13.37224 | 176.25295 | 30958 ft | 461 kts | 25° |
| 2026-04-24 08:24 | -13.31402 | 176.28085 | 30926 ft | 461 kts | 25° |
| 2026-04-24 08:25 | -13.25577 | 176.30876 | 30865 ft | 463 kts | 25° |
| 2026-04-24 08:25 | -13.19746 | 176.33670 | 30907 ft | 462 kts | 25° |
| 2026-04-24 08:26 | -13.13899 | 176.36469 | 30959 ft | 461 kts | 25° |
| 2026-04-24 08:26 | -13.08043 | 176.39270 | 30919 ft | 462 kts | 25° |
| 2026-04-24 08:27 | -13.02175 | 176.42075 | 30862 ft | 463 kts | 25° |
| 2026-04-24 08:27 | -12.96304 | 176.44881 | 30902 ft | 463 kts | 25° |
| 2026-04-24 08:28 | -12.90470 | 176.47667 | 30964 ft | 461 kts | 25° |
| 2026-04-24 08:28 | -12.84620 | 176.50459 | 30918 ft | 462 kts | 25° |
| 2026-04-24 08:29 | -12.78792 | 176.53241 | 30863 ft | 464 kts | 25° |
| 2026-04-24 08:29 | -12.72939 | 176.56032 | 30911 ft | 463 kts | 25° |
| 2026-04-24 08:30 | -12.67076 | 176.58826 | 30968 ft | 462 kts | 25° |
| 2026-04-24 08:30 | -12.61192 | 176.61629 | 30924 ft | 463 kts | 25° |
| 2026-04-24 08:31 | -12.55348 | 176.64412 | 30874 ft | 464 kts | 25° |
| 2026-04-24 08:31 | -12.49515 | 176.67188 | 30920 ft | 464 kts | 25° |
| 2026-04-24 08:32 | -12.43611 | 176.69997 | 30971 ft | 463 kts | 25° |
| 2026-04-24 08:32 | -12.37765 | 176.72775 | 30926 ft | 464 kts | 25° |
| 2026-04-24 08:33 | -12.31880 | 176.75572 | 30880 ft | 465 kts | 25° |
| 2026-04-24 08:33 | -12.26025 | 176.78352 | 30920 ft | 465 kts | 25° |
| 2026-04-24 08:34 | -12.20167 | 176.81134 | 30973 ft | 463 kts | 25° |
| 2026-04-24 08:34 | -12.14268 | 176.83933 | 30927 ft | 464 kts | 25° |
| 2026-04-24 08:35 | -12.08404 | 176.86714 | 30878 ft | 466 kts | 25° |
| 2026-04-24 08:35 | -12.02523 | 176.89502 | 30922 ft | 465 kts | 25° |
| 2026-04-24 08:36 | -11.96648 | 176.92285 | 30973 ft | 464 kts | 25° |
| 2026-04-24 08:36 | -11.90759 | 176.95075 | 30922 ft | 465 kts | 25° |
| 2026-04-24 08:37 | -11.84878 | 176.97858 | 30866 ft | 466 kts | 25° |
| 2026-04-24 08:37 | -11.79007 | 177.00636 | 30922 ft | 465 kts | 25° |
| 2026-04-24 08:38 | -11.73103 | 177.03429 | 30974 ft | 464 kts | 25° |
| 2026-04-24 08:38 | -11.67230 | 177.06203 | 30923 ft | 465 kts | 25° |
| 2026-04-24 08:39 | -11.61361 | 177.08977 | 30878 ft | 466 kts | 25° |
| 2026-04-24 08:39 | -11.55448 | 177.11769 | 30925 ft | 465 kts | 25° |
| 2026-04-24 08:40 | -11.49584 | 177.14537 | 30966 ft | 464 kts | 25° |
| 2026-04-24 08:40 | -11.43687 | 177.17319 | 30918 ft | 465 kts | 25° |
| 2026-04-24 08:41 | -11.37813 | 177.20090 | 30871 ft | 466 kts | 25° |
| 2026-04-24 08:41 | -11.31928 | 177.22862 | 30919 ft | 465 kts | 25° |
| 2026-04-24 08:42 | -11.26008 | 177.25652 | 30957 ft | 464 kts | 25° |
| 2026-04-24 08:42 | -11.20117 | 177.28426 | 30901 ft | 465 kts | 25° |
| 2026-04-24 08:43 | -11.14256 | 177.31184 | 30863 ft | 466 kts | 25° |
| 2026-04-24 08:43 | -11.08366 | 177.33957 | 30917 ft | 466 kts | 25° |
| 2026-04-24 08:44 | -11.02443 | 177.36742 | 30951 ft | 465 kts | 26° |
| 2026-04-24 08:44 | -10.96554 | 177.39510 | 30893 ft | 466 kts | 25° |
| 2026-04-24 08:45 | -10.90649 | 177.42285 | 30858 ft | 467 kts | 25° |
| 2026-04-24 08:45 | -10.84754 | 177.45053 | 30906 ft | 466 kts | 26° |
| 2026-04-24 08:46 | -10.78863 | 177.47819 | 30950 ft | 465 kts | 26° |
| 2026-04-24 08:46 | -10.72943 | 177.50598 | 30894 ft | 466 kts | 26° |
| 2026-04-24 08:47 | -10.67039 | 177.53366 | 30856 ft | 467 kts | 26° |
| 2026-04-24 08:47 | -10.61170 | 177.56119 | 30911 ft | 466 kts | 26° |
| 2026-04-24 08:48 | -10.55268 | 177.58885 | 30950 ft | 465 kts | 26° |
| 2026-04-24 08:48 | -10.49321 | 177.61670 | 30899 ft | 466 kts | 26° |
| 2026-04-24 08:49 | -10.43457 | 177.64416 | 30872 ft | 467 kts | 26° |
| 2026-04-24 08:49 | -10.37554 | 177.67180 | 30934 ft | 466 kts | 26° |
| 2026-04-24 08:50 | -10.31626 | 177.69952 | 30973 ft | 465 kts | 26° |
| 2026-04-24 08:50 | -10.25732 | 177.72710 | 30916 ft | 466 kts | 26° |
| 2026-04-24 08:51 | -10.19849 | 177.75459 | 30880 ft | 467 kts | 26° |
| 2026-04-24 08:51 | -10.13924 | 177.78229 | 30934 ft | 467 kts | 26° |
| 2026-04-24 08:52 | -10.08029 | 177.80981 | 30971 ft | 465 kts | 26° |
| 2026-04-24 08:52 | -10.02111 | 177.83745 | 30912 ft | 467 kts | 26° |
| 2026-04-24 08:53 | -9.96209 | 177.86499 | 30880 ft | 468 kts | 26° |
| 2026-04-24 08:53 | -9.90260 | 177.89275 | 30932 ft | 467 kts | 26° |
| 2026-04-24 08:54 | -9.84358 | 177.92027 | 30970 ft | 465 kts | 26° |
| 2026-04-24 08:54 | -9.78430 | 177.94791 | 30907 ft | 467 kts | 26° |
| 2026-04-24 08:55 | -9.72529 | 177.97540 | 30863 ft | 468 kts | 26° |
| 2026-04-24 08:55 | -9.66626 | 178.00290 | 30914 ft | 467 kts | 26° |
| 2026-04-24 08:56 | -9.60716 | 178.03041 | 30950 ft | 465 kts | 26° |
| 2026-04-24 08:56 | -9.54806 | 178.05792 | 30886 ft | 466 kts | 26° |
| 2026-04-24 08:57 | -9.48863 | 178.08557 | 30860 ft | 467 kts | 26° |
| 2026-04-24 08:57 | -9.42966 | 178.11299 | 30921 ft | 466 kts | 26° |
| 2026-04-24 08:58 | -9.37066 | 178.14043 | 30948 ft | 465 kts | 26° |
| 2026-04-24 08:58 | -9.31143 | 178.16795 | 30883 ft | 466 kts | 26° |
| 2026-04-24 08:59 | -9.25217 | 178.19548 | 30862 ft | 467 kts | 26° |
| 2026-04-24 08:59 | -9.19325 | 178.22284 | 30922 ft | 466 kts | 26° |
| 2026-04-24 09:00 | -9.13424 | 178.25024 | 30942 ft | 465 kts | 26° |
| 2026-04-24 09:00 | -9.07521 | 178.27763 | 30878 ft | 466 kts | 26° |
| 2026-04-24 09:01 | -9.01621 | 178.30501 | 30867 ft | 467 kts | 26° |
| 2026-04-24 09:01 | -8.95690 | 178.33250 | 30932 ft | 465 kts | 26° |
| 2026-04-24 09:02 | -8.89773 | 178.35992 | 30940 ft | 464 kts | 26° |
| 2026-04-24 09:02 | -8.83905 | 178.38711 | 30876 ft | 466 kts | 27° |
| 2026-04-24 09:03 | -8.77987 | 178.41454 | 30880 ft | 466 kts | 26° |
| 2026-04-24 09:03 | -8.72098 | 178.44180 | 30952 ft | 464 kts | 26° |
| 2026-04-24 09:04 | -8.66206 | 178.46907 | 30960 ft | 464 kts | 27° |
| 2026-04-24 09:04 | -8.60314 | 178.49634 | 30891 ft | 465 kts | 27° |
| 2026-04-24 09:05 | -8.54398 | 178.52371 | 30887 ft | 466 kts | 27° |
| 2026-04-24 09:05 | -8.48517 | 178.55089 | 30954 ft | 464 kts | 27° |
| 2026-04-24 09:06 | -8.42596 | 178.57826 | 30957 ft | 464 kts | 27° |
| 2026-04-24 09:06 | -8.36708 | 178.60547 | 30889 ft | 466 kts | 27° |
| 2026-04-24 09:07 | -8.30811 | 178.63271 | 30890 ft | 466 kts | 27° |
| 2026-04-24 09:07 | -8.21956 | 178.67360 | 30885 ft | 466 kts | 27° |
| 2026-04-24 09:08 | -8.16073 | 178.70076 | 30932 ft | 465 kts | 27° |
| 2026-04-24 09:08 | -8.10194 | 178.72788 | 30970 ft | 464 kts | 27° |
| 2026-04-24 09:09 | -8.04265 | 178.75523 | 30914 ft | 466 kts | 27° |
| 2026-04-24 09:09 | -7.98380 | 178.78236 | 30887 ft | 467 kts | 27° |
| 2026-04-24 09:10 | -7.92441 | 178.80974 | 30940 ft | 466 kts | 27° |
| 2026-04-24 09:10 | -7.86532 | 178.83696 | 30961 ft | 465 kts | 27° |
| 2026-04-24 09:11 | -7.80638 | 178.86412 | 30901 ft | 466 kts | 27° |
| 2026-04-24 09:11 | -7.74701 | 178.89145 | 30892 ft | 467 kts | 27° |
| 2026-04-24 09:12 | -7.68798 | 178.91864 | 30953 ft | 465 kts | 27° |
| 2026-04-24 09:12 | -7.62870 | 178.94592 | 30953 ft | 465 kts | 27° |
| 2026-04-24 09:13 | -7.56944 | 178.97319 | 30891 ft | 466 kts | 27° |
| 2026-04-24 09:13 | -7.51052 | 179.00029 | 30897 ft | 466 kts | 27° |
| 2026-04-24 09:14 | -7.45273 | 179.02956 | 30943 ft | 460 kts | 40° |
| 2026-04-24 09:14 | -7.43031 | 179.05180 | 30922 ft | 453 kts | 57° |
| 2026-04-24 09:14 | -7.41542 | 179.07954 | 30994 ft | 445 kts | 73° |
| 2026-04-24 09:15 | -7.40933 | 179.10969 | 30936 ft | 443 kts | 89° |
| 2026-04-24 09:15 | -7.41247 | 179.14023 | 30949 ft | 439 kts | 106° |
| 2026-04-24 09:15 | -7.42460 | 179.16843 | 30989 ft | 438 kts | 122° |
| 2026-04-24 09:15 | -7.44405 | 179.19194 | 30930 ft | 440 kts | 134° |
| 2026-04-24 09:16 | -7.48476 | 179.23802 | 30883 ft | 439 kts | 118° |
| 2026-04-24 09:16 | -7.49563 | 179.26657 | 30962 ft | 435 kts | 101° |
| 2026-04-24 09:16 | -7.49758 | 179.29652 | 30963 ft | 437 kts | 85° |
| 2026-04-24 09:17 | -7.49047 | 179.32642 | 30897 ft | 440 kts | 68° |
| 2026-04-24 09:17 | -7.47460 | 179.35284 | 31002 ft | 441 kts | 53° |
| 2026-04-24 09:17 | -7.43641 | 179.40198 | 30883 ft | 441 kts | 66° |
| 2026-04-24 09:18 | -7.42603 | 179.43108 | 31029 ft | 434 kts | 77° |
| 2026-04-24 09:18 | -7.41911 | 179.46086 | 30886 ft | 439 kts | 79° |
| 2026-04-24 09:18 | -7.40731 | 179.52181 | 30964 ft | 438 kts | 81° |
| 2026-04-24 09:19 | -7.40183 | 179.55179 | 30861 ft | 441 kts | 81° |
| 2026-04-24 09:19 | -7.39629 | 179.58240 | 30975 ft | 438 kts | 81° |
| 2026-04-24 09:19 | -7.38532 | 179.64329 | 30899 ft | 441 kts | 81° |
| 2026-04-24 09:20 | -7.37432 | 179.70432 | 30872 ft | 443 kts | 81° |
| 2026-04-24 09:20 | -7.36327 | 179.76555 | 30933 ft | 443 kts | 81° |
| 2026-04-24 09:21 | -7.35222 | 179.82678 | 30975 ft | 443 kts | 81° |
| 2026-04-24 09:21 | -7.34116 | 179.88798 | 30917 ft | 445 kts | 81° |
| 2026-04-24 09:22 | -7.33002 | 179.94959 | 30879 ft | 446 kts | 81° |
| 2026-04-24 09:22 | -7.31885 | -179.98871 | 30932 ft | 446 kts | 81° |
| 2026-04-24 09:23 | -7.30771 | -179.92720 | 30970 ft | 445 kts | 81° |
| 2026-04-24 09:23 | -7.29644 | -179.86499 | 30904 ft | 446 kts | 81° |
| 2026-04-24 09:24 | -7.28526 | -179.80336 | 30852 ft | 448 kts | 81° |
| 2026-04-24 09:24 | -7.27399 | -179.74121 | 30900 ft | 447 kts | 81° |
| 2026-04-24 09:25 | -7.26273 | -179.67920 | 30950 ft | 446 kts | 81° |
| 2026-04-24 09:25 | -7.25148 | -179.61739 | 30907 ft | 446 kts | 81° |
| 2026-04-24 09:26 | -7.24027 | -179.55571 | 30857 ft | 448 kts | 81° |
| 2026-04-24 09:26 | -7.22900 | -179.49385 | 30895 ft | 447 kts | 80° |
| 2026-04-24 09:27 | -7.21768 | -179.43179 | 30952 ft | 446 kts | 81° |
| 2026-04-24 09:27 | -7.20642 | -179.37004 | 30915 ft | 447 kts | 81° |
| 2026-04-24 09:28 | -7.19511 | -179.30806 | 30862 ft | 449 kts | 81° |
| 2026-04-24 09:28 | -7.18374 | -179.24582 | 30898 ft | 448 kts | 80° |
| 2026-04-24 09:29 | -7.17237 | -179.18364 | 30946 ft | 447 kts | 80° |
| 2026-04-24 09:29 | -7.16104 | -179.12172 | 30907 ft | 448 kts | 80° |
| 2026-04-24 09:30 | -7.14976 | -179.06014 | 30863 ft | 449 kts | 80° |
| 2026-04-24 09:30 | -7.13843 | -178.99828 | 30907 ft | 448 kts | 80° |
| 2026-04-24 09:31 | -7.12703 | -178.93607 | 30945 ft | 448 kts | 80° |
| 2026-04-24 09:31 | -7.11561 | -178.87386 | 30894 ft | 448 kts | 80° |
| 2026-04-24 09:32 | -7.10423 | -178.81194 | 30864 ft | 449 kts | 81° |
| 2026-04-24 09:32 | -7.09294 | -178.75052 | 30920 ft | 448 kts | 80° |
| 2026-04-24 09:33 | -7.08152 | -178.68845 | 30943 ft | 447 kts | 81° |
| 2026-04-24 09:33 | -7.07008 | -178.62631 | 30889 ft | 448 kts | 80° |
| 2026-04-24 09:34 | -7.05859 | -178.56390 | 30865 ft | 449 kts | 80° |
| 2026-04-24 09:34 | -7.04710 | -178.50162 | 30923 ft | 448 kts | 80° |
| 2026-04-24 09:35 | -7.03565 | -178.43957 | 30942 ft | 447 kts | 80° |
| 2026-04-24 09:35 | -7.02431 | -178.37813 | 30881 ft | 449 kts | 80° |
| 2026-04-24 09:36 | -7.01283 | -178.31601 | 30886 ft | 449 kts | 80° |
| 2026-04-24 09:36 | -7.00144 | -178.25444 | 30952 ft | 448 kts | 81° |
| 2026-04-24 09:37 | -6.99155 | -178.20105 | 30928 ft | 448 kts | 81° |
| 2026-04-24 09:37 | -6.98092 | -178.14357 | 30892 ft | 449 kts | 81° |
| 2026-04-24 09:38 | -6.96943 | -178.08166 | 30944 ft | 449 kts | 81° |
| 2026-04-24 09:38 | -6.95793 | -178.01965 | 30956 ft | 448 kts | 80° |
| 2026-04-24 09:39 | -6.94636 | -177.95734 | 30898 ft | 449 kts | 81° |
| 2026-04-24 09:39 | -6.93490 | -177.89565 | 30876 ft | 450 kts | 81° |
| 2026-04-24 09:40 | -6.92337 | -177.83360 | 30932 ft | 449 kts | 80° |
| 2026-04-24 09:40 | -6.91183 | -177.77156 | 30940 ft | 448 kts | 81° |
| 2026-04-24 09:41 | -6.90035 | -177.70989 | 30868 ft | 449 kts | 81° |
| 2026-04-24 09:41 | -6.88882 | -177.64800 | 30867 ft | 450 kts | 81° |
| 2026-04-24 09:42 | -6.87730 | -177.58624 | 30932 ft | 448 kts | 81° |
| 2026-04-24 09:42 | -6.86575 | -177.52431 | 30928 ft | 447 kts | 81° |
| 2026-04-24 09:43 | -6.85420 | -177.46242 | 30869 ft | 448 kts | 81° |
| 2026-04-24 09:43 | -6.84271 | -177.40099 | 30875 ft | 448 kts | 81° |
| 2026-04-24 09:44 | -6.83121 | -177.33948 | 30935 ft | 446 kts | 81° |
| 2026-04-24 09:44 | -6.81970 | -177.27791 | 30925 ft | 447 kts | 81° |
| 2026-04-24 09:45 | -6.80809 | -177.21591 | 30867 ft | 448 kts | 81° |
| 2026-04-24 09:45 | -6.79643 | -177.15370 | 30885 ft | 449 kts | 81° |
| 2026-04-24 09:46 | -6.78462 | -177.09073 | 30947 ft | 447 kts | 81° |
| 2026-04-24 09:46 | -6.77272 | -177.02736 | 30926 ft | 447 kts | 81° |
| 2026-04-24 09:47 | -6.76093 | -176.96458 | 30868 ft | 449 kts | 81° |
| 2026-04-24 09:47 | -6.74915 | -176.90187 | 30874 ft | 449 kts | 81° |
| 2026-04-24 09:48 | -6.73735 | -176.83911 | 30936 ft | 448 kts | 81° |
| 2026-04-24 09:48 | -6.72550 | -176.77622 | 30935 ft | 447 kts | 81° |
| 2026-04-24 09:49 | -6.71374 | -176.71376 | 30866 ft | 449 kts | 81° |
| 2026-04-24 09:49 | -6.70204 | -176.65163 | 30868 ft | 449 kts | 81° |
| 2026-04-24 09:50 | -6.69003 | -176.58798 | 30932 ft | 448 kts | 81° |
| 2026-04-24 09:50 | -6.67818 | -176.52522 | 30943 ft | 447 kts | 81° |
| 2026-04-24 09:51 | -6.66645 | -176.46313 | 30873 ft | 449 kts | 81° |
| 2026-04-24 09:51 | -6.65476 | -176.40128 | 30856 ft | 450 kts | 81° |
| 2026-04-24 09:52 | -6.64296 | -176.33890 | 30927 ft | 448 kts | 81° |
| 2026-04-24 09:52 | -6.63108 | -176.27615 | 30957 ft | 447 kts | 81° |
| 2026-04-24 09:53 | -6.61930 | -176.21397 | 30880 ft | 449 kts | 81° |
| 2026-04-24 09:53 | -6.60754 | -176.15192 | 30861 ft | 450 kts | 81° |
| 2026-04-24 09:54 | -6.59579 | -176.09000 | 30936 ft | 448 kts | 81° |
| 2026-04-24 09:54 | -6.58397 | -176.02774 | 30962 ft | 448 kts | 81° |
| 2026-04-24 09:55 | -6.57207 | -175.96509 | 30897 ft | 450 kts | 81° |
| 2026-04-24 09:55 | -6.56033 | -175.90330 | 30886 ft | 450 kts | 81° |
| 2026-04-24 09:56 | -6.54844 | -175.84085 | 30936 ft | 449 kts | 81° |
| 2026-04-24 09:56 | -6.53649 | -175.77808 | 30943 ft | 448 kts | 81° |
| 2026-04-24 09:57 | -6.52445 | -175.71483 | 30870 ft | 450 kts | 81° |
| 2026-04-24 09:57 | -6.51252 | -175.65227 | 30858 ft | 450 kts | 81° |
| 2026-04-24 09:58 | -6.50070 | -175.59033 | 30927 ft | 449 kts | 81° |
| 2026-04-24 09:58 | -6.48890 | -175.52850 | 30939 ft | 448 kts | 81° |
| 2026-04-24 09:59 | -6.47708 | -175.46669 | 30870 ft | 450 kts | 81° |
| 2026-04-24 09:59 | -6.46530 | -175.40497 | 30869 ft | 450 kts | 81° |
| 2026-04-24 10:00 | -6.45348 | -175.34320 | 30931 ft | 448 kts | 81° |
| 2026-04-24 10:00 | -6.44161 | -175.28120 | 30937 ft | 448 kts | 81° |
| 2026-04-24 10:01 | -6.42980 | -175.21953 | 30873 ft | 450 kts | 81° |
| 2026-04-24 10:01 | -6.41794 | -175.15768 | 30878 ft | 451 kts | 81° |
| 2026-04-24 10:02 | -6.40606 | -175.09575 | 30944 ft | 449 kts | 81° |
| 2026-04-24 10:02 | -6.39420 | -175.03391 | 30926 ft | 450 kts | 81° |
| 2026-04-24 10:03 | -6.38225 | -174.97168 | 30853 ft | 451 kts | 81° |
| 2026-04-24 10:03 | -6.37033 | -174.90967 | 30889 ft | 451 kts | 81° |
| 2026-04-24 10:04 | -6.35843 | -174.84782 | 30951 ft | 450 kts | 81° |
| 2026-04-24 10:04 | -6.34647 | -174.78571 | 30918 ft | 450 kts | 81° |
| 2026-04-24 10:05 | -6.33455 | -174.72376 | 30853 ft | 452 kts | 81° |
| 2026-04-24 10:05 | -6.32264 | -174.66194 | 30888 ft | 451 kts | 81° |
| 2026-04-24 10:06 | -6.30463 | -174.56860 | 30856 ft | 452 kts | 81° |
| 2026-04-24 10:07 | -6.29265 | -174.50650 | 30933 ft | 451 kts | 81° |
| 2026-04-24 10:07 | -6.28064 | -174.44434 | 30948 ft | 450 kts | 81° |
| 2026-04-24 10:08 | -6.26866 | -174.38232 | 30876 ft | 451 kts | 81° |
| 2026-04-24 10:08 | -6.25668 | -174.32036 | 30858 ft | 452 kts | 81° |
| 2026-04-24 10:09 | -6.24465 | -174.25825 | 30925 ft | 451 kts | 81° |
| 2026-04-24 10:09 | -6.23267 | -174.19634 | 30952 ft | 451 kts | 80° |
| 2026-04-24 10:10 | -6.22058 | -174.13399 | 30892 ft | 453 kts | 81° |
| 2026-04-24 10:10 | -6.20856 | -174.07202 | 30884 ft | 453 kts | 81° |
| 2026-04-24 10:11 | -6.19645 | -174.00957 | 30935 ft | 452 kts | 81° |
| 2026-04-24 10:11 | -6.18446 | -173.94778 | 30924 ft | 452 kts | 80° |
| 2026-04-24 10:12 | -6.17232 | -173.88530 | 30867 ft | 454 kts | 80° |
| 2026-04-24 10:12 | -6.16024 | -173.82321 | 30891 ft | 454 kts | 80° |
| 2026-04-24 10:13 | -6.14816 | -173.76108 | 30946 ft | 452 kts | 80° |
| 2026-04-24 10:13 | -6.13599 | -173.69853 | 30910 ft | 453 kts | 80° |
| 2026-04-24 10:14 | -6.12383 | -173.63609 | 30857 ft | 455 kts | 80° |
| 2026-04-24 10:14 | -6.11174 | -173.57408 | 30905 ft | 454 kts | 80° |
| 2026-04-24 10:15 | -6.09955 | -173.51158 | 30951 ft | 452 kts | 80° |
| 2026-04-24 10:15 | -6.08736 | -173.44916 | 30898 ft | 454 kts | 80° |
| 2026-04-24 10:16 | -6.07507 | -173.38620 | 30859 ft | 455 kts | 80° |
| 2026-04-24 10:16 | -6.06290 | -173.32391 | 30909 ft | 454 kts | 80° |
| 2026-04-24 10:17 | -6.05076 | -173.26183 | 30937 ft | 454 kts | 80° |
| 2026-04-24 10:17 | -6.03855 | -173.19942 | 30884 ft | 455 kts | 80° |
| 2026-04-24 10:18 | -6.02628 | -173.13670 | 30893 ft | 455 kts | 80° |
| 2026-04-24 10:18 | -6.01402 | -173.07416 | 30940 ft | 454 kts | 80° |
| 2026-04-24 10:19 | -6.00185 | -173.01204 | 30892 ft | 456 kts | 80° |
| 2026-04-24 10:19 | -5.98959 | -172.94954 | 30874 ft | 457 kts | 80° |
| 2026-04-24 10:20 | -5.97736 | -172.88722 | 30930 ft | 455 kts | 80° |
| 2026-04-24 10:20 | -5.96503 | -172.82445 | 30928 ft | 455 kts | 80° |
| 2026-04-24 10:21 | -5.95268 | -172.76163 | 30873 ft | 457 kts | 80° |
| 2026-04-24 10:21 | -5.94038 | -172.69905 | 30875 ft | 457 kts | 80° |
| 2026-04-24 10:22 | -5.92807 | -172.63643 | 30938 ft | 455 kts | 80° |
| 2026-04-24 10:22 | -5.91567 | -172.57347 | 30936 ft | 455 kts | 80° |
| 2026-04-24 10:23 | -5.90336 | -172.51097 | 30861 ft | 457 kts | 79° |
| 2026-04-24 10:23 | -5.89104 | -172.44846 | 30873 ft | 457 kts | 79° |
| 2026-04-24 10:24 | -5.87870 | -172.38588 | 30942 ft | 456 kts | 79° |
| 2026-04-24 10:24 | -5.86626 | -172.32285 | 30931 ft | 456 kts | 79° |
| 2026-04-24 10:25 | -5.85386 | -172.26009 | 30862 ft | 458 kts | 79° |
| 2026-04-24 10:25 | -5.84147 | -172.19740 | 30880 ft | 458 kts | 79° |
| 2026-04-24 10:26 | -5.82907 | -172.13467 | 30940 ft | 457 kts | 79° |
| 2026-04-24 10:26 | -5.81658 | -172.07152 | 30928 ft | 458 kts | 79° |
| 2026-04-24 10:27 | -5.80415 | -172.00871 | 30875 ft | 459 kts | 79° |
| 2026-04-24 10:27 | -5.79172 | -171.94594 | 30889 ft | 460 kts | 79° |
| 2026-04-24 10:28 | -5.77915 | -171.88254 | 30937 ft | 459 kts | 79° |
| 2026-04-24 10:28 | -5.76663 | -171.81941 | 30898 ft | 459 kts | 79° |
| 2026-04-24 10:29 | -5.75412 | -171.75635 | 30848 ft | 461 kts | 79° |
| 2026-04-24 10:29 | -5.74154 | -171.69299 | 30893 ft | 460 kts | 79° |
| 2026-04-24 10:30 | -5.72899 | -171.62981 | 30944 ft | 459 kts | 79° |
| 2026-04-24 10:30 | -5.71645 | -171.56673 | 30893 ft | 460 kts | 79° |
| 2026-04-24 10:31 | -5.70385 | -171.50336 | 30857 ft | 461 kts | 79° |
| 2026-04-24 10:31 | -5.69138 | -171.44069 | 30912 ft | 460 kts | 79° |
| 2026-04-24 10:32 | -5.67882 | -171.37762 | 30954 ft | 459 kts | 79° |
| 2026-04-24 10:32 | -5.66623 | -171.31444 | 30893 ft | 460 kts | 79° |
| 2026-04-24 10:33 | -5.65363 | -171.25125 | 30855 ft | 462 kts | 79° |
| 2026-04-24 10:33 | -5.64102 | -171.18803 | 30920 ft | 461 kts | 79° |
| 2026-04-24 10:34 | -5.62831 | -171.12434 | 30961 ft | 459 kts | 79° |
| 2026-04-24 10:34 | -5.61570 | -171.06122 | 30892 ft | 461 kts | 79° |
| 2026-04-24 10:35 | -5.60309 | -170.99812 | 30852 ft | 462 kts | 79° |
| 2026-04-24 10:35 | -5.59042 | -170.93475 | 30914 ft | 461 kts | 79° |
| 2026-04-24 10:36 | -5.57784 | -170.87184 | 30953 ft | 460 kts | 79° |
| 2026-04-24 10:36 | -5.56511 | -170.80826 | 30890 ft | 461 kts | 79° |
| 2026-04-24 10:37 | -5.55255 | -170.74556 | 30854 ft | 462 kts | 79° |
| 2026-04-24 10:37 | -5.53984 | -170.68213 | 30916 ft | 461 kts | 79° |
| 2026-04-24 10:38 | -5.52714 | -170.61879 | 30950 ft | 460 kts | 79° |
| 2026-04-24 10:38 | -5.51446 | -170.55560 | 30890 ft | 461 kts | 79° |
| 2026-04-24 10:39 | -5.50178 | -170.49242 | 30852 ft | 462 kts | 79° |
| 2026-04-24 10:39 | -5.48911 | -170.42937 | 30912 ft | 461 kts | 79° |
| 2026-04-24 10:40 | -5.47637 | -170.36594 | 30953 ft | 459 kts | 79° |
| 2026-04-24 10:40 | -5.46369 | -170.30292 | 30895 ft | 460 kts | 78° |
| 2026-04-24 10:41 | -5.45098 | -170.23976 | 30849 ft | 462 kts | 79° |
| 2026-04-24 10:41 | -5.43831 | -170.17679 | 30913 ft | 461 kts | 78° |
| 2026-04-24 10:42 | -5.42557 | -170.11353 | 30962 ft | 459 kts | 78° |
| 2026-04-24 10:42 | -5.41283 | -170.05034 | 30903 ft | 461 kts | 78° |
| 2026-04-24 10:43 | -5.40009 | -169.98715 | 30842 ft | 463 kts | 78° |
| 2026-04-24 10:43 | -5.38735 | -169.92400 | 30895 ft | 462 kts | 78° |
| 2026-04-24 10:44 | -5.37453 | -169.86049 | 30948 ft | 460 kts | 78° |
| 2026-04-24 10:44 | -5.36813 | -169.82886 | 30845 ft | 463 kts | 78° |
| 2026-04-24 10:44 | -5.36170 | -169.79703 | 30886 ft | 461 kts | 78° |
| 2026-04-24 10:45 | -5.34897 | -169.73401 | 30824 ft | 463 kts | 78° |
| 2026-04-24 10:45 | -5.34255 | -169.70227 | 30925 ft | 460 kts | 78° |
| 2026-04-24 10:45 | -5.33615 | -169.67059 | 30875 ft | 462 kts | 78° |
| 2026-04-24 10:46 | -5.32340 | -169.60756 | 30936 ft | 460 kts | 78° |
| 2026-04-24 10:46 | -5.31057 | -169.54417 | 30886 ft | 461 kts | 78° |
| 2026-04-24 10:47 | -5.29769 | -169.48064 | 30828 ft | 463 kts | 78° |
| 2026-04-24 10:47 | -5.28498 | -169.41789 | 30872 ft | 462 kts | 78° |
| 2026-04-24 10:48 | -5.27209 | -169.35429 | 30936 ft | 460 kts | 78° |
| 2026-04-24 10:48 | -5.25929 | -169.29125 | 30898 ft | 461 kts | 78° |
| 2026-04-24 10:49 | -5.24648 | -169.22812 | 30845 ft | 463 kts | 78° |
| 2026-04-24 10:49 | -5.23362 | -169.16478 | 30893 ft | 463 kts | 78° |
| 2026-04-24 10:50 | -5.22075 | -169.10147 | 30952 ft | 462 kts | 78° |
| 2026-04-24 10:50 | -5.20780 | -169.03773 | 30908 ft | 463 kts | 78° |
| 2026-04-24 10:51 | -5.19498 | -168.97470 | 30854 ft | 464 kts | 78° |
| 2026-04-24 10:51 | -5.18200 | -168.91092 | 30897 ft | 464 kts | 78° |
| 2026-04-24 10:52 | -5.16908 | -168.84752 | 30953 ft | 463 kts | 78° |
| 2026-04-24 10:52 | -5.15613 | -168.78400 | 30899 ft | 464 kts | 78° |
| 2026-04-24 10:53 | -5.14313 | -168.72020 | 30858 ft | 466 kts | 78° |
| 2026-04-24 10:53 | -5.13019 | -168.65674 | 30907 ft | 465 kts | 78° |
| 2026-04-24 10:54 | -5.11724 | -168.59326 | 30955 ft | 464 kts | 78° |
| 2026-04-24 10:54 | -5.10422 | -168.52953 | 30896 ft | 465 kts | 78° |
| 2026-04-24 10:55 | -5.09123 | -168.46591 | 30852 ft | 467 kts | 78° |
| 2026-04-24 10:55 | -5.07823 | -168.40225 | 30906 ft | 466 kts | 78° |
| 2026-04-24 10:56 | -5.06518 | -168.33847 | 30958 ft | 465 kts | 78° |
| 2026-04-24 10:56 | -5.05209 | -168.27452 | 30902 ft | 466 kts | 78° |
| 2026-04-24 10:57 | -5.03901 | -168.21063 | 30849 ft | 468 kts | 78° |
| 2026-04-24 10:57 | -5.02594 | -168.14677 | 30897 ft | 468 kts | 78° |
| 2026-04-24 10:58 | -5.01282 | -168.08275 | 30957 ft | 466 kts | 78° |
| 2026-04-24 10:58 | -4.99467 | -168.02051 | 30895 ft | 464 kts | 59° |
| 2026-04-24 10:58 | -4.97556 | -167.99446 | 30988 ft | 461 kts | 48° |
| 2026-04-24 10:59 | -4.95371 | -167.97028 | 30863 ft | 464 kts | 47° |
| 2026-04-24 10:59 | -4.91000 | -167.92255 | 30933 ft | 464 kts | 47° |
| 2026-04-24 11:00 | -4.86600 | -167.87479 | 30943 ft | 464 kts | 47° |
| 2026-04-24 11:00 | -4.82170 | -167.82675 | 30855 ft | 466 kts | 47° |
| 2026-04-24 11:01 | -4.77792 | -167.77928 | 30844 ft | 467 kts | 47° |
| 2026-04-24 11:01 | -4.73365 | -167.73129 | 30910 ft | 466 kts | 47° |
| 2026-04-24 11:02 | -4.68936 | -167.68330 | 30923 ft | 466 kts | 47° |
| 2026-04-24 11:02 | -4.64512 | -167.63536 | 30854 ft | 468 kts | 47° |
| 2026-04-24 11:03 | -4.60076 | -167.58731 | 30848 ft | 469 kts | 47° |
| 2026-04-24 11:03 | -4.55622 | -167.53905 | 30913 ft | 468 kts | 46° |
| 2026-04-24 11:04 | -4.51174 | -167.49089 | 30915 ft | 468 kts | 46° |
| 2026-04-24 11:04 | -4.46713 | -167.44261 | 30849 ft | 470 kts | 46° |
| 2026-04-24 11:05 | -4.42267 | -167.39445 | 30852 ft | 471 kts | 46° |
| 2026-04-24 11:05 | -4.37830 | -167.34645 | 30917 ft | 470 kts | 46° |
| 2026-04-24 11:06 | -4.33341 | -167.29788 | 30910 ft | 470 kts | 46° |
| 2026-04-24 11:06 | -4.28869 | -167.24950 | 30847 ft | 472 kts | 46° |
| 2026-04-24 11:07 | -4.22161 | -167.17694 | 30872 ft | 472 kts | 46° |
| 2026-04-24 11:07 | -4.17701 | -167.12871 | 30838 ft | 473 kts | 46° |
| 2026-04-24 11:08 | -4.13194 | -167.07999 | 30894 ft | 473 kts | 46° |
| 2026-04-24 11:08 | -4.08723 | -167.03166 | 30928 ft | 472 kts | 46° |
| 2026-04-24 11:09 | -4.04210 | -166.98290 | 30875 ft | 474 kts | 46° |
| 2026-04-24 11:09 | -3.99717 | -166.93433 | 30865 ft | 475 kts | 46° |
| 2026-04-24 11:10 | -3.95220 | -166.88574 | 30932 ft | 474 kts | 46° |
| 2026-04-24 11:10 | -3.90724 | -166.83717 | 30933 ft | 474 kts | 46° |
| 2026-04-24 11:11 | -3.86240 | -166.78876 | 30868 ft | 476 kts | 46° |
| 2026-04-24 11:11 | -3.81717 | -166.73991 | 30880 ft | 477 kts | 46° |
| 2026-04-24 11:12 | -3.77216 | -166.69132 | 30945 ft | 475 kts | 46° |
| 2026-04-24 11:12 | -3.72685 | -166.64241 | 30921 ft | 476 kts | 46° |
| 2026-04-24 11:13 | -3.68174 | -166.59372 | 30863 ft | 478 kts | 45° |
| 2026-04-24 11:13 | -3.63661 | -166.54500 | 30882 ft | 478 kts | 45° |
| 2026-04-24 11:14 | -3.59116 | -166.49597 | 30936 ft | 476 kts | 46° |
| 2026-04-24 11:14 | -3.54579 | -166.44702 | 30907 ft | 477 kts | 45° |
| 2026-04-24 11:15 | -3.50030 | -166.39796 | 30848 ft | 478 kts | 45° |
| 2026-04-24 11:15 | -3.45496 | -166.34907 | 30899 ft | 478 kts | 45° |
| 2026-04-24 11:16 | -3.40960 | -166.30016 | 30936 ft | 476 kts | 45° |
| 2026-04-24 11:16 | -3.36429 | -166.25130 | 30866 ft | 478 kts | 45° |
| 2026-04-24 11:17 | -3.31878 | -166.20222 | 30835 ft | 479 kts | 45° |
| 2026-04-24 11:17 | -3.27364 | -166.15358 | 30898 ft | 478 kts | 45° |
| 2026-04-24 11:18 | -3.22819 | -166.10460 | 30927 ft | 476 kts | 45° |
| 2026-04-24 11:18 | -3.18283 | -166.05572 | 30858 ft | 478 kts | 45° |
| 2026-04-24 11:19 | -3.13739 | -166.00679 | 30840 ft | 479 kts | 45° |
| 2026-04-24 11:19 | -3.09216 | -165.95805 | 30907 ft | 477 kts | 45° |
| 2026-04-24 11:20 | -3.04686 | -165.90924 | 30918 ft | 477 kts | 45° |
| 2026-04-24 11:20 | -3.00126 | -165.86014 | 30852 ft | 478 kts | 45° |
| 2026-04-24 11:21 | -2.95597 | -165.81139 | 30851 ft | 479 kts | 45° |
| 2026-04-24 11:21 | -2.91056 | -165.76248 | 30917 ft | 477 kts | 45° |
| 2026-04-24 11:22 | -2.86493 | -165.71336 | 30913 ft | 477 kts | 45° |
| 2026-04-24 11:22 | -2.81950 | -165.66447 | 30846 ft | 479 kts | 45° |
| 2026-04-24 11:23 | -2.77405 | -165.61556 | 30861 ft | 479 kts | 45° |
| 2026-04-24 11:23 | -2.72844 | -165.56647 | 30928 ft | 478 kts | 45° |
| 2026-04-24 11:24 | -2.68291 | -165.51749 | 30905 ft | 478 kts | 45° |
| 2026-04-24 11:24 | -2.63733 | -165.46845 | 30840 ft | 480 kts | 45° |
| 2026-04-24 11:25 | -2.59166 | -165.41930 | 30868 ft | 480 kts | 45° |
| 2026-04-24 11:25 | -2.54608 | -165.37027 | 30934 ft | 479 kts | 45° |
| 2026-04-24 11:26 | -2.50017 | -165.32091 | 30896 ft | 479 kts | 45° |
| 2026-04-24 11:26 | -2.45490 | -165.27223 | 30831 ft | 480 kts | 45° |
| 2026-04-24 11:27 | -2.40942 | -165.22333 | 30867 ft | 480 kts | 45° |
| 2026-04-24 11:27 | -2.36387 | -165.17433 | 30933 ft | 478 kts | 45° |
| 2026-04-24 11:28 | -2.31806 | -165.12509 | 30892 ft | 479 kts | 45° |
| 2026-04-24 11:28 | -2.27276 | -165.07640 | 30835 ft | 480 kts | 45° |
| 2026-04-24 11:29 | -2.22716 | -165.02739 | 30891 ft | 479 kts | 45° |
| 2026-04-24 11:29 | -2.18159 | -164.97842 | 30948 ft | 478 kts | 45° |
| 2026-04-24 11:30 | -2.13577 | -164.92918 | 30897 ft | 478 kts | 45° |
| 2026-04-24 11:30 | -2.09016 | -164.88016 | 30832 ft | 480 kts | 45° |
| 2026-04-24 11:31 | -2.04468 | -164.83130 | 30870 ft | 479 kts | 45° |
| 2026-04-24 11:31 | -1.99910 | -164.78235 | 30934 ft | 477 kts | 45° |
| 2026-04-24 11:32 | -1.95371 | -164.73357 | 30894 ft | 478 kts | 45° |
| 2026-04-24 11:32 | -1.90821 | -164.68472 | 30830 ft | 480 kts | 45° |
| 2026-04-24 11:33 | -1.88550 | -164.66031 | 30931 ft | 477 kts | 45° |
| 2026-04-24 11:33 | -1.86265 | -164.63577 | 30866 ft | 479 kts | 45° |
| 2026-04-24 11:33 | -1.81706 | -164.58681 | 30941 ft | 478 kts | 45° |
| 2026-04-24 11:34 | -1.79409 | -164.56213 | 30834 ft | 480 kts | 45° |
| 2026-04-24 11:34 | -1.77144 | -164.53781 | 30905 ft | 478 kts | 45° |
| 2026-04-24 11:34 | -1.72584 | -164.48885 | 30834 ft | 480 kts | 45° |
| 2026-04-24 11:35 | -1.70298 | -164.46429 | 30938 ft | 478 kts | 45° |
| 2026-04-24 11:35 | -1.68004 | -164.43968 | 30870 ft | 480 kts | 45° |
| 2026-04-24 11:35 | -1.63444 | -164.39073 | 30939 ft | 478 kts | 45° |
| 2026-04-24 11:36 | -1.58866 | -164.34158 | 30899 ft | 479 kts | 45° |
| 2026-04-24 11:36 | -1.54295 | -164.29251 | 30832 ft | 481 kts | 45° |
| 2026-04-24 11:37 | -1.49736 | -164.24358 | 30865 ft | 480 kts | 45° |
| 2026-04-24 11:37 | -1.45179 | -164.19466 | 30928 ft | 478 kts | 45° |
| 2026-04-24 11:38 | -1.40619 | -164.14571 | 30893 ft | 479 kts | 45° |
| 2026-04-24 11:38 | -1.36064 | -164.09683 | 30838 ft | 480 kts | 45° |
| 2026-04-24 11:39 | -1.31502 | -164.04787 | 30871 ft | 480 kts | 45° |
| 2026-04-24 11:39 | -1.26946 | -163.99898 | 30934 ft | 478 kts | 45° |
| 2026-04-24 11:40 | -1.22358 | -163.94977 | 30890 ft | 479 kts | 45° |
| 2026-04-24 11:40 | -1.17794 | -163.90080 | 30832 ft | 481 kts | 45° |
| 2026-04-24 11:41 | -1.13235 | -163.85188 | 30873 ft | 480 kts | 45° |
| 2026-04-24 11:41 | -1.08656 | -163.80276 | 30933 ft | 479 kts | 45° |
| 2026-04-24 11:42 | -1.04059 | -163.75345 | 30889 ft | 480 kts | 45° |
| 2026-04-24 11:42 | -0.99494 | -163.70450 | 30825 ft | 482 kts | 45° |
| 2026-04-24 11:43 | -0.94921 | -163.65544 | 30863 ft | 482 kts | 45° |
| 2026-04-24 11:43 | -0.90331 | -163.60620 | 30921 ft | 480 kts | 45° |
| 2026-04-24 11:44 | -0.85752 | -163.55708 | 30877 ft | 481 kts | 45° |
| 2026-04-24 11:44 | -0.81188 | -163.50815 | 30813 ft | 483 kts | 45° |
| 2026-04-24 11:45 | -0.76616 | -163.45912 | 30856 ft | 482 kts | 45° |
| 2026-04-24 11:45 | -0.72029 | -163.40993 | 30918 ft | 481 kts | 45° |
| 2026-04-24 11:46 | -0.67434 | -163.36066 | 30871 ft | 482 kts | 45° |
| 2026-04-24 11:46 | -0.62831 | -163.31130 | 30810 ft | 484 kts | 45° |
| 2026-04-24 11:47 | -0.58244 | -163.26211 | 30855 ft | 483 kts | 45° |
| 2026-04-24 11:47 | -0.53661 | -163.21297 | 30916 ft | 481 kts | 45° |
| 2026-04-24 11:48 | -0.49065 | -163.16370 | 30864 ft | 482 kts | 45° |
| 2026-04-24 11:48 | -0.44479 | -163.11453 | 30816 ft | 484 kts | 45° |
| 2026-04-24 11:49 | -0.39885 | -163.06526 | 30876 ft | 483 kts | 45° |
| 2026-04-24 11:49 | -0.35284 | -163.01593 | 30935 ft | 482 kts | 45° |
| 2026-04-24 11:50 | -0.30676 | -162.96654 | 30886 ft | 483 kts | 45° |
| 2026-04-24 11:50 | -0.26067 | -162.91711 | 30833 ft | 484 kts | 45° |
| 2026-04-24 11:51 | -0.21463 | -162.86775 | 30880 ft | 483 kts | 45° |
| 2026-04-24 11:51 | -0.16857 | -162.81836 | 30934 ft | 482 kts | 45° |
| 2026-04-24 11:52 | -0.12254 | -162.76903 | 30884 ft | 483 kts | 45° |
| 2026-04-24 11:52 | -0.07655 | -162.71973 | 30833 ft | 485 kts | 45° |
| 2026-04-24 11:53 | -0.03066 | -162.67052 | 30884 ft | 484 kts | 45° |
| 2026-04-24 11:53 | 0.01534 | -162.62120 | 30935 ft | 483 kts | 45° |
| 2026-04-24 11:54 | 0.06135 | -162.57188 | 30876 ft | 484 kts | 45° |
| 2026-04-24 11:54 | 0.10729 | -162.52263 | 30830 ft | 485 kts | 45° |
| 2026-04-24 11:55 | 0.15323 | -162.47337 | 30885 ft | 484 kts | 45° |
| 2026-04-24 11:55 | 0.19961 | -162.42364 | 30939 ft | 483 kts | 45° |
| 2026-04-24 11:56 | 0.24586 | -162.37407 | 30880 ft | 484 kts | 45° |
| 2026-04-24 11:56 | 0.29214 | -162.32445 | 30819 ft | 486 kts | 45° |
| 2026-04-24 11:57 | 0.33819 | -162.27507 | 30874 ft | 485 kts | 45° |
| 2026-04-24 11:57 | 0.38430 | -162.22563 | 30924 ft | 483 kts | 45° |
| 2026-04-24 11:58 | 0.43046 | -162.17615 | 30860 ft | 484 kts | 45° |
| 2026-04-24 11:58 | 0.47667 | -162.12660 | 30808 ft | 486 kts | 45° |
| 2026-04-24 11:59 | 0.52288 | -162.07706 | 30865 ft | 485 kts | 45° |
| 2026-04-24 11:59 | 0.56903 | -162.02757 | 30918 ft | 483 kts | 45° |
| 2026-04-24 12:00 | 0.61548 | -161.97775 | 30858 ft | 484 kts | 45° |
| 2026-04-24 12:00 | 0.66126 | -161.92868 | 30814 ft | 485 kts | 45° |
| 2026-04-24 12:01 | 0.70766 | -161.87892 | 30869 ft | 485 kts | 45° |
| 2026-04-24 12:01 | 0.75374 | -161.82950 | 30913 ft | 483 kts | 45° |
| 2026-04-24 12:02 | 0.79985 | -161.78005 | 30848 ft | 485 kts | 45° |
| 2026-04-24 12:02 | 0.84597 | -161.73059 | 30825 ft | 486 kts | 45° |
| 2026-04-24 12:03 | 0.89228 | -161.68092 | 30893 ft | 485 kts | 45° |
| 2026-04-24 12:03 | 0.93852 | -161.63133 | 30923 ft | 484 kts | 45° |
| 2026-04-24 12:04 | 0.98483 | -161.58166 | 30851 ft | 486 kts | 45° |
| 2026-04-24 12:04 | 1.03071 | -161.53245 | 30832 ft | 487 kts | 45° |
| 2026-04-24 12:05 | 1.07701 | -161.48277 | 30902 ft | 486 kts | 45° |
| 2026-04-24 12:05 | 1.12353 | -161.43286 | 30911 ft | 486 kts | 45° |
| 2026-04-24 12:06 | 1.16979 | -161.38325 | 30839 ft | 487 kts | 45° |
| 2026-04-24 12:06 | 1.21634 | -161.33333 | 30838 ft | 488 kts | 45° |
| 2026-04-24 12:07 | 1.26254 | -161.28374 | 30903 ft | 486 kts | 45° |
| 2026-04-24 12:07 | 1.30891 | -161.23401 | 30888 ft | 486 kts | 45° |
| 2026-04-24 12:08 | 1.35512 | -161.18442 | 30823 ft | 488 kts | 45° |
| 2026-04-24 12:08 | 1.40160 | -161.13455 | 30845 ft | 488 kts | 45° |
| 2026-04-24 12:09 | 1.44809 | -161.08464 | 30906 ft | 486 kts | 45° |
| 2026-04-24 12:09 | 1.49442 | -161.03493 | 30870 ft | 487 kts | 45° |
| 2026-04-24 12:10 | 1.54088 | -160.98506 | 30817 ft | 488 kts | 45° |
| 2026-04-24 12:11 | 1.61006 | -160.91081 | 30828 ft | 488 kts | 45° |
| 2026-04-24 12:11 | 1.65634 | -160.86112 | 30839 ft | 488 kts | 45° |
| 2026-04-24 12:12 | 1.70273 | -160.81133 | 30903 ft | 486 kts | 45° |
| 2026-04-24 12:12 | 1.74919 | -160.76144 | 30878 ft | 487 kts | 45° |
| 2026-04-24 12:13 | 1.79524 | -160.71201 | 30819 ft | 488 kts | 45° |
| 2026-04-24 12:13 | 1.84174 | -160.66208 | 30856 ft | 487 kts | 45° |
| 2026-04-24 12:14 | 1.88796 | -160.61244 | 30908 ft | 486 kts | 45° |
| 2026-04-24 12:14 | 1.93418 | -160.56280 | 30857 ft | 486 kts | 45° |
| 2026-04-24 12:15 | 1.98045 | -160.51311 | 30821 ft | 487 kts | 45° |
| 2026-04-24 12:15 | 2.02678 | -160.46335 | 30879 ft | 486 kts | 45° |
| 2026-04-24 12:16 | 2.07325 | -160.41341 | 30903 ft | 485 kts | 45° |
| 2026-04-24 12:16 | 2.11963 | -160.36359 | 30845 ft | 486 kts | 45° |
| 2026-04-24 12:17 | 2.16563 | -160.31416 | 30822 ft | 487 kts | 45° |
| 2026-04-24 12:17 | 2.21177 | -160.26459 | 30889 ft | 485 kts | 45° |
| 2026-04-24 12:18 | 2.25788 | -160.21503 | 30898 ft | 484 kts | 45° |
| 2026-04-24 12:18 | 2.30418 | -160.16527 | 30828 ft | 486 kts | 45° |
| 2026-04-24 12:19 | 2.35006 | -160.11597 | 30833 ft | 486 kts | 45° |
| 2026-04-24 12:19 | 2.39618 | -160.06638 | 30905 ft | 485 kts | 45° |
| 2026-04-24 12:20 | 2.44229 | -160.01678 | 30877 ft | 485 kts | 45° |
| 2026-04-24 12:20 | 2.48845 | -159.96718 | 30818 ft | 487 kts | 45° |
| 2026-04-24 12:21 | 2.53478 | -159.91734 | 30854 ft | 486 kts | 45° |
| 2026-04-24 12:21 | 2.58069 | -159.86797 | 30907 ft | 484 kts | 45° |
| 2026-04-24 12:22 | 2.62693 | -159.81822 | 30847 ft | 485 kts | 45° |
| 2026-04-24 12:22 | 2.67304 | -159.76863 | 30801 ft | 487 kts | 45° |
| 2026-04-24 12:23 | 2.71897 | -159.71922 | 30854 ft | 486 kts | 45° |
| 2026-04-24 12:23 | 2.76521 | -159.66948 | 30891 ft | 485 kts | 45° |
| 2026-04-24 12:24 | 2.81168 | -159.61946 | 30828 ft | 486 kts | 45° |
| 2026-04-24 12:24 | 2.85765 | -159.56999 | 30796 ft | 487 kts | 45° |
| 2026-04-24 12:25 | 2.90404 | -159.52005 | 30858 ft | 486 kts | 45° |
| 2026-04-24 12:25 | 2.95011 | -159.47044 | 30887 ft | 485 kts | 45° |
| 2026-04-24 12:26 | 2.99650 | -159.42050 | 30819 ft | 487 kts | 45° |
| 2026-04-24 12:26 | 3.04260 | -159.37088 | 30802 ft | 487 kts | 45° |
| 2026-04-24 12:27 | 3.08875 | -159.32117 | 30867 ft | 486 kts | 45° |
| 2026-04-24 12:27 | 3.13504 | -159.27130 | 30885 ft | 485 kts | 45° |
| 2026-04-24 12:28 | 3.18110 | -159.22170 | 30825 ft | 487 kts | 45° |
| 2026-04-24 12:28 | 3.22749 | -159.17171 | 30830 ft | 488 kts | 45° |
| 2026-04-24 12:29 | 3.27383 | -159.12177 | 30897 ft | 486 kts | 45° |
| 2026-04-24 12:29 | 3.32016 | -159.07184 | 30885 ft | 486 kts | 45° |
| 2026-04-24 12:30 | 3.36663 | -159.02174 | 30820 ft | 488 kts | 45° |
| 2026-04-24 12:30 | 3.41269 | -158.97209 | 30845 ft | 488 kts | 44° |
| 2026-04-24 12:31 | 3.45924 | -158.92192 | 30905 ft | 487 kts | 45° |
| 2026-04-24 12:31 | 3.50577 | -158.87174 | 30873 ft | 488 kts | 45° |
| 2026-04-24 12:32 | 3.55187 | -158.82202 | 30817 ft | 490 kts | 44° |
| 2026-04-24 12:32 | 3.59868 | -158.77151 | 30861 ft | 489 kts | 44° |
| 2026-04-24 12:33 | 3.64522 | -158.72131 | 30911 ft | 488 kts | 44° |
| 2026-04-24 12:33 | 3.69145 | -158.67142 | 30853 ft | 489 kts | 44° |
| 2026-04-24 12:34 | 3.73766 | -158.62154 | 30821 ft | 491 kts | 44° |
| 2026-04-24 12:34 | 3.78403 | -158.57149 | 30886 ft | 489 kts | 44° |
| 2026-04-24 12:35 | 3.83036 | -158.52147 | 30903 ft | 489 kts | 44° |
| 2026-04-24 12:35 | 3.87694 | -158.47118 | 30837 ft | 491 kts | 44° |
| 2026-04-24 12:36 | 3.92359 | -158.42082 | 30836 ft | 492 kts | 44° |
| 2026-04-24 12:36 | 3.97033 | -158.37032 | 30900 ft | 491 kts | 44° |
| 2026-04-24 12:37 | 4.01675 | -158.32016 | 30877 ft | 491 kts | 44° |
| 2026-04-24 12:37 | 4.06378 | -158.26936 | 30814 ft | 492 kts | 44° |
| 2026-04-24 12:38 | 4.11017 | -158.21922 | 30838 ft | 492 kts | 44° |
| 2026-04-24 12:38 | 4.15692 | -158.16867 | 30887 ft | 491 kts | 44° |
| 2026-04-24 12:39 | 4.25066 | -158.06732 | 30847 ft | 489 kts | 44° |
| 2026-04-24 12:40 | 4.29679 | -158.01744 | 30859 ft | 490 kts | 44° |
| 2026-04-24 12:40 | 4.34399 | -157.96637 | 30862 ft | 491 kts | 44° |
| 2026-04-24 12:41 | 4.39047 | -157.91609 | 30865 ft | 492 kts | 44° |
| 2026-04-24 12:41 | 4.43744 | -157.86525 | 30863 ft | 493 kts | 44° |
| 2026-04-24 12:42 | 4.48443 | -157.81439 | 30866 ft | 494 kts | 44° |
| 2026-04-24 12:42 | 4.53123 | -157.76373 | 30863 ft | 495 kts | 44° |
| 2026-04-24 12:43 | 4.57844 | -157.71260 | 30864 ft | 495 kts | 44° |
| 2026-04-24 12:43 | 4.62516 | -157.66200 | 30866 ft | 496 kts | 44° |
| 2026-04-24 12:44 | 4.67224 | -157.61101 | 30865 ft | 496 kts | 44° |
| 2026-04-24 12:44 | 4.71955 | -157.55974 | 30866 ft | 496 kts | 44° |
| 2026-04-24 12:45 | 4.76628 | -157.50909 | 30867 ft | 497 kts | 44° |
| 2026-04-24 12:45 | 4.81367 | -157.45773 | 30866 ft | 497 kts | 44° |
| 2026-04-24 12:46 | 4.86057 | -157.40686 | 30867 ft | 498 kts | 44° |
| 2026-04-24 12:46 | 4.90764 | -157.35584 | 30865 ft | 498 kts | 44° |
| 2026-04-24 12:47 | 4.95469 | -157.30479 | 30856 ft | 498 kts | 44° |
| 2026-04-24 12:47 | 5.00199 | -157.25348 | 30857 ft | 498 kts | 44° |
| 2026-04-24 12:48 | 5.04902 | -157.20244 | 30862 ft | 498 kts | 44° |
| 2026-04-24 12:48 | 5.09628 | -157.15115 | 30863 ft | 498 kts | 44° |
| 2026-04-24 12:49 | 5.14345 | -157.09993 | 30864 ft | 498 kts | 44° |
| 2026-04-24 12:49 | 5.19038 | -157.04895 | 30866 ft | 498 kts | 43° |
| 2026-04-24 12:50 | 5.23747 | -156.99782 | 30866 ft | 499 kts | 44° |
| 2026-04-24 12:50 | 5.28482 | -156.94638 | 30869 ft | 499 kts | 44° |
| 2026-04-24 12:51 | 5.33211 | -156.89497 | 30869 ft | 499 kts | 44° |
| 2026-04-24 12:51 | 5.37931 | -156.84367 | 30873 ft | 500 kts | 43° |
| 2026-04-24 12:52 | 5.42670 | -156.79213 | 30871 ft | 500 kts | 44° |
| 2026-04-24 12:52 | 5.47423 | -156.74043 | 30871 ft | 501 kts | 44° |
| 2026-04-24 12:53 | 5.52143 | -156.68910 | 30874 ft | 501 kts | 44° |
| 2026-04-24 12:53 | 5.56882 | -156.63753 | 30872 ft | 502 kts | 44° |
| 2026-04-24 12:54 | 5.61655 | -156.58559 | 30874 ft | 502 kts | 44° |
| 2026-04-24 12:54 | 5.66392 | -156.53401 | 30875 ft | 503 kts | 43° |
| 2026-04-24 12:55 | 5.71136 | -156.48236 | 30870 ft | 503 kts | 43° |
| 2026-04-24 12:55 | 5.75897 | -156.43050 | 30867 ft | 504 kts | 44° |
| 2026-04-24 12:56 | 5.80636 | -156.37886 | 30868 ft | 504 kts | 44° |
| 2026-04-24 12:56 | 5.85389 | -156.32706 | 30857 ft | 504 kts | 44° |
| 2026-04-24 12:57 | 5.90157 | -156.27508 | 30858 ft | 504 kts | 44° |
| 2026-04-24 12:57 | 5.94913 | -156.22322 | 30859 ft | 504 kts | 44° |
| 2026-04-24 12:58 | 5.99698 | -156.17104 | 30864 ft | 503 kts | 44° |
| 2026-04-24 12:58 | 6.04492 | -156.11874 | 30859 ft | 503 kts | 44° |
| 2026-04-24 12:59 | 6.09256 | -156.06674 | 30864 ft | 504 kts | 44° |
| 2026-04-24 12:59 | 6.14013 | -156.01482 | 30863 ft | 504 kts | 44° |
| 2026-04-24 13:00 | 6.18788 | -155.96268 | 30866 ft | 504 kts | 44° |
| 2026-04-24 13:00 | 6.23596 | -155.91016 | 30867 ft | 504 kts | 44° |
| 2026-04-24 13:01 | 6.28368 | -155.85803 | 30863 ft | 505 kts | 44° |
| 2026-04-24 13:01 | 6.33164 | -155.80560 | 30866 ft | 505 kts | 44° |
| 2026-04-24 13:02 | 6.37959 | -155.75319 | 30867 ft | 505 kts | 44° |
| 2026-04-24 13:02 | 6.42741 | -155.70090 | 30866 ft | 505 kts | 44° |
| 2026-04-24 13:03 | 6.47530 | -155.64851 | 30865 ft | 506 kts | 44° |
| 2026-04-24 13:03 | 6.52322 | -155.59608 | 30867 ft | 506 kts | 44° |
| 2026-04-24 13:04 | 6.57143 | -155.54330 | 30868 ft | 507 kts | 44° |
| 2026-04-24 13:04 | 6.61902 | -155.49121 | 30874 ft | 507 kts | 44° |
| 2026-04-24 13:05 | 6.66695 | -155.43869 | 30879 ft | 507 kts | 44° |
| 2026-04-24 13:05 | 6.71463 | -155.38647 | 30885 ft | 507 kts | 44° |
| 2026-04-24 13:06 | 6.76272 | -155.33379 | 30873 ft | 508 kts | 44° |
| 2026-04-24 13:06 | 6.81074 | -155.28113 | 30878 ft | 508 kts | 44° |
| 2026-04-24 13:07 | 6.85854 | -155.22873 | 30879 ft | 508 kts | 44° |
| 2026-04-24 13:07 | 6.90653 | -155.17606 | 30879 ft | 508 kts | 44° |
| 2026-04-24 13:08 | 6.95458 | -155.12337 | 30883 ft | 508 kts | 44° |
| 2026-04-24 13:08 | 7.00243 | -155.07083 | 30884 ft | 508 kts | 44° |
| 2026-04-24 13:09 | 7.07446 | -154.99173 | 30889 ft | 508 kts | 44° |
| 2026-04-24 13:09 | 7.12243 | -154.93903 | 30886 ft | 509 kts | 45° |
| 2026-04-24 13:10 | 7.17059 | -154.88611 | 30887 ft | 509 kts | 45° |
| 2026-04-24 13:10 | 7.21852 | -154.83344 | 30880 ft | 509 kts | 45° |
| 2026-04-24 13:11 | 7.26631 | -154.78087 | 30877 ft | 509 kts | 45° |
| 2026-04-24 13:11 | 7.31412 | -154.72829 | 30875 ft | 509 kts | 45° |
| 2026-04-24 13:12 | 7.36202 | -154.67558 | 30875 ft | 509 kts | 45° |
| 2026-04-24 13:12 | 7.40976 | -154.62303 | 30877 ft | 509 kts | 45° |
| 2026-04-24 13:13 | 7.45773 | -154.57019 | 30878 ft | 509 kts | 45° |
| 2026-04-24 13:13 | 7.50575 | -154.51730 | 30875 ft | 509 kts | 45° |
| 2026-04-24 13:14 | 7.55359 | -154.46458 | 30877 ft | 509 kts | 45° |
| 2026-04-24 13:14 | 7.60168 | -154.41156 | 30870 ft | 509 kts | 45° |
| 2026-04-24 13:15 | 7.64984 | -154.35846 | 30869 ft | 509 kts | 45° |
| 2026-04-24 13:15 | 7.69748 | -154.30591 | 30862 ft | 509 kts | 45° |
| 2026-04-24 13:16 | 7.74552 | -154.25290 | 30868 ft | 508 kts | 45° |
| 2026-04-24 13:16 | 7.79321 | -154.20024 | 30874 ft | 507 kts | 45° |
| 2026-04-24 13:17 | 7.84091 | -154.14757 | 30876 ft | 507 kts | 45° |
| 2026-04-24 13:17 | 7.88839 | -154.09514 | 30874 ft | 507 kts | 46° |
| 2026-04-24 13:18 | 7.93607 | -154.04242 | 30883 ft | 506 kts | 46° |
| 2026-04-24 13:18 | 7.98348 | -153.99002 | 30879 ft | 506 kts | 46° |
| 2026-04-24 13:19 | 8.03111 | -153.93733 | 30882 ft | 506 kts | 46° |
| 2026-04-24 13:19 | 8.07841 | -153.88501 | 30883 ft | 506 kts | 46° |
| 2026-04-24 13:20 | 8.12595 | -153.83238 | 30884 ft | 506 kts | 46° |
| 2026-04-24 13:20 | 8.17355 | -153.77968 | 30886 ft | 506 kts | 46° |
| 2026-04-24 13:21 | 8.22117 | -153.72691 | 30885 ft | 506 kts | 46° |
| 2026-04-24 13:21 | 8.26845 | -153.67453 | 30886 ft | 506 kts | 46° |
| 2026-04-24 13:22 | 8.31613 | -153.62166 | 30886 ft | 506 kts | 46° |
| 2026-04-24 13:22 | 8.36359 | -153.56902 | 30885 ft | 506 kts | 46° |
| 2026-04-24 13:23 | 8.41093 | -153.51649 | 30888 ft | 506 kts | 46° |
| 2026-04-24 13:23 | 8.45859 | -153.46359 | 30887 ft | 506 kts | 46° |
| 2026-04-24 13:24 | 8.50614 | -153.41078 | 30887 ft | 506 kts | 46° |
| 2026-04-24 13:24 | 8.55359 | -153.35808 | 30887 ft | 506 kts | 46° |
| 2026-04-24 13:25 | 8.60125 | -153.30512 | 30881 ft | 506 kts | 46° |
| 2026-04-24 13:25 | 8.64959 | -153.25137 | 30881 ft | 506 kts | 46° |
| 2026-04-24 13:26 | 8.69737 | -153.19823 | 30882 ft | 506 kts | 46° |
| 2026-04-24 13:26 | 8.74526 | -153.14494 | 30883 ft | 506 kts | 46° |
| 2026-04-24 13:27 | 8.79337 | -153.09139 | 30888 ft | 506 kts | 46° |
| 2026-04-24 13:27 | 8.84132 | -153.03799 | 30896 ft | 506 kts | 46° |
| 2026-04-24 13:28 | 8.88944 | -152.98438 | 30902 ft | 506 kts | 47° |
| 2026-04-24 13:28 | 8.93744 | -152.93088 | 30904 ft | 506 kts | 47° |
| 2026-04-24 13:29 | 8.98551 | -152.87727 | 30905 ft | 505 kts | 47° |
| 2026-04-24 13:29 | 9.03291 | -152.82440 | 30905 ft | 506 kts | 47° |
| 2026-04-24 13:30 | 9.08072 | -152.77106 | 30908 ft | 506 kts | 47° |
| 2026-04-24 13:30 | 9.12806 | -152.71820 | 30905 ft | 506 kts | 47° |
| 2026-04-24 13:31 | 9.17556 | -152.66515 | 30904 ft | 506 kts | 47° |
| 2026-04-24 13:31 | 9.22283 | -152.61232 | 30906 ft | 506 kts | 46° |
| 2026-04-24 13:32 | 9.27033 | -152.55924 | 30906 ft | 506 kts | 47° |
| 2026-04-24 13:32 | 9.31743 | -152.50655 | 30907 ft | 506 kts | 47° |
| 2026-04-24 13:33 | 9.36478 | -152.45357 | 30906 ft | 506 kts | 47° |
| 2026-04-24 13:33 | 9.41235 | -152.40033 | 30906 ft | 506 kts | 47° |
| 2026-04-24 13:34 | 9.45994 | -152.34703 | 30908 ft | 507 kts | 47° |
| 2026-04-24 13:34 | 9.50729 | -152.29398 | 30900 ft | 506 kts | 47° |
| 2026-04-24 13:35 | 9.55470 | -152.24085 | 30900 ft | 506 kts | 47° |
| 2026-04-24 13:35 | 9.60188 | -152.18794 | 30900 ft | 506 kts | 47° |
| 2026-04-24 13:36 | 9.64967 | -152.13432 | 30902 ft | 506 kts | 47° |
| 2026-04-24 13:36 | 9.69686 | -152.08136 | 30906 ft | 506 kts | 47° |
| 2026-04-24 13:37 | 9.74424 | -152.02815 | 30903 ft | 506 kts | 47° |
| 2026-04-24 13:37 | 9.79135 | -151.97523 | 30905 ft | 506 kts | 47° |
| 2026-04-24 13:38 | 9.83858 | -151.92217 | 30908 ft | 506 kts | 47° |
| 2026-04-24 13:38 | 9.88548 | -151.86942 | 30912 ft | 506 kts | 47° |
| 2026-04-24 13:39 | 9.93264 | -151.81638 | 30919 ft | 506 kts | 47° |
| 2026-04-24 13:39 | 9.97980 | -151.76331 | 30922 ft | 506 kts | 47° |
| 2026-04-24 13:40 | 10.02695 | -151.71021 | 30926 ft | 506 kts | 47° |
| 2026-04-24 13:40 | 10.07429 | -151.65688 | 30925 ft | 506 kts | 47° |
| 2026-04-24 13:41 | 10.12153 | -151.60364 | 30926 ft | 506 kts | 47° |
| 2026-04-24 13:41 | 10.16869 | -151.55045 | 30927 ft | 506 kts | 47° |
| 2026-04-24 13:42 | 10.21565 | -151.49748 | 30920 ft | 506 kts | 47° |
| 2026-04-24 13:42 | 10.26288 | -151.44418 | 30914 ft | 507 kts | 47° |
| 2026-04-24 13:43 | 10.31006 | -151.39090 | 30915 ft | 507 kts | 47° |
| 2026-04-24 13:43 | 10.35743 | -151.33739 | 30908 ft | 507 kts | 47° |
| 2026-04-24 13:44 | 10.40299 | -151.28589 | 30910 ft | 507 kts | 47° |
| 2026-04-24 13:44 | 10.41557 | -151.27167 | 30878 ft | 507 kts | 47° |
| 2026-04-24 13:45 | 10.44898 | -151.23389 | 30908 ft | 504 kts | 47° |
| 2026-04-24 13:45 | 10.49549 | -151.18126 | 30914 ft | 502 kts | 47° |
| 2026-04-24 13:46 | 10.54222 | -151.12837 | 30916 ft | 500 kts | 47° |
| 2026-04-24 13:46 | 10.58858 | -151.07587 | 30916 ft | 498 kts | 47° |
| 2026-04-24 13:47 | 10.63486 | -151.02342 | 30917 ft | 497 kts | 47° |
| 2026-04-24 13:47 | 10.68103 | -150.97108 | 30918 ft | 497 kts | 47° |
| 2026-04-24 13:48 | 10.72716 | -150.91876 | 30918 ft | 496 kts | 47° |
| 2026-04-24 13:48 | 10.77329 | -150.86642 | 30920 ft | 496 kts | 47° |
| 2026-04-24 13:49 | 10.81912 | -150.81439 | 30923 ft | 496 kts | 47° |
| 2026-04-24 13:49 | 10.86532 | -150.76192 | 30923 ft | 496 kts | 47° |
| 2026-04-24 13:50 | 10.91123 | -150.70973 | 30926 ft | 496 kts | 47° |
| 2026-04-24 13:50 | 10.95734 | -150.65732 | 30927 ft | 496 kts | 47° |
| 2026-04-24 13:51 | 11.00340 | -150.60494 | 30929 ft | 496 kts | 47° |
| 2026-04-24 13:51 | 11.04934 | -150.55264 | 30929 ft | 496 kts | 47° |
| 2026-04-24 13:52 | 11.09538 | -150.50023 | 30928 ft | 496 kts | 47° |
| 2026-04-24 13:52 | 11.14112 | -150.44810 | 30928 ft | 496 kts | 47° |
| 2026-04-24 13:53 | 11.18736 | -150.39539 | 30927 ft | 496 kts | 47° |
| 2026-04-24 13:53 | 11.23311 | -150.34322 | 30927 ft | 496 kts | 47° |
| 2026-04-24 13:54 | 11.27901 | -150.29083 | 30923 ft | 496 kts | 47° |
| 2026-04-24 13:54 | 11.32513 | -150.23820 | 30921 ft | 496 kts | 47° |
| 2026-04-24 13:55 | 11.37092 | -150.18588 | 30922 ft | 496 kts | 47° |
| 2026-04-24 13:55 | 11.41700 | -150.13322 | 30923 ft | 496 kts | 47° |
| 2026-04-24 13:56 | 11.46278 | -150.08089 | 30923 ft | 496 kts | 47° |
| 2026-04-24 13:56 | 11.50890 | -150.02811 | 30923 ft | 496 kts | 47° |
| 2026-04-24 13:57 | 11.55158 | -149.97322 | 30914 ft | 496 kts | 64° |
| 2026-04-24 13:57 | 11.56314 | -149.94028 | 30967 ft | 492 kts | 80° |
| 2026-04-24 13:57 | 11.56566 | -149.90579 | 30956 ft | 489 kts | 96° |
| 2026-04-24 13:58 | 11.55905 | -149.87224 | 30960 ft | 484 kts | 112° |
| 2026-04-24 13:58 | 11.54385 | -149.84199 | 30960 ft | 477 kts | 129° |
| 2026-04-24 13:58 | 11.52137 | -149.81752 | 30960 ft | 469 kts | 145° |
| 2026-04-24 13:58 | 11.49367 | -149.80074 | 30960 ft | 461 kts | 162° |
| 2026-04-24 13:59 | 11.46253 | -149.79269 | 30959 ft | 453 kts | 178° |
| 2026-04-24 13:59 | 11.43153 | -149.79407 | 30962 ft | 446 kts | 194° |
| 2026-04-24 13:59 | 11.40261 | -149.80441 | 30960 ft | 440 kts | 211° |
| 2026-04-24 13:59 | 11.37808 | -149.82298 | 30960 ft | 436 kts | 228° |
| 2026-04-24 14:00 | 11.33879 | -149.87003 | 30916 ft | 438 kts | 230° |
| 2026-04-24 14:00 | 11.29830 | -149.91690 | 30929 ft | 440 kts | 230° |
| 2026-04-24 14:01 | 11.25787 | -149.96397 | 30922 ft | 441 kts | 233° |
| 2026-04-24 14:01 | 11.24282 | -149.99092 | 30936 ft | 438 kts | 250° |
| 2026-04-24 14:01 | 11.23646 | -150.02100 | 30974 ft | 438 kts | 266° |
| 2026-04-24 14:02 | 11.23917 | -150.05180 | 30956 ft | 442 kts | 283° |
| 2026-04-24 14:02 | 11.25095 | -150.08075 | 30964 ft | 446 kts | 300° |
| 2026-04-24 14:02 | 11.27057 | -150.10498 | 30959 ft | 452 kts | 316° |
| 2026-04-24 14:02 | 11.29688 | -150.12286 | 30958 ft | 459 kts | 333° |
| 2026-04-24 14:03 | 11.32756 | -150.13252 | 30957 ft | 465 kts | 349° |
| 2026-04-24 14:03 | 11.36048 | -150.13303 | 30952 ft | 472 kts | 6° |
| 2026-04-24 14:03 | 11.39218 | -150.12422 | 30957 ft | 477 kts | 22° |
| 2026-04-24 14:03 | 11.42161 | -150.10774 | 30968 ft | 479 kts | 29° |
| 2026-04-24 14:04 | 11.44888 | -150.08795 | 30915 ft | 483 kts | 40° |
| 2026-04-24 14:04 | 11.47304 | -150.06448 | 30945 ft | 484 kts | 44° |
| 2026-04-24 14:04 | 11.51998 | -150.01459 | 30926 ft | 487 kts | 46° |
| 2026-04-24 14:05 | 11.56072 | -149.95967 | 30937 ft | 487 kts | 68° |
| 2026-04-24 14:05 | 11.56986 | -149.92694 | 30974 ft | 485 kts | 84° |
| 2026-04-24 14:05 | 11.56998 | -149.89247 | 30959 ft | 482 kts | 101° |
| 2026-04-24 14:06 | 11.56096 | -149.85998 | 30965 ft | 476 kts | 117° |
| 2026-04-24 14:06 | 11.54371 | -149.83160 | 30959 ft | 470 kts | 134° |
| 2026-04-24 14:06 | 11.51968 | -149.80954 | 30968 ft | 462 kts | 150° |
| 2026-04-24 14:06 | 11.49098 | -149.79552 | 30965 ft | 455 kts | 167° |
| 2026-04-24 14:07 | 11.46008 | -149.79054 | 30965 ft | 447 kts | 184° |
| 2026-04-24 14:07 | 11.42956 | -149.79488 | 30971 ft | 441 kts | 200° |
| 2026-04-24 14:07 | 11.40201 | -149.80801 | 30969 ft | 435 kts | 217° |
| 2026-04-24 14:07 | 11.37976 | -149.82867 | 30973 ft | 432 kts | 231° |
| 2026-04-24 14:08 | 11.34071 | -149.87584 | 30923 ft | 436 kts | 230° |
| 2026-04-24 14:08 | 11.30066 | -149.92221 | 30934 ft | 438 kts | 230° |
| 2026-04-24 14:09 | 11.26113 | -149.96991 | 30915 ft | 439 kts | 239° |
| 2026-04-24 14:09 | 11.24894 | -149.99805 | 30957 ft | 437 kts | 256° |
| 2026-04-24 14:09 | 11.24557 | -150.02858 | 30967 ft | 438 kts | 272° |
| 2026-04-24 14:10 | 11.25147 | -150.05930 | 30957 ft | 442 kts | 289° |
| 2026-04-24 14:10 | 11.26609 | -150.08675 | 30966 ft | 447 kts | 305° |
| 2026-04-24 14:10 | 11.28824 | -150.10899 | 30958 ft | 453 kts | 322° |
| 2026-04-24 14:10 | 11.31653 | -150.12416 | 30966 ft | 460 kts | 339° |
| 2026-04-24 14:11 | 11.34808 | -150.13057 | 30962 ft | 467 kts | 355° |
| 2026-04-24 14:11 | 11.38058 | -150.12772 | 30965 ft | 473 kts | 12° |
| 2026-04-24 14:11 | 11.43913 | -150.09691 | 30964 ft | 481 kts | 38° |
| 2026-04-24 14:12 | 11.46390 | -150.07397 | 30944 ft | 483 kts | 44° |
| 2026-04-24 14:12 | 11.51079 | -150.02458 | 30934 ft | 486 kts | 46° |
| 2026-04-24 14:13 | 11.55475 | -149.97188 | 30914 ft | 488 kts | 61° |
| 2026-04-24 14:13 | 11.56741 | -149.94006 | 30970 ft | 486 kts | 77° |
| 2026-04-24 14:13 | 11.57122 | -149.90607 | 30959 ft | 484 kts | 94° |
| 2026-04-24 14:13 | 11.56587 | -149.87270 | 30962 ft | 479 kts | 110° |
| 2026-04-24 14:14 | 11.55180 | -149.84218 | 30962 ft | 474 kts | 127° |
| 2026-04-24 14:14 | 11.53027 | -149.81722 | 30963 ft | 467 kts | 143° |
| 2026-04-24 14:14 | 11.47250 | -149.79080 | 30962 ft | 451 kts | 177° |
| 2026-04-24 14:15 | 11.44145 | -149.79134 | 30961 ft | 444 kts | 193° |
| 2026-04-24 14:15 | 11.41233 | -149.80098 | 30961 ft | 438 kts | 210° |
| 2026-04-24 14:15 | 11.38767 | -149.81874 | 30960 ft | 434 kts | 226° |
| 2026-04-24 14:15 | 11.36774 | -149.84225 | 30971 ft | 434 kts | 231° |
| 2026-04-24 14:16 | 11.32814 | -149.88888 | 30925 ft | 438 kts | 230° |
| 2026-04-24 14:17 | 11.26727 | -149.95918 | 30921 ft | 440 kts | 232° |
| 2026-04-24 14:17 | 11.25156 | -149.98575 | 30926 ft | 438 kts | 249° |
| 2026-04-24 14:17 | 11.24651 | -150.04662 | 30952 ft | 441 kts | 282° |
| 2026-04-24 14:18 | 11.25757 | -150.07564 | 30958 ft | 445 kts | 298° |
| 2026-04-24 14:18 | 11.27673 | -150.10037 | 30956 ft | 451 kts | 315° |
| 2026-04-24 14:18 | 11.30263 | -150.11873 | 30957 ft | 457 kts | 331° |
| 2026-04-24 14:18 | 11.33335 | -150.12900 | 30956 ft | 464 kts | 348° |
| 2026-04-24 14:19 | 11.35494 | -150.13071 | 30955 ft | 468 kts | 359° |
| 2026-04-24 14:19 | 11.39762 | -150.12172 | 30959 ft | 475 kts | 21° |
| 2026-04-24 14:19 | 11.42659 | -150.10545 | 30969 ft | 479 kts | 32° |
| 2026-04-24 14:19 | 11.45281 | -150.08455 | 30932 ft | 482 kts | 42° |
| 2026-04-24 14:20 | 11.50029 | -150.03589 | 30926 ft | 485 kts | 46° |
| 2026-04-24 14:20 | 11.54632 | -149.98480 | 30913 ft | 488 kts | 53° |
| 2026-04-24 14:21 | 11.56266 | -149.95506 | 30944 ft | 487 kts | 70° |
| 2026-04-24 14:21 | 11.57062 | -149.92143 | 30967 ft | 485 kts | 86° |
| 2026-04-24 14:21 | 11.56937 | -149.88762 | 30955 ft | 482 kts | 103° |
| 2026-04-24 14:21 | 11.55913 | -149.85551 | 30962 ft | 476 kts | 120° |
| 2026-04-24 14:22 | 11.54057 | -149.82754 | 30958 ft | 470 kts | 136° |
| 2026-04-24 14:22 | 11.51571 | -149.80655 | 30960 ft | 463 kts | 153° |
| 2026-04-24 14:22 | 11.45506 | -149.79001 | 30959 ft | 448 kts | 186° |
| 2026-04-24 14:23 | 11.42483 | -149.79561 | 30962 ft | 441 kts | 202° |
| 2026-04-24 14:23 | 11.39780 | -149.80991 | 30961 ft | 437 kts | 219° |
| 2026-04-24 14:23 | 11.37592 | -149.83173 | 30968 ft | 434 kts | 232° |
| 2026-04-24 14:24 | 11.33685 | -149.87866 | 30922 ft | 438 kts | 230° |
| 2026-04-24 14:24 | 11.29643 | -149.92526 | 30932 ft | 440 kts | 230° |
| 2026-04-24 14:25 | 11.25722 | -149.97357 | 30906 ft | 440 kts | 242° |
| 2026-04-24 14:25 | 11.24616 | -150.00235 | 30951 ft | 438 kts | 258° |
| 2026-04-24 14:25 | 11.24402 | -150.03311 | 30943 ft | 440 kts | 274° |
| 2026-04-24 14:25 | 11.25114 | -150.06363 | 30938 ft | 444 kts | 291° |
| 2026-04-24 14:26 | 11.26688 | -150.09065 | 30948 ft | 448 kts | 308° |
| 2026-04-24 14:26 | 11.28992 | -150.11208 | 30943 ft | 454 kts | 324° |
| 2026-04-24 14:26 | 11.31851 | -150.12611 | 30946 ft | 461 kts | 340° |
| 2026-04-24 14:26 | 11.35032 | -150.13144 | 30945 ft | 468 kts | 357° |
| 2026-04-24 14:27 | 11.38277 | -150.12749 | 30951 ft | 474 kts | 14° |
| 2026-04-24 14:27 | 11.41325 | -150.11447 | 30959 ft | 478 kts | 29° |
| 2026-04-24 14:27 | 11.44085 | -150.09538 | 30942 ft | 481 kts | 38° |
| 2026-04-24 14:28 | 11.48926 | -150.04771 | 30936 ft | 485 kts | 45° |
| 2026-04-24 14:28 | 11.53587 | -149.99728 | 30937 ft | 488 kts | 46° |
| 2026-04-24 14:28 | 11.55599 | -149.96968 | 30921 ft | 488 kts | 62° |
| 2026-04-24 14:29 | 11.56816 | -149.93729 | 30982 ft | 486 kts | 79° |
| 2026-04-24 14:29 | 11.57128 | -149.90332 | 30968 ft | 484 kts | 95° |
| 2026-04-24 14:29 | 11.56519 | -149.86980 | 30969 ft | 480 kts | 111° |
| 2026-04-24 14:29 | 11.55048 | -149.83962 | 30968 ft | 474 kts | 128° |
| 2026-04-24 14:30 | 11.53674 | -149.82277 | 30967 ft | 470 kts | 139° |
| 2026-04-24 14:30 | 11.50112 | -149.79817 | 30971 ft | 460 kts | 161° |
| 2026-04-24 14:30 | 11.47040 | -149.78987 | 30972 ft | 452 kts | 178° |
| 2026-04-24 14:30 | 11.43916 | -149.79092 | 30967 ft | 445 kts | 194° |
| 2026-04-24 14:31 | 11.41015 | -149.80104 | 30968 ft | 440 kts | 211° |
| 2026-04-24 14:31 | 11.38542 | -149.81947 | 30968 ft | 436 kts | 227° |
| 2026-04-24 14:31 | 11.36571 | -149.84285 | 30974 ft | 436 kts | 231° |
| 2026-04-24 14:32 | 11.32567 | -149.88986 | 30935 ft | 440 kts | 230° |
| 2026-04-24 14:32 | 11.28510 | -149.93672 | 30934 ft | 442 kts | 230° |
| 2026-04-24 14:33 | 11.24962 | -149.98718 | 30938 ft | 440 kts | 250° |
| 2026-04-24 14:33 | 11.24295 | -150.01733 | 30967 ft | 440 kts | 266° |
| 2026-04-24 14:33 | 11.24535 | -150.04811 | 30953 ft | 443 kts | 282° |
| 2026-04-24 14:33 | 11.25677 | -150.07721 | 30961 ft | 447 kts | 299° |
| 2026-04-24 14:34 | 11.27636 | -150.10197 | 30962 ft | 453 kts | 315° |
| 2026-04-24 14:34 | 11.30241 | -150.12012 | 30959 ft | 459 kts | 332° |
| 2026-04-24 14:34 | 11.33327 | -150.13022 | 30962 ft | 466 kts | 348° |
| 2026-04-24 14:34 | 11.36596 | -150.13110 | 30960 ft | 473 kts | 5° |
| 2026-04-24 14:35 | 11.39764 | -150.12277 | 30966 ft | 477 kts | 21° |
| 2026-04-24 14:35 | 11.42691 | -150.10619 | 30976 ft | 481 kts | 33° |
| 2026-04-24 14:35 | 11.45293 | -150.08476 | 30940 ft | 484 kts | 42° |
| 2026-04-24 14:36 | 11.50072 | -150.03546 | 30932 ft | 487 kts | 46° |
| 2026-04-24 14:36 | 11.54660 | -149.98445 | 30919 ft | 490 kts | 53° |
| 2026-04-24 14:36 | 11.56309 | -149.95425 | 30945 ft | 489 kts | 70° |
| 2026-04-24 14:37 | 11.57093 | -149.92094 | 30978 ft | 487 kts | 86° |
| 2026-04-24 14:37 | 11.56971 | -149.88661 | 30956 ft | 484 kts | 103° |
| 2026-04-24 14:37 | 11.55941 | -149.85425 | 30962 ft | 479 kts | 119° |
| 2026-04-24 14:37 | 11.54098 | -149.82631 | 30961 ft | 472 kts | 136° |
| 2026-04-24 14:38 | 11.51600 | -149.80498 | 30962 ft | 465 kts | 152° |
| 2026-04-24 14:38 | 11.48660 | -149.79187 | 30965 ft | 457 kts | 169° |
| 2026-04-24 14:38 | 11.45545 | -149.78790 | 30958 ft | 450 kts | 185° |
| 2026-04-24 14:38 | 11.42481 | -149.79321 | 30962 ft | 444 kts | 201° |
| 2026-04-24 14:39 | 11.39736 | -149.80728 | 30961 ft | 439 kts | 218° |
| 2026-04-24 14:39 | 11.37541 | -149.82858 | 30966 ft | 436 kts | 231° |
| 2026-04-24 14:39 | 11.35606 | -149.85234 | 30943 ft | 439 kts | 230° |
| 2026-04-24 14:40 | 11.31577 | -149.89917 | 30930 ft | 441 kts | 230° |
| 2026-04-24 14:40 | 11.27496 | -149.94640 | 30926 ft | 443 kts | 230° |
| 2026-04-24 14:41 | 11.24436 | -149.99970 | 30955 ft | 440 kts | 257° |
| 2026-04-24 14:41 | 11.24168 | -150.03067 | 30959 ft | 441 kts | 274° |
| 2026-04-24 14:41 | 11.24825 | -150.06133 | 30950 ft | 445 kts | 290° |
| 2026-04-24 14:41 | 11.26350 | -150.08872 | 30959 ft | 450 kts | 306° |
| 2026-04-24 14:42 | 11.28598 | -150.11055 | 30954 ft | 456 kts | 322° |
| 2026-04-24 14:42 | 11.31460 | -150.12541 | 30955 ft | 463 kts | 339° |
| 2026-04-24 14:42 | 11.34646 | -150.13150 | 30955 ft | 469 kts | 356° |
| 2026-04-24 14:42 | 11.37924 | -150.12826 | 30954 ft | 475 kts | 12° |
| 2026-04-24 14:43 | 11.40986 | -150.11604 | 30958 ft | 480 kts | 28° |
| 2026-04-24 14:43 | 11.46346 | -150.07430 | 30933 ft | 486 kts | 43° |
| 2026-04-24 14:44 | 11.51052 | -150.02487 | 30924 ft | 489 kts | 46° |
| 2026-04-24 14:44 | 11.55471 | -149.97211 | 30910 ft | 491 kts | 60° |
| 2026-04-24 14:44 | 11.56767 | -149.94016 | 30965 ft | 489 kts | 77° |
| 2026-04-24 14:45 | 11.57175 | -149.90599 | 30959 ft | 487 kts | 93° |
| 2026-04-24 14:45 | 11.56664 | -149.87224 | 30957 ft | 482 kts | 110° |
| 2026-04-24 14:45 | 11.55274 | -149.84137 | 30961 ft | 477 kts | 126° |
| 2026-04-24 14:45 | 11.53134 | -149.81599 | 30957 ft | 470 kts | 142° |
| 2026-04-24 14:46 | 11.50447 | -149.79807 | 30960 ft | 462 kts | 159° |
| 2026-04-24 14:46 | 11.47384 | -149.78862 | 30958 ft | 455 kts | 175° |
| 2026-04-24 14:46 | 11.44241 | -149.78851 | 30958 ft | 448 kts | 192° |
| 2026-04-24 14:46 | 11.41274 | -149.79762 | 30959 ft | 442 kts | 208° |
| 2026-04-24 14:47 | 11.38737 | -149.81500 | 30958 ft | 438 kts | 225° |
| 2026-04-24 14:47 | 11.34768 | -149.86200 | 30918 ft | 440 kts | 230° |
| 2026-04-24 14:48 | 11.30745 | -149.90887 | 30928 ft | 442 kts | 230° |
| 2026-04-24 14:48 | 11.26684 | -149.95596 | 30929 ft | 443 kts | 231° |
| 2026-04-24 14:48 | 11.25034 | -149.98227 | 30927 ft | 441 kts | 248° |
| 2026-04-24 14:49 | 11.24232 | -150.01257 | 30967 ft | 441 kts | 264° |
| 2026-04-24 14:49 | 11.24348 | -150.04352 | 30953 ft | 444 kts | 280° |
| 2026-04-24 14:49 | 11.25368 | -150.07303 | 30959 ft | 448 kts | 296° |
| 2026-04-24 14:49 | 11.27208 | -150.09853 | 30963 ft | 453 kts | 313° |
| 2026-04-24 14:50 | 11.29761 | -150.11804 | 30958 ft | 460 kts | 329° |
| 2026-04-24 14:50 | 11.32788 | -150.12946 | 30963 ft | 466 kts | 346° |
| 2026-04-24 14:50 | 11.36048 | -150.13181 | 30959 ft | 473 kts | 2° |
| 2026-04-24 14:50 | 11.39285 | -150.12480 | 30966 ft | 478 kts | 19° |
| 2026-04-24 14:51 | 11.42251 | -150.10925 | 30977 ft | 481 kts | 32° |
| 2026-04-24 14:51 | 11.47341 | -150.06436 | 30944 ft | 487 kts | 44° |
| 2026-04-24 14:52 | 11.52020 | -150.01439 | 30938 ft | 489 kts | 46° |
| 2026-04-24 14:52 | 11.56121 | -149.95917 | 30943 ft | 490 kts | 68° |
| 2026-04-24 14:52 | 11.57055 | -149.92598 | 30985 ft | 488 kts | 84° |
| 2026-04-24 14:53 | 11.57084 | -149.89163 | 30964 ft | 485 kts | 100° |
| 2026-04-24 14:53 | 11.56196 | -149.85869 | 30969 ft | 480 kts | 117° |
| 2026-04-24 14:53 | 11.54474 | -149.82982 | 30970 ft | 474 kts | 133° |
| 2026-04-24 14:53 | 11.52069 | -149.80727 | 30970 ft | 467 kts | 149° |
| 2026-04-24 14:54 | 11.49200 | -149.79279 | 30971 ft | 459 kts | 166° |
| 2026-04-24 14:54 | 11.46104 | -149.78722 | 30967 ft | 453 kts | 182° |
| 2026-04-24 14:54 | 11.42968 | -149.79099 | 30968 ft | 446 kts | 199° |
| 2026-04-24 14:54 | 11.40145 | -149.80370 | 30970 ft | 441 kts | 215° |
| 2026-04-24 14:55 | 11.38568 | -149.81627 | 30968 ft | 439 kts | 226° |
| 2026-04-24 14:55 | 11.33918 | -149.87148 | 30923 ft | 441 kts | 230° |
| 2026-04-24 14:56 | 11.29880 | -149.91856 | 30931 ft | 443 kts | 230° |
| 2026-04-24 14:56 | 11.25862 | -149.96655 | 30919 ft | 443 kts | 238° |
| 2026-04-24 14:56 | 11.24551 | -149.99438 | 30950 ft | 441 kts | 254° |
| 2026-04-24 14:57 | 11.24106 | -150.02516 | 30963 ft | 442 kts | 270° |
| 2026-04-24 14:57 | 11.24590 | -150.05638 | 30954 ft | 445 kts | 287° |
| 2026-04-24 14:57 | 11.25960 | -150.08466 | 30962 ft | 450 kts | 303° |
| 2026-04-24 14:57 | 11.28105 | -150.10797 | 30958 ft | 456 kts | 320° |
| 2026-04-24 14:58 | 11.30864 | -150.12433 | 30960 ft | 462 kts | 336° |
| 2026-04-24 14:58 | 11.33999 | -150.13220 | 30960 ft | 469 kts | 352° |
| 2026-04-24 14:58 | 11.37270 | -150.13091 | 30959 ft | 475 kts | 9° |
| 2026-04-24 14:58 | 11.40419 | -150.12039 | 30965 ft | 480 kts | 25° |
| 2026-04-24 14:59 | 11.43261 | -150.10249 | 30973 ft | 483 kts | 36° |
| 2026-04-24 14:59 | 11.48194 | -150.05553 | 30940 ft | 487 kts | 45° |
| 2026-04-24 15:00 | 11.52870 | -150.00513 | 30937 ft | 490 kts | 46° |
| 2026-04-24 15:00 | 11.55067 | -149.97859 | 30917 ft | 491 kts | 57° |
| 2026-04-24 15:00 | 11.56547 | -149.94740 | 30966 ft | 490 kts | 73° |
| 2026-04-24 15:00 | 11.57152 | -149.91338 | 30973 ft | 488 kts | 90° |
| 2026-04-24 15:01 | 11.56839 | -149.87933 | 30958 ft | 484 kts | 106° |
| 2026-04-24 15:01 | 11.55618 | -149.84732 | 30966 ft | 479 kts | 123° |
| 2026-04-24 15:01 | 11.53623 | -149.82056 | 30959 ft | 472 kts | 139° |
| 2026-04-24 15:01 | 11.51025 | -149.80083 | 30963 ft | 465 kts | 155° |
| 2026-04-24 15:02 | 11.48023 | -149.78944 | 30963 ft | 457 kts | 172° |
| 2026-04-24 15:02 | 11.44862 | -149.78728 | 30960 ft | 450 kts | 188° |
| 2026-04-24 15:02 | 11.41840 | -149.79437 | 30962 ft | 444 kts | 205° |
| 2026-04-24 15:02 | 11.39176 | -149.81007 | 30966 ft | 439 kts | 221° |
| 2026-04-24 15:03 | 11.37071 | -149.83247 | 30976 ft | 437 kts | 232° |
| 2026-04-24 15:03 | 11.33111 | -149.87976 | 30932 ft | 441 kts | 230° |
| 2026-04-24 15:04 | 11.29059 | -149.92658 | 30933 ft | 443 kts | 230° |
| 2026-04-24 15:04 | 11.25195 | -149.97545 | 30920 ft | 442 kts | 243° |
| 2026-04-24 15:04 | 11.24175 | -150.00487 | 30964 ft | 441 kts | 259° |
| 2026-04-24 15:05 | 11.24060 | -150.03618 | 30960 ft | 443 kts | 276° |
| 2026-04-24 15:05 | 11.24862 | -150.06633 | 30956 ft | 447 kts | 292° |
| 2026-04-24 15:05 | 11.26520 | -150.09315 | 30963 ft | 453 kts | 309° |
| 2026-04-24 15:05 | 11.28889 | -150.11418 | 30955 ft | 459 kts | 325° |
| 2026-04-24 15:06 | 11.31812 | -150.12781 | 30963 ft | 466 kts | 341° |
| 2026-04-24 15:06 | 11.35039 | -150.13264 | 30959 ft | 473 kts | 358° |
| 2026-04-24 15:06 | 11.38326 | -150.12813 | 30958 ft | 479 kts | 14° |
| 2026-04-24 15:06 | 11.41402 | -150.11452 | 30968 ft | 483 kts | 29° |
| 2026-04-24 15:07 | 11.44159 | -150.09505 | 30957 ft | 486 kts | 39° |
| 2026-04-24 15:07 | 11.49017 | -150.04677 | 30937 ft | 490 kts | 45° |
| 2026-04-24 15:08 | 11.53706 | -149.99597 | 30937 ft | 492 kts | 47° |
| 2026-04-24 15:08 | 11.55723 | -149.96753 | 30926 ft | 493 kts | 63° |
| 2026-04-24 15:08 | 11.56894 | -149.93532 | 30982 ft | 491 kts | 79° |
| 2026-04-24 15:08 | 11.57185 | -149.90054 | 30971 ft | 488 kts | 95° |
| 2026-04-24 15:09 | 11.56561 | -149.86720 | 30966 ft | 484 kts | 111° |
| 2026-04-24 15:09 | 11.55068 | -149.83675 | 30972 ft | 478 kts | 128° |
| 2026-04-24 15:09 | 11.52828 | -149.81189 | 30972 ft | 471 kts | 144° |
| 2026-04-24 15:09 | 11.50054 | -149.79471 | 30976 ft | 464 kts | 161° |
| 2026-04-24 15:10 | 11.46960 | -149.78628 | 30980 ft | 457 kts | 177° |
| 2026-04-24 15:10 | 11.43808 | -149.78719 | 30979 ft | 450 kts | 194° |
| 2026-04-24 15:10 | 11.40866 | -149.79718 | 30979 ft | 444 kts | 210° |
| 2026-04-24 15:10 | 11.38371 | -149.81528 | 30981 ft | 440 kts | 226° |
| 2026-04-24 15:11 | 11.36363 | -149.83879 | 30987 ft | 440 kts | 231° |
| 2026-04-24 15:11 | 11.32344 | -149.88603 | 30943 ft | 443 kts | 230° |
| 2026-04-24 15:12 | 11.28248 | -149.93337 | 30933 ft | 445 kts | 230° |
| 2026-04-24 15:12 | 11.24631 | -149.98390 | 30925 ft | 443 kts | 249° |
| 2026-04-24 15:12 | 11.23905 | -150.01422 | 30962 ft | 443 kts | 265° |
| 2026-04-24 15:13 | 11.24089 | -150.04540 | 30952 ft | 445 kts | 281° |
| 2026-04-24 15:13 | 11.25194 | -150.07510 | 30956 ft | 449 kts | 298° |
| 2026-04-24 15:13 | 11.27103 | -150.10022 | 30955 ft | 454 kts | 314° |
| 2026-04-24 15:13 | 11.29679 | -150.11899 | 30953 ft | 461 kts | 330° |
| 2026-04-24 15:14 | 11.32721 | -150.12976 | 30957 ft | 467 kts | 347° |
| 2026-04-24 15:14 | 11.36025 | -150.13147 | 30954 ft | 474 kts | 4° |
| 2026-04-24 15:14 | 11.39235 | -150.12384 | 30956 ft | 479 kts | 20° |
| 2026-04-24 15:14 | 11.42192 | -150.10799 | 30968 ft | 482 kts | 30° |
| 2026-04-24 15:15 | 11.47354 | -150.06400 | 30942 ft | 487 kts | 44° |
| 2026-04-24 15:15 | 11.52055 | -150.01398 | 30925 ft | 490 kts | 46° |
| 2026-04-24 15:16 | 11.56152 | -149.95856 | 30932 ft | 491 kts | 68° |
| 2026-04-24 15:16 | 11.57076 | -149.92535 | 30971 ft | 489 kts | 84° |
| 2026-04-24 15:16 | 11.57097 | -149.89081 | 30950 ft | 487 kts | 100° |
| 2026-04-24 15:17 | 11.56207 | -149.85796 | 30961 ft | 482 kts | 116° |
| 2026-04-24 15:17 | 11.54485 | -149.82901 | 30962 ft | 476 kts | 133° |
| 2026-04-24 15:17 | 11.52083 | -149.80632 | 30959 ft | 469 kts | 149° |
| 2026-04-24 15:17 | 11.49188 | -149.79152 | 30960 ft | 462 kts | 166° |
| 2026-04-24 15:18 | 11.46035 | -149.78574 | 30960 ft | 455 kts | 182° |
| 2026-04-24 15:18 | 11.42922 | -149.78934 | 30959 ft | 448 kts | 198° |
| 2026-04-24 15:18 | 11.40091 | -149.80176 | 30960 ft | 443 kts | 215° |
| 2026-04-24 15:18 | 11.37759 | -149.82191 | 30962 ft | 440 kts | 230° |
| 2026-04-24 15:19 | 11.33775 | -149.86984 | 30920 ft | 443 kts | 230° |
| 2026-04-24 15:19 | 11.29713 | -149.91687 | 30930 ft | 445 kts | 230° |
| 2026-04-24 15:20 | 11.25679 | -149.96489 | 30917 ft | 445 kts | 237° |
| 2026-04-24 15:20 | 11.24349 | -149.99309 | 30949 ft | 443 kts | 254° |
| 2026-04-24 15:20 | 11.23900 | -150.02408 | 30961 ft | 444 kts | 270° |
| 2026-04-24 15:21 | 11.24374 | -150.05510 | 30955 ft | 447 kts | 287° |
| 2026-04-24 15:21 | 11.25735 | -150.08353 | 30962 ft | 451 kts | 303° |
| 2026-04-24 15:21 | 11.27889 | -150.10716 | 30955 ft | 457 kts | 319° |
| 2026-04-24 15:21 | 11.30631 | -150.12360 | 30959 ft | 464 kts | 335° |
| 2026-04-24 15:22 | 11.33771 | -150.13170 | 30961 ft | 470 kts | 352° |
| 2026-04-24 15:22 | 11.37080 | -150.13060 | 30959 ft | 476 kts | 8° |
| 2026-04-24 15:22 | 11.40251 | -150.12019 | 30965 ft | 481 kts | 25° |
| 2026-04-24 15:23 | 11.45733 | -150.08040 | 30940 ft | 487 kts | 43° |
| 2026-04-24 15:23 | 11.52827 | -150.00558 | 30938 ft | 491 kts | 46° |
| 2026-04-24 15:24 | 11.57185 | -149.91423 | 30976 ft | 489 kts | 89° |
| 2026-04-24 15:25 | 11.56223 | -149.85815 | 30970 ft | 482 kts | 116° |
| 2026-04-24 15:25 | 11.51198 | -149.80051 | 30972 ft | 467 kts | 154° |
| 2026-04-24 15:26 | 11.41981 | -149.79227 | 30965 ft | 446 kts | 204° |
| 2026-04-24 15:27 | 11.35156 | -149.85371 | 30944 ft | 442 kts | 231° |
| 2026-04-24 15:27 | 11.29089 | -149.92453 | 30933 ft | 445 kts | 230° |
| 2026-04-24 15:28 | 11.23972 | -150.03435 | 30956 ft | 445 kts | 275° |
| 2026-04-24 15:29 | 11.26360 | -150.09207 | 30962 ft | 454 kts | 308° |
| 2026-04-24 15:30 | 11.34823 | -150.13306 | 30959 ft | 473 kts | 357° |
| 2026-04-24 15:31 | 11.46501 | -150.07300 | 30945 ft | 489 kts | 44° |
| 2026-04-24 15:32 | 11.55614 | -149.96959 | 30932 ft | 493 kts | 62° |
| 2026-04-24 15:33 | 11.55183 | -149.83821 | 30979 ft | 479 kts | 127° |
| 2026-04-24 15:33 | 11.47162 | -149.78613 | 30977 ft | 458 kts | 176° |
| 2026-04-24 15:34 | 11.41033 | -149.79573 | 30975 ft | 445 kts | 209° |
| 2026-04-24 15:35 | 11.34491 | -149.86061 | 30943 ft | 443 kts | 230° |
| 2026-04-24 15:35 | 11.30429 | -149.90787 | 30949 ft | 445 kts | 230° |
| 2026-04-24 15:36 | 11.26348 | -149.95535 | 30943 ft | 446 kts | 231° |
| 2026-04-24 15:36 | 11.23931 | -150.01230 | 30983 ft | 444 kts | 264° |
| 2026-04-24 15:36 | 11.24057 | -150.04347 | 30970 ft | 446 kts | 280° |
| 2026-04-24 15:37 | 11.25106 | -150.07353 | 30977 ft | 450 kts | 297° |
| 2026-04-24 15:37 | 11.26954 | -150.09898 | 30976 ft | 456 kts | 313° |
| 2026-04-24 15:37 | 11.29509 | -150.11852 | 30974 ft | 462 kts | 329° |
| 2026-04-24 15:37 | 11.32536 | -150.12999 | 30976 ft | 468 kts | 346° |
| 2026-04-24 15:38 | 11.35806 | -150.13249 | 30976 ft | 475 kts | 2° |
| 2026-04-24 15:38 | 11.39033 | -150.12575 | 30976 ft | 480 kts | 18° |
| 2026-04-24 15:38 | 11.42028 | -150.11037 | 30987 ft | 483 kts | 31° |
| 2026-04-24 15:38 | 11.44754 | -150.08971 | 30956 ft | 487 kts | 41° |
| 2026-04-24 15:39 | 11.49580 | -150.04074 | 30947 ft | 490 kts | 45° |
| 2026-04-24 15:39 | 11.54237 | -149.98987 | 30943 ft | 493 kts | 50° |
| 2026-04-24 15:40 | 11.56063 | -149.96059 | 30951 ft | 493 kts | 66° |
| 2026-04-24 15:40 | 11.57060 | -149.92691 | 30989 ft | 491 kts | 83° |
| 2026-04-24 15:40 | 11.57134 | -149.89239 | 30968 ft | 488 kts | 99° |
| 2026-04-24 15:40 | 11.56308 | -149.85954 | 30977 ft | 484 kts | 115° |
| 2026-04-24 15:41 | 11.54618 | -149.82987 | 30973 ft | 478 kts | 132° |
| 2026-04-24 15:41 | 11.52236 | -149.80656 | 30971 ft | 471 kts | 148° |
| 2026-04-24 15:41 | 11.49357 | -149.79115 | 30970 ft | 464 kts | 165° |
| 2026-04-24 15:41 | 11.46233 | -149.78473 | 30967 ft | 457 kts | 181° |
| 2026-04-24 15:42 | 11.43099 | -149.78758 | 30967 ft | 450 kts | 197° |
| 2026-04-24 15:42 | 11.40211 | -149.79942 | 30967 ft | 445 kts | 213° |
| 2026-04-24 15:42 | 11.37803 | -149.81929 | 30969 ft | 442 kts | 229° |
| 2026-04-24 15:42 | 11.35830 | -149.84322 | 30968 ft | 442 kts | 231° |
| 2026-04-24 15:43 | 11.31779 | -149.89059 | 30934 ft | 445 kts | 230° |
| 2026-04-24 15:43 | 11.27678 | -149.93788 | 30934 ft | 447 kts | 230° |
| 2026-04-24 15:44 | 11.24216 | -149.99014 | 30949 ft | 445 kts | 252° |
| 2026-04-24 15:44 | 11.23668 | -150.02100 | 30966 ft | 445 kts | 268° |
| 2026-04-24 15:44 | 11.24037 | -150.05223 | 30957 ft | 448 kts | 284° |
| 2026-04-24 15:45 | 11.25294 | -150.08113 | 30964 ft | 453 kts | 301° |
| 2026-04-24 15:45 | 11.27352 | -150.10551 | 30956 ft | 458 kts | 317° |
| 2026-04-24 15:45 | 11.30051 | -150.12318 | 30959 ft | 465 kts | 333° |
| 2026-04-24 15:45 | 11.33164 | -150.13252 | 30961 ft | 471 kts | 350° |
| 2026-04-24 15:46 | 11.36459 | -150.13275 | 30958 ft | 477 kts | 6° |
| 2026-04-24 15:46 | 11.39676 | -150.12367 | 30964 ft | 482 kts | 22° |
| 2026-04-24 15:46 | 11.45253 | -150.08517 | 30939 ft | 488 kts | 42° |
| 2026-04-24 15:47 | 11.50038 | -150.03583 | 30935 ft | 491 kts | 46° |
| 2026-04-24 15:47 | 11.54650 | -149.98462 | 30926 ft | 494 kts | 53° |
| 2026-04-24 15:48 | 11.56330 | -149.95421 | 30955 ft | 493 kts | 70° |
| 2026-04-24 15:48 | 11.57147 | -149.92046 | 30977 ft | 491 kts | 86° |
| 2026-04-24 15:48 | 11.57048 | -149.88576 | 30961 ft | 489 kts | 102° |
| 2026-04-24 15:48 | 11.56041 | -149.85300 | 30970 ft | 483 kts | 118° |
| 2026-04-24 15:49 | 11.54220 | -149.82460 | 30969 ft | 477 kts | 135° |
| 2026-04-24 15:49 | 11.51738 | -149.80267 | 30969 ft | 470 kts | 151° |
| 2026-04-24 15:49 | 11.48794 | -149.78880 | 30968 ft | 463 kts | 167° |
| 2026-04-24 15:49 | 11.45632 | -149.78401 | 30964 ft | 456 kts | 184° |
| 2026-04-24 15:50 | 11.42511 | -149.78856 | 30965 ft | 450 kts | 200° |
| 2026-04-24 15:50 | 11.39693 | -149.80194 | 30966 ft | 445 kts | 216° |
| 2026-04-24 15:50 | 11.37412 | -149.82275 | 30968 ft | 442 kts | 231° |
| 2026-04-24 15:50 | 11.35439 | -149.84689 | 30957 ft | 443 kts | 231° |
| 2026-04-24 15:51 | 11.31369 | -149.89439 | 30934 ft | 446 kts | 230° |
| 2026-04-24 15:51 | 11.27257 | -149.94197 | 30930 ft | 448 kts | 230° |
| 2026-04-24 15:52 | 11.24034 | -149.99541 | 30954 ft | 445 kts | 255° |
| 2026-04-24 15:52 | 11.23665 | -150.02653 | 30961 ft | 446 kts | 271° |
| 2026-04-24 15:52 | 11.24219 | -150.05765 | 30958 ft | 449 kts | 288° |
| 2026-04-24 15:53 | 11.25649 | -150.08588 | 30961 ft | 454 kts | 304° |
| 2026-04-24 15:53 | 11.27823 | -150.10884 | 30956 ft | 459 kts | 320° |
| 2026-04-24 15:53 | 11.30644 | -150.12509 | 30962 ft | 466 kts | 336° |
| 2026-04-24 15:53 | 11.33828 | -150.13268 | 30966 ft | 472 kts | 353° |
| 2026-04-24 15:54 | 11.37107 | -150.13103 | 30967 ft | 478 kts | 9° |
| 2026-04-24 15:54 | 11.40278 | -150.12015 | 30974 ft | 483 kts | 26° |
| 2026-04-24 15:54 | 11.45751 | -150.08022 | 30950 ft | 489 kts | 43° |
| 2026-04-24 15:55 | 11.50524 | -150.03058 | 30944 ft | 492 kts | 46° |
| 2026-04-24 15:55 | 11.55080 | -149.97853 | 30931 ft | 494 kts | 57° |
| 2026-04-24 15:56 | 11.56603 | -149.94665 | 30976 ft | 493 kts | 73° |
| 2026-04-24 15:56 | 11.57219 | -149.91242 | 30979 ft | 491 kts | 89° |
| 2026-04-24 15:56 | 11.56913 | -149.87799 | 30974 ft | 488 kts | 106° |
| 2026-04-24 15:56 | 11.55734 | -149.84634 | 30979 ft | 482 kts | 122° |
| 2026-04-24 15:57 | 11.53751 | -149.81903 | 30976 ft | 476 kts | 138° |
| 2026-04-24 15:57 | 11.51119 | -149.79852 | 30978 ft | 469 kts | 155° |
| 2026-04-24 15:57 | 11.44969 | -149.78389 | 30977 ft | 455 kts | 187° |
| 2026-04-24 15:58 | 11.41886 | -149.79038 | 30977 ft | 449 kts | 203° |
| 2026-04-24 15:58 | 11.39159 | -149.80550 | 30976 ft | 444 kts | 220° |
| 2026-04-24 15:58 | 11.36974 | -149.82773 | 30987 ft | 442 kts | 231° |
| 2026-04-24 15:58 | 11.34991 | -149.85188 | 30956 ft | 444 kts | 230° |
| 2026-04-24 15:59 | 11.30932 | -149.89922 | 30950 ft | 447 kts | 230° |
| 2026-04-24 15:59 | 11.26834 | -149.94690 | 30945 ft | 448 kts | 230° |
| 2026-04-24 16:00 | 11.24981 | -149.97231 | 30931 ft | 447 kts | 243° |
| 2026-04-24 16:00 | 11.23920 | -150.00185 | 30980 ft | 445 kts | 259° |
| 2026-04-24 16:00 | 11.23756 | -150.03319 | 30973 ft | 447 kts | 275° |
| 2026-04-24 16:00 | 11.24509 | -150.06386 | 30972 ft | 451 kts | 291° |
| 2026-04-24 16:01 | 11.26127 | -150.09126 | 30977 ft | 456 kts | 308° |
| 2026-04-24 16:01 | 11.28481 | -150.11310 | 30973 ft | 462 kts | 324° |
| 2026-04-24 16:01 | 11.31410 | -150.12753 | 30975 ft | 469 kts | 340° |
| 2026-04-24 16:01 | 11.34628 | -150.13313 | 30975 ft | 475 kts | 356° |
| 2026-04-24 16:02 | 11.37929 | -150.12949 | 30975 ft | 481 kts | 13° |
| 2026-04-24 16:02 | 11.41074 | -150.11656 | 30976 ft | 485 kts | 29° |
| 2026-04-24 16:02 | 11.46404 | -150.07391 | 30957 ft | 491 kts | 44° |
| 2026-04-24 16:03 | 11.51138 | -150.02396 | 30945 ft | 493 kts | 46° |
| 2026-04-24 16:03 | 11.55586 | -149.97020 | 30934 ft | 495 kts | 61° |
| 2026-04-24 16:04 | 11.56848 | -149.93817 | 30984 ft | 494 kts | 77° |
| 2026-04-24 16:04 | 11.57240 | -149.90320 | 30974 ft | 492 kts | 94° |
| 2026-04-24 16:04 | 11.56704 | -149.86922 | 30977 ft | 488 kts | 110° |
| 2026-04-24 16:04 | 11.55291 | -149.83803 | 30980 ft | 482 kts | 126° |
| 2026-04-24 16:05 | 11.50401 | -149.79399 | 30978 ft | 468 kts | 159° |
| 2026-04-24 16:05 | 11.47317 | -149.78422 | 30977 ft | 461 kts | 175° |
| 2026-04-24 16:06 | 11.41132 | -149.79244 | 30978 ft | 448 kts | 207° |
| 2026-04-24 16:06 | 11.38513 | -149.80959 | 30977 ft | 444 kts | 224° |
| 2026-04-24 16:07 | 11.32406 | -149.88066 | 30950 ft | 446 kts | 230° |
| 2026-04-24 16:07 | 11.26252 | -149.95229 | 30949 ft | 449 kts | 231° |
| 2026-04-24 16:08 | 11.24554 | -149.97885 | 30943 ft | 447 kts | 247° |
| 2026-04-24 16:08 | 11.23763 | -150.04051 | 30976 ft | 449 kts | 279° |
| 2026-04-24 16:09 | 11.26523 | -150.09695 | 30980 ft | 459 kts | 311° |
| 2026-04-24 16:09 | 11.29056 | -150.11752 | 30977 ft | 465 kts | 328° |
| 2026-04-24 16:09 | 11.32064 | -150.13002 | 30977 ft | 472 kts | 344° |
| 2026-04-24 16:09 | 11.35343 | -150.13365 | 30973 ft | 478 kts | 0° |
| 2026-04-24 16:10 | 11.44430 | -150.09300 | 30961 ft | 491 kts | 40° |
| 2026-04-24 16:11 | 11.49280 | -150.04401 | 30946 ft | 494 kts | 45° |
| 2026-04-24 16:11 | 11.53994 | -149.99274 | 30944 ft | 496 kts | 48° |
| 2026-04-24 16:12 | 11.57021 | -149.93072 | 30987 ft | 494 kts | 81° |
| 2026-04-24 16:12 | 11.57218 | -149.89575 | 30974 ft | 491 kts | 97° |
| 2026-04-24 16:12 | 11.54915 | -149.83192 | 30981 ft | 481 kts | 129° |
| 2026-04-24 16:13 | 11.52616 | -149.80759 | 30978 ft | 474 kts | 146° |
| 2026-04-24 16:13 | 11.46655 | -149.78304 | 30973 ft | 460 kts | 178° |
| 2026-04-24 16:14 | 11.40530 | -149.79509 | 30972 ft | 448 kts | 211° |
| 2026-04-24 16:14 | 11.38048 | -149.81363 | 30972 ft | 444 kts | 227° |
| 2026-04-24 16:14 | 11.34026 | -149.86160 | 30932 ft | 446 kts | 230° |
| 2026-04-24 16:15 | 11.27877 | -149.93312 | 30938 ft | 449 kts | 230° |
| 2026-04-24 16:16 | 11.24311 | -149.98448 | 30947 ft | 447 kts | 250° |
| 2026-04-24 16:16 | 11.23642 | -150.01521 | 30981 ft | 447 kts | 266° |
| 2026-04-24 16:17 | 11.26992 | -150.10165 | 30973 ft | 460 kts | 315° |
| 2026-04-24 16:17 | 11.32726 | -150.13138 | 30974 ft | 473 kts | 347° |
| 2026-04-24 16:18 | 11.39296 | -150.12541 | 30974 ft | 484 kts | 19° |
| 2026-04-24 16:18 | 11.44970 | -150.08798 | 30956 ft | 491 kts | 41° |
| 2026-04-24 16:19 | 11.52168 | -150.01277 | 30946 ft | 495 kts | 46° |
| 2026-04-24 16:20 | 11.57149 | -149.92310 | 30982 ft | 494 kts | 84° |
| 2026-04-24 16:20 | 11.56239 | -149.85516 | 30979 ft | 486 kts | 116° |
| 2026-04-24 16:20 | 11.54506 | -149.82608 | 30975 ft | 480 kts | 133° |
| 2026-04-24 16:21 | 11.49151 | -149.78803 | 30977 ft | 466 kts | 165° |
| 2026-04-24 16:21 | 11.46024 | -149.78206 | 30975 ft | 459 kts | 181° |
| 2026-04-24 16:21 | 11.42862 | -149.78534 | 30976 ft | 453 kts | 198° |
| 2026-04-24 16:22 | 11.39985 | -149.79750 | 30976 ft | 447 kts | 214° |
| 2026-04-24 16:22 | 11.35617 | -149.84163 | 30980 ft | 444 kts | 231° |
| 2026-04-24 16:22 | 11.33599 | -149.86563 | 30936 ft | 447 kts | 230° |
| 2026-04-24 16:23 | 11.29489 | -149.91344 | 30946 ft | 449 kts | 230° |
| 2026-04-24 16:24 | 11.24027 | -149.98988 | 30961 ft | 447 kts | 253° |
| 2026-04-24 16:24 | 11.23518 | -150.02109 | 30981 ft | 448 kts | 269° |
| 2026-04-24 16:24 | 11.23928 | -150.05246 | 30970 ft | 451 kts | 285° |
| 2026-04-24 16:24 | 11.25227 | -150.08142 | 30975 ft | 455 kts | 301° |
| 2026-04-24 16:25 | 11.27321 | -150.10576 | 30973 ft | 461 kts | 317° |
| 2026-04-24 16:25 | 11.30045 | -150.12328 | 30974 ft | 467 kts | 334° |
| 2026-04-24 16:25 | 11.33177 | -150.13249 | 30973 ft | 474 kts | 350° |
| 2026-04-24 16:26 | 11.39742 | -150.12332 | 30974 ft | 485 kts | 22° |
| 2026-04-24 16:26 | 11.42697 | -150.10617 | 30985 ft | 488 kts | 33° |
| 2026-04-24 16:26 | 11.47755 | -150.06007 | 30959 ft | 493 kts | 45° |
| 2026-04-24 16:27 | 11.50135 | -150.03479 | 30945 ft | 494 kts | 46° |
| 2026-04-24 16:27 | 11.54782 | -149.98288 | 30932 ft | 497 kts | 54° |
| 2026-04-24 16:27 | 11.56433 | -149.95193 | 30966 ft | 496 kts | 70° |
| 2026-04-24 16:28 | 11.57210 | -149.91808 | 30980 ft | 494 kts | 86° |
| 2026-04-24 16:28 | 11.57077 | -149.88333 | 30970 ft | 491 kts | 102° |
| 2026-04-24 16:28 | 11.54203 | -149.82216 | 30976 ft | 480 kts | 135° |
| 2026-04-24 16:29 | 11.51693 | -149.80014 | 30977 ft | 473 kts | 151° |
| 2026-04-24 16:29 | 11.48687 | -149.78612 | 30976 ft | 466 kts | 167° |
| 2026-04-24 16:29 | 11.42370 | -149.78606 | 30977 ft | 453 kts | 200° |
| 2026-04-24 16:30 | 11.37232 | -149.82039 | 30980 ft | 445 kts | 230° |
| 2026-04-24 16:30 | 11.33202 | -149.86845 | 30942 ft | 448 kts | 230° |
| 2026-04-24 16:31 | 11.29078 | -149.91594 | 30951 ft | 449 kts | 229° |
| 2026-04-24 16:31 | 11.25000 | -149.96431 | 30937 ft | 449 kts | 238° |
| 2026-04-24 16:32 | 11.24029 | -149.98291 | 30950 ft | 448 kts | 249° |
| 2026-04-24 16:32 | 11.23250 | -150.02411 | 30984 ft | 449 kts | 270° |
| 2026-04-24 16:32 | 11.23737 | -150.05559 | 30975 ft | 452 kts | 286° |
| 2026-04-24 16:32 | 11.25112 | -150.08441 | 30981 ft | 457 kts | 302° |
| 2026-04-24 16:33 | 11.27271 | -150.10838 | 30978 ft | 463 kts | 319° |
| 2026-04-24 16:33 | 11.30041 | -150.12540 | 30976 ft | 470 kts | 335° |
| 2026-04-24 16:33 | 11.33221 | -150.13406 | 30978 ft | 477 kts | 351° |
| 2026-04-24 16:33 | 11.36556 | -150.13356 | 30980 ft | 483 kts | 7° |
| 2026-04-24 16:34 | 11.39785 | -150.12381 | 30981 ft | 488 kts | 23° |
| 2026-04-24 16:34 | 11.42727 | -150.10641 | 30992 ft | 490 kts | 33° |
| 2026-04-24 16:34 | 11.47808 | -150.05959 | 30963 ft | 495 kts | 45° |
| 2026-04-24 16:35 | 11.52584 | -150.00824 | 30960 ft | 497 kts | 46° |
| 2026-04-24 16:35 | 11.56476 | -149.95084 | 30978 ft | 497 kts | 71° |
| 2026-04-24 16:36 | 11.57235 | -149.91652 | 30990 ft | 495 kts | 87° |
| 2026-04-24 16:36 | 11.57069 | -149.88165 | 30985 ft | 491 kts | 103° |
| 2026-04-24 16:36 | 11.56008 | -149.84901 | 30992 ft | 486 kts | 120° |
| 2026-04-24 16:36 | 11.54143 | -149.82079 | 30987 ft | 480 kts | 136° |
| 2026-04-24 16:37 | 11.51613 | -149.79900 | 30987 ft | 472 kts | 152° |
| 2026-04-24 16:37 | 11.48644 | -149.78546 | 30984 ft | 465 kts | 168° |
| 2026-04-24 16:37 | 11.46544 | -149.78146 | 30987 ft | 460 kts | 179° |
| 2026-04-24 16:37 | 11.42353 | -149.78584 | 30990 ft | 451 kts | 200° |
| 2026-04-24 16:38 | 11.39544 | -149.79944 | 30991 ft | 447 kts | 217° |
| 2026-04-24 16:38 | 11.37246 | -149.82065 | 31001 ft | 444 kts | 230° |
| 2026-04-24 16:38 | 11.33194 | -149.86864 | 30960 ft | 447 kts | 229° |
| 2026-04-24 16:39 | 11.29062 | -149.91606 | 30965 ft | 449 kts | 229° |
| 2026-04-24 16:39 | 11.25001 | -149.96439 | 30954 ft | 449 kts | 238° |
| 2026-04-24 16:40 | 11.23705 | -149.99300 | 30987 ft | 447 kts | 254° |
| 2026-04-24 16:40 | 11.23288 | -150.02455 | 30997 ft | 449 kts | 270° |
| 2026-04-24 16:40 | 11.23801 | -150.05594 | 30987 ft | 452 kts | 287° |
| 2026-04-24 16:40 | 11.25180 | -150.08438 | 30996 ft | 457 kts | 303° |
| 2026-04-24 16:41 | 11.27346 | -150.10817 | 30997 ft | 463 kts | 319° |
| 2026-04-24 16:41 | 11.30146 | -150.12514 | 30993 ft | 470 kts | 335° |
| 2026-04-24 16:41 | 11.33325 | -150.13358 | 30990 ft | 476 kts | 351° |
| 2026-04-24 16:41 | 11.36674 | -150.13281 | 30989 ft | 483 kts | 7° |
| 2026-04-24 16:42 | 11.39908 | -150.12273 | 30986 ft | 488 kts | 24° |
| 2026-04-24 16:42 | 11.42839 | -150.10524 | 30992 ft | 491 kts | 33° |
| 2026-04-24 16:42 | 11.47924 | -150.05832 | 30965 ft | 495 kts | 45° |
| 2026-04-24 16:43 | 11.52666 | -150.00735 | 30959 ft | 498 kts | 46° |
| 2026-04-24 16:43 | 11.56539 | -149.94925 | 30978 ft | 497 kts | 72° |
| 2026-04-24 16:44 | 11.57257 | -149.91498 | 30990 ft | 495 kts | 88° |
| 2026-04-24 16:44 | 11.57054 | -149.88007 | 30984 ft | 491 kts | 104° |
| 2026-04-24 16:44 | 11.55955 | -149.84750 | 30992 ft | 486 kts | 120° |
| 2026-04-24 16:44 | 11.54049 | -149.81938 | 30987 ft | 480 kts | 136° |
| 2026-04-24 16:45 | 11.51497 | -149.79796 | 30986 ft | 472 kts | 153° |
| 2026-04-24 16:45 | 11.48520 | -149.78481 | 30985 ft | 465 kts | 168° |
| 2026-04-24 16:45 | 11.45334 | -149.78072 | 30985 ft | 458 kts | 185° |
| 2026-04-24 16:45 | 11.42199 | -149.78600 | 30987 ft | 451 kts | 201° |
| 2026-04-24 16:46 | 11.39405 | -149.80000 | 30982 ft | 447 kts | 217° |
| 2026-04-24 16:46 | 11.37139 | -149.82140 | 30988 ft | 444 kts | 231° |
| 2026-04-24 16:46 | 11.33110 | -149.86919 | 30948 ft | 447 kts | 229° |
| 2026-04-24 16:47 | 11.28950 | -149.91693 | 30954 ft | 449 kts | 229° |
| 2026-04-24 16:47 | 11.24911 | -149.96538 | 30934 ft | 449 kts | 239° |
| 2026-04-24 16:48 | 11.23657 | -149.99431 | 30974 ft | 448 kts | 255° |
| 2026-04-24 16:48 | 11.23290 | -150.02583 | 30984 ft | 449 kts | 271° |
| 2026-04-24 16:48 | 11.23843 | -150.05702 | 30975 ft | 453 kts | 287° |
| 2026-04-24 16:48 | 11.25282 | -150.08563 | 30979 ft | 458 kts | 303° |
| 2026-04-24 16:49 | 11.27458 | -150.10889 | 30973 ft | 464 kts | 320° |
| 2026-04-24 16:49 | 11.30297 | -150.12560 | 30978 ft | 471 kts | 336° |
| 2026-04-24 16:49 | 11.33469 | -150.13362 | 30975 ft | 477 kts | 352° |
| 2026-04-24 16:49 | 11.36806 | -150.13252 | 30980 ft | 483 kts | 8° |
| 2026-04-24 16:50 | 11.39015 | -150.12651 | 30980 ft | 487 kts | 19° |
| 2026-04-24 16:50 | 11.42982 | -150.10428 | 30990 ft | 491 kts | 34° |
| 2026-04-24 16:50 | 11.48053 | -150.05698 | 30960 ft | 496 kts | 45° |
| 2026-04-24 16:51 | 11.52801 | -150.00588 | 30947 ft | 498 kts | 46° |
| 2026-04-24 16:51 | 11.56607 | -149.94756 | 30973 ft | 498 kts | 72° |
| 2026-04-24 16:52 | 11.57289 | -149.91318 | 30978 ft | 496 kts | 88° |
| 2026-04-24 16:52 | 11.57055 | -149.87851 | 30972 ft | 492 kts | 104° |
| 2026-04-24 16:52 | 11.55928 | -149.84596 | 30980 ft | 487 kts | 121° |
| 2026-04-24 16:52 | 11.54000 | -149.81798 | 30976 ft | 480 kts | 137° |
| 2026-04-24 16:53 | 11.51429 | -149.79671 | 30977 ft | 473 kts | 153° |
| 2026-04-24 16:53 | 11.48423 | -149.78371 | 30975 ft | 465 kts | 169° |
| 2026-04-24 16:53 | 11.45242 | -149.77988 | 30976 ft | 458 kts | 185° |
| 2026-04-24 16:53 | 11.42120 | -149.78536 | 30976 ft | 452 kts | 201° |
| 2026-04-24 16:54 | 11.39309 | -149.79971 | 30976 ft | 447 kts | 218° |
| 2026-04-24 16:54 | 11.37081 | -149.82101 | 30982 ft | 445 kts | 231° |
| 2026-04-24 16:54 | 11.33027 | -149.86897 | 30944 ft | 448 kts | 229° |
| 2026-04-24 16:55 | 11.28872 | -149.91672 | 30951 ft | 450 kts | 229° |
| 2026-04-24 16:55 | 11.24836 | -149.96545 | 30935 ft | 450 kts | 240° |
| 2026-04-24 16:56 | 11.23624 | -149.99429 | 30976 ft | 448 kts | 256° |
| 2026-04-24 16:56 | 11.23296 | -150.02591 | 30982 ft | 450 kts | 272° |
| 2026-04-24 16:56 | 11.23904 | -150.05718 | 30977 ft | 453 kts | 289° |
| 2026-04-24 16:56 | 11.25404 | -150.08556 | 30979 ft | 459 kts | 305° |
| 2026-04-24 16:57 | 11.27657 | -150.10849 | 30978 ft | 465 kts | 321° |
| 2026-04-24 16:57 | 11.30538 | -150.12439 | 30977 ft | 472 kts | 338° |
| 2026-04-24 16:57 | 11.33731 | -150.13145 | 30976 ft | 479 kts | 354° |
| 2026-04-24 16:57 | 11.37101 | -150.12923 | 30982 ft | 484 kts | 10° |
| 2026-04-24 16:58 | 11.40281 | -150.11775 | 30981 ft | 489 kts | 27° |
| 2026-04-24 16:58 | 11.43084 | -150.09758 | 30983 ft | 493 kts | 43° |
| 2026-04-24 16:58 | 11.45242 | -150.07054 | 30982 ft | 494 kts | 59° |
| 2026-04-24 16:58 | 11.46607 | -150.03857 | 30982 ft | 494 kts | 76° |
| 2026-04-24 16:59 | 11.47072 | -150.00464 | 30984 ft | 492 kts | 92° |
| 2026-04-24 16:59 | 11.46610 | -149.97003 | 30984 ft | 488 kts | 109° |
| 2026-04-24 16:59 | 11.43149 | -149.91277 | 30992 ft | 475 kts | 141° |
| 2026-04-24 17:00 | 11.40423 | -149.89394 | 30992 ft | 468 kts | 158° |
| 2026-04-24 17:00 | 11.34164 | -149.88333 | 30996 ft | 454 kts | 191° |
| 2026-04-24 17:00 | 11.31147 | -149.89204 | 30995 ft | 448 kts | 207° |
| 2026-04-24 17:01 | 11.26590 | -149.93315 | 30993 ft | 442 kts | 240° |
| 2026-04-24 17:01 | 11.25427 | -149.96191 | 30994 ft | 443 kts | 257° |
| 2026-04-24 17:02 | 11.25835 | -150.02399 | 30997 ft | 450 kts | 290° |
| 2026-04-24 17:02 | 11.27387 | -150.05174 | 30994 ft | 456 kts | 306° |
| 2026-04-24 17:02 | 11.29690 | -150.07397 | 30993 ft | 463 kts | 322° |
| 2026-04-24 17:02 | 11.32553 | -150.08884 | 30995 ft | 470 kts | 339° |
| 2026-04-24 17:03 | 11.39126 | -150.09199 | 30994 ft | 483 kts | 12° |
| 2026-04-24 17:03 | 11.42295 | -150.07948 | 30995 ft | 488 kts | 28° |
| 2026-04-24 17:03 | 11.44998 | -150.05881 | 30994 ft | 492 kts | 45° |
| 2026-04-24 17:04 | 11.47092 | -150.03093 | 30997 ft | 493 kts | 61° |
| 2026-04-24 17:04 | 11.48935 | -149.96451 | 31007 ft | 493 kts | 82° |
| 2026-04-24 17:04 | 11.49758 | -149.93072 | 30938 ft | 495 kts | 68° |
| 2026-04-24 17:05 | 11.51443 | -149.89999 | 30992 ft | 493 kts | 52° |
| 2026-04-24 17:05 | 11.53771 | -149.87448 | 31006 ft | 493 kts | 43° |
| 2026-04-24 17:06 | 11.61266 | -149.80106 | 30972 ft | 498 kts | 43° |
| 2026-04-24 17:06 | 11.68792 | -149.72745 | 30971 ft | 501 kts | 43° |
| 2026-04-24 17:07 | 11.73822 | -149.67831 | 30968 ft | 502 kts | 43° |
| 2026-04-24 17:08 | 11.83947 | -149.57927 | 30971 ft | 504 kts | 43° |
| 2026-04-24 17:08 | 11.89137 | -149.53032 | 30971 ft | 505 kts | 41° |
| 2026-04-24 17:09 | 11.98441 | -149.42316 | 30969 ft | 506 kts | 48° |
| 2026-04-24 17:10 | 12.07818 | -149.31564 | 30965 ft | 507 kts | 48° |
| 2026-04-24 17:12 | 12.25220 | -149.11585 | 30965 ft | 508 kts | 48° |
| 2026-04-24 18:54 | 20.96340 | -137.81573 | 31076 ft | 544 kts | 49° |
| 2026-04-24 18:55 | 21.03518 | -137.72177 | 31078 ft | 547 kts | 49° |
| 2026-04-24 18:56 | 21.08358 | -137.65832 | 31081 ft | 549 kts | 49° |
| 2026-04-24 18:56 | 21.13198 | -137.59485 | 31073 ft | 550 kts | 49° |
| 2026-04-24 18:57 | 21.18023 | -137.53142 | 31075 ft | 550 kts | 49° |
| 2026-04-24 18:57 | 21.22877 | -137.46761 | 31075 ft | 551 kts | 49° |
| 2026-04-24 18:58 | 21.27708 | -137.40399 | 31077 ft | 551 kts | 49° |
| 2026-04-24 18:58 | 21.32641 | -137.33897 | 31071 ft | 551 kts | 49° |
| 2026-04-24 18:59 | 21.37545 | -137.27425 | 31068 ft | 551 kts | 49° |
| 2026-04-24 18:59 | 21.42358 | -137.21063 | 31065 ft | 550 kts | 49° |
| 2026-04-24 19:00 | 21.47165 | -137.14706 | 31065 ft | 550 kts | 49° |
| 2026-04-24 19:00 | 21.52004 | -137.08298 | 31069 ft | 550 kts | 49° |
| 2026-04-24 19:01 | 21.56819 | -137.01910 | 31071 ft | 550 kts | 49° |
| 2026-04-24 19:01 | 21.61627 | -136.95531 | 31072 ft | 551 kts | 49° |
| 2026-04-24 19:02 | 21.65648 | -136.90187 | 31072 ft | 551 kts | 49° |
| 2026-04-24 19:02 | 21.71258 | -136.82722 | 31077 ft | 552 kts | 49° |
| 2026-04-24 19:03 | 21.75141 | -136.77550 | 31077 ft | 552 kts | 49° |
| 2026-04-24 19:03 | 21.79949 | -136.71140 | 31082 ft | 552 kts | 49° |
| 2026-04-24 19:04 | 21.84779 | -136.64693 | 31083 ft | 552 kts | 49° |
| 2026-04-24 19:04 | 21.89606 | -136.58240 | 31085 ft | 553 kts | 49° |
| 2026-04-24 19:05 | 21.94425 | -136.51791 | 31088 ft | 553 kts | 49° |
| 2026-04-24 19:05 | 21.99224 | -136.45360 | 31094 ft | 554 kts | 49° |
| 2026-04-24 19:06 | 22.04051 | -136.38887 | 31092 ft | 554 kts | 49° |
| 2026-04-24 19:06 | 22.08892 | -136.32384 | 31083 ft | 555 kts | 50° |
| 2026-04-24 19:07 | 22.13717 | -136.25894 | 31074 ft | 554 kts | 50° |
| 2026-04-24 19:07 | 22.17710 | -136.20517 | 31082 ft | 554 kts | 50° |
| 2026-04-24 19:08 | 22.23320 | -136.12958 | 31083 ft | 554 kts | 50° |
| 2026-04-24 19:08 | 22.28137 | -136.06457 | 31075 ft | 554 kts | 50° |
| 2026-04-24 19:09 | 22.32948 | -135.99954 | 31080 ft | 554 kts | 50° |
| 2026-04-24 19:09 | 22.37740 | -135.93472 | 31079 ft | 554 kts | 50° |
| 2026-04-24 19:10 | 22.42542 | -135.86969 | 31081 ft | 554 kts | 50° |
| 2026-04-24 19:10 | 22.47340 | -135.80460 | 31088 ft | 554 kts | 50° |
| 2026-04-24 19:11 | 22.52137 | -135.73946 | 31086 ft | 554 kts | 50° |
| 2026-04-24 19:11 | 22.56988 | -135.67352 | 31084 ft | 555 kts | 50° |
| 2026-04-24 19:12 | 22.61793 | -135.60809 | 31086 ft | 555 kts | 50° |
| 2026-04-24 19:12 | 22.66616 | -135.54234 | 31094 ft | 555 kts | 50° |
| 2026-04-24 19:13 | 22.70624 | -135.48766 | 31089 ft | 556 kts | 50° |
| 2026-04-24 19:13 | 22.76291 | -135.41022 | 31093 ft | 556 kts | 50° |
| 2026-04-24 19:14 | 22.81108 | -135.34433 | 31097 ft | 557 kts | 50° |
| 2026-04-24 19:14 | 22.85991 | -135.27743 | 31082 ft | 557 kts | 50° |
| 2026-04-24 19:15 | 22.90789 | -135.21161 | 31083 ft | 557 kts | 50° |
| 2026-04-24 19:15 | 22.95598 | -135.14554 | 31089 ft | 556 kts | 50° |
| 2026-04-24 19:16 | 23.02847 | -135.04582 | 31090 ft | 556 kts | 50° |
| 2026-04-24 19:16 | 23.07645 | -134.97972 | 31091 ft | 557 kts | 50° |
| 2026-04-24 19:17 | 23.12464 | -134.91321 | 31089 ft | 557 kts | 50° |
| 2026-04-24 19:17 | 23.17285 | -134.84663 | 31099 ft | 556 kts | 50° |
| 2026-04-24 19:18 | 23.22122 | -134.77971 | 31091 ft | 556 kts | 50° |
| 2026-04-24 19:18 | 23.26935 | -134.71304 | 31092 ft | 556 kts | 50° |
| 2026-04-24 19:19 | 23.31754 | -134.64619 | 31095 ft | 557 kts | 50° |
| 2026-04-24 19:19 | 23.36563 | -134.57942 | 31098 ft | 557 kts | 50° |
| 2026-04-24 19:20 | 23.41374 | -134.51253 | 31100 ft | 557 kts | 50° |
| 2026-04-24 19:20 | 23.46160 | -134.44588 | 31099 ft | 557 kts | 50° |
| 2026-04-24 19:21 | 23.50967 | -134.37886 | 31099 ft | 558 kts | 50° |
| 2026-04-24 19:21 | 23.55762 | -134.31190 | 31084 ft | 558 kts | 51° |
| 2026-04-24 19:22 | 23.60550 | -134.24499 | 31089 ft | 557 kts | 51° |
| 2026-04-24 19:22 | 23.65375 | -134.17744 | 31094 ft | 557 kts | 51° |
| 2026-04-24 19:23 | 23.70138 | -134.11067 | 31090 ft | 558 kts | 51° |
| 2026-04-24 19:23 | 23.74908 | -134.04373 | 31093 ft | 562 kts | 51° |
| 2026-04-24 19:24 | 23.77293 | -134.01021 | 31509 ft | 550 kts | 51° |
| 2026-04-24 19:24 | 23.79603 | -133.97772 | 32190 ft | 538 kts | 51° |
| 2026-04-24 19:24 | 23.81911 | -133.94527 | 32017 ft | 545 kts | 51° |
| 2026-04-24 19:24 | 23.84259 | -133.91222 | 32023 ft | 546 kts | 51° |
| 2026-04-24 19:25 | 23.89002 | -133.84538 | 32072 ft | 549 kts | 51° |
| 2026-04-24 19:25 | 23.93702 | -133.77908 | 32101 ft | 551 kts | 51° |
| 2026-04-24 19:26 | 23.98419 | -133.71243 | 32137 ft | 553 kts | 51° |
| 2026-04-24 19:26 | 24.03150 | -133.64551 | 32177 ft | 554 kts | 51° |
| 2026-04-24 19:27 | 24.07843 | -133.57899 | 32216 ft | 555 kts | 51° |
| 2026-04-24 19:27 | 24.12587 | -133.51170 | 32246 ft | 556 kts | 51° |
| 2026-04-24 19:28 | 24.17298 | -133.44476 | 32256 ft | 557 kts | 51° |
| 2026-04-24 19:28 | 24.22032 | -133.37741 | 32266 ft | 557 kts | 51° |
| 2026-04-24 19:29 | 24.29126 | -133.27637 | 32255 ft | 558 kts | 51° |
| 2026-04-24 19:30 | 24.33838 | -133.20908 | 32236 ft | 559 kts | 51° |
| 2026-04-24 19:30 | 24.38579 | -133.14133 | 32228 ft | 559 kts | 51° |
| 2026-04-24 19:31 | 24.43288 | -133.07393 | 32222 ft | 559 kts | 51° |
| 2026-04-24 19:31 | 24.48016 | -133.00613 | 32219 ft | 559 kts | 51° |
| 2026-04-24 19:32 | 24.52735 | -132.93840 | 32223 ft | 559 kts | 51° |
| 2026-04-24 19:32 | 24.57425 | -132.87099 | 32233 ft | 559 kts | 51° |
| 2026-04-24 19:33 | 24.62145 | -132.80306 | 32250 ft | 559 kts | 51° |
| 2026-04-24 19:33 | 24.66836 | -132.73544 | 32266 ft | 559 kts | 51° |
| 2026-04-24 19:34 | 24.71544 | -132.66750 | 32294 ft | 559 kts | 51° |
| 2026-04-24 19:34 | 24.76259 | -132.59933 | 32321 ft | 559 kts | 51° |
| 2026-04-24 19:35 | 24.80944 | -132.53151 | 32357 ft | 559 kts | 51° |
| 2026-04-24 19:35 | 24.85643 | -132.46343 | 32394 ft | 559 kts | 51° |
| 2026-04-24 19:36 | 24.90348 | -132.39513 | 32441 ft | 559 kts | 51° |
| 2026-04-24 19:36 | 24.95052 | -132.32677 | 32475 ft | 560 kts | 52° |
| 2026-04-24 19:37 | 24.99733 | -132.25861 | 32474 ft | 560 kts | 52° |
| 2026-04-24 19:37 | 25.04442 | -132.18997 | 32488 ft | 560 kts | 52° |
| 2026-04-24 19:38 | 25.09122 | -132.12166 | 32495 ft | 560 kts | 52° |
| 2026-04-24 19:38 | 25.13815 | -132.05304 | 32492 ft | 560 kts | 52° |
| 2026-04-24 19:39 | 25.18478 | -131.98479 | 32482 ft | 560 kts | 52° |
| 2026-04-24 19:39 | 25.23170 | -131.91599 | 32477 ft | 560 kts | 52° |
| 2026-04-24 19:40 | 25.27824 | -131.84763 | 32474 ft | 559 kts | 52° |
| 2026-04-24 19:40 | 25.32513 | -131.77872 | 32483 ft | 559 kts | 52° |
| 2026-04-24 19:41 | 25.37169 | -131.71013 | 32490 ft | 559 kts | 52° |
| 2026-04-24 19:41 | 25.41858 | -131.64098 | 32513 ft | 560 kts | 52° |
| 2026-04-24 19:42 | 25.46509 | -131.57228 | 32533 ft | 560 kts | 52° |
| 2026-04-24 19:42 | 25.51190 | -131.50302 | 32559 ft | 559 kts | 51° |
| 2026-04-24 19:43 | 25.55830 | -131.43434 | 32590 ft | 559 kts | 52° |
| 2026-04-24 19:43 | 25.60496 | -131.36513 | 32623 ft | 559 kts | 52° |
| 2026-04-24 19:44 | 25.65173 | -131.29567 | 32627 ft | 559 kts | 52° |
| 2026-04-24 19:44 | 25.69804 | -131.22678 | 32619 ft | 559 kts | 52° |
| 2026-04-24 19:45 | 25.74453 | -131.15749 | 32621 ft | 559 kts | 52° |
| 2026-04-24 19:45 | 25.79071 | -131.08856 | 32621 ft | 559 kts | 52° |
| 2026-04-24 19:46 | 25.83714 | -131.01920 | 32635 ft | 559 kts | 52° |
| 2026-04-24 19:46 | 25.88346 | -130.94987 | 32652 ft | 559 kts | 52° |
| 2026-04-24 19:47 | 25.92998 | -130.88014 | 32673 ft | 559 kts | 52° |
| 2026-04-24 19:47 | 25.97602 | -130.81100 | 32696 ft | 559 kts | 52° |
| 2026-04-24 19:48 | 26.02249 | -130.74116 | 32728 ft | 559 kts | 52° |
| 2026-04-24 19:48 | 26.09195 | -130.63650 | 32788 ft | 559 kts | 52° |
| 2026-04-24 19:49 | 26.18398 | -130.49753 | 32824 ft | 559 kts | 52° |
| 2026-04-24 19:50 | 26.27623 | -130.35779 | 32382 ft | 570 kts | 52° |
| 2026-04-24 19:51 | 26.32364 | -130.28581 | 31513 ft | 568 kts | 53° |
| 2026-04-24 19:51 | 26.34693 | -130.25040 | 31475 ft | 562 kts | 53° |
| 2026-04-24 19:52 | 26.39319 | -130.17998 | 31218 ft | 564 kts | 53° |
| 2026-04-24 19:52 | 26.41611 | -130.14510 | 31111 ft | 563 kts | 53° |
| 2026-04-24 19:52 | 26.46238 | -130.07451 | 31147 ft | 560 kts | 53° |
| 2026-04-24 19:53 | 26.50843 | -130.00413 | 31122 ft | 561 kts | 53° |
| 2026-04-24 19:54 | 26.57725 | -129.89877 | 31126 ft | 561 kts | 53° |
| 2026-04-24 19:54 | 26.62323 | -129.82825 | 31126 ft | 561 kts | 53° |
| 2026-04-24 19:55 | 26.66159 | -129.76933 | 31124 ft | 561 kts | 53° |
| 2026-04-24 19:55 | 26.71494 | -129.68729 | 31130 ft | 561 kts | 53° |
| 2026-04-24 19:56 | 26.76100 | -129.61627 | 31128 ft | 562 kts | 53° |
| 2026-04-24 19:56 | 26.80679 | -129.54561 | 31136 ft | 562 kts | 53° |
| 2026-04-24 19:57 | 26.85239 | -129.47513 | 31142 ft | 562 kts | 53° |
| 2026-04-24 19:57 | 26.89841 | -129.40389 | 31135 ft | 563 kts | 53° |
| 2026-04-24 19:58 | 26.94403 | -129.33315 | 31128 ft | 563 kts | 53° |
| 2026-04-24 19:58 | 26.98990 | -129.26189 | 31124 ft | 563 kts | 53° |
| 2026-04-24 19:59 | 27.03560 | -129.19083 | 31126 ft | 563 kts | 53° |
| 2026-04-24 19:59 | 27.08136 | -129.11949 | 31119 ft | 563 kts | 53° |
| 2026-04-24 20:00 | 27.12692 | -129.04839 | 31105 ft | 563 kts | 53° |
| 2026-04-24 20:00 | 27.17271 | -128.97681 | 31123 ft | 562 kts | 53° |
| 2026-04-24 20:01 | 27.21840 | -128.90529 | 31131 ft | 562 kts | 53° |
| 2026-04-24 20:01 | 27.26380 | -128.83406 | 31125 ft | 562 kts | 53° |
| 2026-04-24 20:02 | 27.30162 | -128.77467 | 31120 ft | 562 kts | 53° |
| 2026-04-24 20:02 | 27.35466 | -128.69125 | 31124 ft | 563 kts | 53° |
| 2026-04-24 20:03 | 27.40020 | -128.61946 | 31130 ft | 563 kts | 54° |
| 2026-04-24 20:03 | 27.44569 | -128.54768 | 31131 ft | 563 kts | 54° |
| 2026-04-24 20:04 | 27.49120 | -128.47574 | 31133 ft | 563 kts | 54° |
| 2026-04-24 20:04 | 27.53647 | -128.40401 | 31140 ft | 563 kts | 53° |
| 2026-04-24 20:05 | 27.58184 | -128.33205 | 31127 ft | 563 kts | 54° |
| 2026-04-24 20:05 | 27.62694 | -128.26033 | 31100 ft | 560 kts | 54° |
| 2026-04-24 20:05 | 27.64882 | -128.22426 | 30283 ft | 560 kts | 56° |
| 2026-04-24 20:06 | 27.67033 | -128.18715 | 28838 ft | 567 kts | 57° |
| 2026-04-24 20:06 | 27.69117 | -128.15007 | 28039 ft | 559 kts | 57° |
| 2026-04-24 20:06 | 27.71237 | -128.11389 | 27811 ft | 542 kts | 52° |
| 2026-04-24 20:06 | 27.73558 | -128.08130 | 27037 ft | 535 kts | 48° |
| 2026-04-24 20:07 | 27.75133 | -128.06000 | 26225 ft | 529 kts | 49° |
| 2026-04-24 20:07 | 27.78376 | -128.01531 | 24803 ft | 506 kts | 48° |
| 2026-04-24 20:07 | 27.80309 | -127.98463 | 25391 ft | 455 kts | 64° |
| 2026-04-24 20:07 | 27.81437 | -127.95301 | 25785 ft | 431 kts | 71° |
| 2026-04-24 20:08 | 27.82810 | -127.92250 | 25579 ft | 434 kts | 47° |
| 2026-04-24 20:08 | 27.84814 | -127.89909 | 26322 ft | 415 kts | 45° |
| 2026-04-24 20:08 | 27.86712 | -127.87390 | 26028 ft | 429 kts | 51° |
| 2026-04-24 20:08 | 27.88545 | -127.84632 | 25705 ft | 442 kts | 53° |
| 2026-04-24 20:09 | 27.90364 | -127.81780 | 25399 ft | 453 kts | 53° |
| 2026-04-24 20:09 | 27.92200 | -127.78857 | 25113 ft | 462 kts | 54° |
| 2026-04-24 20:09 | 27.94113 | -127.75787 | 25175 ft | 464 kts | 54° |
| 2026-04-24 20:09 | 27.96028 | -127.72710 | 25189 ft | 479 kts | 54° |
| 2026-04-24 20:10 | 27.97977 | -127.69572 | 25078 ft | 496 kts | 54° |
| 2026-04-24 20:10 | 27.99977 | -127.66351 | 25178 ft | 506 kts | 54° |
| 2026-04-24 20:10 | 28.02062 | -127.62988 | 25123 ft | 521 kts | 54° |
| 2026-04-24 20:10 | 28.04179 | -127.59572 | 25103 ft | 532 kts | 54° |
| 2026-04-24 20:11 | 28.06322 | -127.56109 | 25202 ft | 540 kts | 54° |
| 2026-04-24 20:11 | 28.08483 | -127.52613 | 25422 ft | 544 kts | 54° |
| 2026-04-24 20:11 | 28.10663 | -127.49083 | 25703 ft | 546 kts | 54° |
| 2026-04-24 20:11 | 28.12838 | -127.45556 | 25955 ft | 549 kts | 54° |
| 2026-04-24 20:12 | 28.15022 | -127.42009 | 26132 ft | 552 kts | 54° |
| 2026-04-24 20:12 | 28.17245 | -127.38395 | 26397 ft | 553 kts | 54° |
| 2026-04-24 20:12 | 28.19446 | -127.34814 | 26558 ft | 556 kts | 54° |
| 2026-04-24 20:12 | 28.21660 | -127.31206 | 26779 ft | 557 kts | 54° |
| 2026-04-24 20:13 | 28.23856 | -127.27621 | 26952 ft | 559 kts | 54° |
| 2026-04-24 20:13 | 28.26083 | -127.23984 | 27089 ft | 560 kts | 54° |
| 2026-04-24 20:13 | 28.28315 | -127.20331 | 27261 ft | 561 kts | 54° |
| 2026-04-24 20:13 | 28.30526 | -127.16708 | 27363 ft | 563 kts | 54° |
| 2026-04-24 20:14 | 28.32751 | -127.13058 | 27499 ft | 565 kts | 54° |
| 2026-04-24 20:14 | 28.34996 | -127.09372 | 27617 ft | 566 kts | 54° |
| 2026-04-24 20:14 | 28.37228 | -127.05701 | 27722 ft | 567 kts | 55° |
| 2026-04-24 20:14 | 28.39471 | -127.02007 | 27848 ft | 567 kts | 54° |
| 2026-04-24 20:15 | 28.41713 | -126.98310 | 27924 ft | 569 kts | 54° |
| 2026-04-24 20:15 | 28.43949 | -126.94617 | 28049 ft | 569 kts | 54° |
| 2026-04-24 20:15 | 28.46191 | -126.90909 | 28100 ft | 571 kts | 54° |
| 2026-04-24 20:16 | 28.50683 | -126.83467 | 28234 ft | 573 kts | 54° |
| 2026-04-24 20:16 | 28.55173 | -126.76008 | 28418 ft | 573 kts | 54° |
| 2026-04-24 20:17 | 28.59686 | -126.68489 | 28380 ft | 571 kts | 54° |
| 2026-04-24 20:17 | 28.64127 | -126.61070 | 27195 ft | 561 kts | 54° |
| 2026-04-24 20:17 | 28.66328 | -126.57414 | 26680 ft | 555 kts | 54° |
| 2026-04-24 20:18 | 28.67774 | -126.55021 | 26355 ft | 553 kts | 54° |
| 2026-04-24 20:18 | 28.70689 | -126.50209 | 25697 ft | 545 kts | 54° |
| 2026-04-24 20:18 | 28.72857 | -126.46822 | 24786 ft | 526 kts | 50° |
| 2026-04-24 20:18 | 28.74932 | -126.43644 | 25299 ft | 474 kts | 53° |
| 2026-04-24 20:19 | 28.76814 | -126.40609 | 25075 ft | 462 kts | 54° |
| 2026-04-24 20:19 | 28.78625 | -126.37627 | 25087 ft | 456 kts | 54° |
| 2026-04-24 20:19 | 28.80398 | -126.34690 | 25168 ft | 450 kts | 54° |
| 2026-04-24 20:19 | 28.82169 | -126.31747 | 25068 ft | 447 kts | 54° |
| 2026-04-24 20:20 | 28.83915 | -126.28844 | 25131 ft | 441 kts | 54° |
| 2026-04-24 20:20 | 28.85646 | -126.25960 | 25230 ft | 438 kts | 54° |
| 2026-04-24 20:20 | 28.87357 | -126.23106 | 25509 ft | 431 kts | 54° |
| 2026-04-24 20:20 | 28.89044 | -126.20295 | 25627 ft | 429 kts | 54° |
| 2026-04-24 20:21 | 28.90717 | -126.17504 | 25835 ft | 431 kts | 54° |
| 2026-04-24 20:21 | 28.92417 | -126.14665 | 26009 ft | 439 kts | 54° |
| 2026-04-24 20:21 | 28.94171 | -126.11735 | 26153 ft | 448 kts | 54° |
| 2026-04-24 20:21 | 28.95924 | -126.08800 | 26302 ft | 456 kts | 54° |
| 2026-04-24 20:22 | 28.97744 | -126.05753 | 26452 ft | 464 kts | 54° |
| 2026-04-24 20:22 | 28.99556 | -126.02720 | 26596 ft | 472 kts | 54° |
| 2026-04-24 20:22 | 29.01429 | -125.99579 | 26749 ft | 480 kts | 54° |
| 2026-04-24 20:22 | 29.03327 | -125.96396 | 26900 ft | 487 kts | 54° |
| 2026-04-24 20:23 | 29.05225 | -125.93209 | 27049 ft | 495 kts | 54° |
| 2026-04-24 20:23 | 29.07187 | -125.89912 | 27203 ft | 502 kts | 54° |
| 2026-04-24 20:23 | 29.09152 | -125.86609 | 27356 ft | 509 kts | 54° |
| 2026-04-24 20:23 | 29.11141 | -125.83263 | 27501 ft | 516 kts | 54° |
| 2026-04-24 20:24 | 29.12505 | -125.80967 | 27591 ft | 520 kts | 54° |
| 2026-04-24 20:24 | 29.15233 | -125.76372 | 27771 ft | 529 kts | 54° |
| 2026-04-24 20:24 | 29.17311 | -125.72863 | 27907 ft | 535 kts | 54° |
| 2026-04-24 20:24 | 29.19394 | -125.69346 | 28038 ft | 540 kts | 54° |
| 2026-04-24 20:25 | 29.21516 | -125.65762 | 28171 ft | 544 kts | 54° |
| 2026-04-24 20:25 | 29.23631 | -125.62185 | 28303 ft | 548 kts | 54° |
| 2026-04-24 20:25 | 29.25773 | -125.58562 | 28445 ft | 552 kts | 54° |
| 2026-04-24 20:25 | 29.27930 | -125.54905 | 28581 ft | 555 kts | 54° |
| 2026-04-24 20:26 | 29.30095 | -125.51233 | 28718 ft | 557 kts | 54° |
| 2026-04-24 20:26 | 29.32269 | -125.47544 | 28856 ft | 559 kts | 54° |
| 2026-04-24 20:26 | 29.34437 | -125.43864 | 28995 ft | 560 kts | 54° |
| 2026-04-24 20:26 | 29.36615 | -125.40158 | 29129 ft | 562 kts | 54° |
| 2026-04-24 20:27 | 29.38776 | -125.36483 | 29263 ft | 562 kts | 54° |
| 2026-04-24 20:27 | 29.40984 | -125.32721 | 29398 ft | 563 kts | 55° |
| 2026-04-24 20:27 | 29.43158 | -125.29013 | 29516 ft | 564 kts | 54° |
| 2026-04-24 20:27 | 29.45355 | -125.25266 | 29632 ft | 564 kts | 54° |
| 2026-04-24 20:28 | 29.47530 | -125.21554 | 29754 ft | 564 kts | 55° |
| 2026-04-24 20:28 | 29.49715 | -125.17815 | 29878 ft | 564 kts | 54° |
| 2026-04-24 20:28 | 29.51878 | -125.14119 | 29998 ft | 564 kts | 55° |
| 2026-04-24 20:28 | 29.54074 | -125.10355 | 30123 ft | 564 kts | 55° |
| 2026-04-24 20:29 | 29.58413 | -125.02911 | 30376 ft | 564 kts | 54° |
| 2026-04-24 20:29 | 29.60585 | -124.99186 | 30498 ft | 564 kts | 55° |
| 2026-04-24 20:29 | 29.62787 | -124.95397 | 30632 ft | 563 kts | 54° |
| 2026-04-24 20:30 | 29.64953 | -124.91675 | 30762 ft | 563 kts | 54° |
| 2026-04-24 20:30 | 29.67121 | -124.87940 | 30895 ft | 563 kts | 54° |
| 2026-04-24 20:30 | 29.69298 | -124.84189 | 31032 ft | 563 kts | 55° |
| 2026-04-24 20:30 | 29.71449 | -124.80477 | 31164 ft | 562 kts | 54° |
| 2026-04-24 20:31 | 29.73620 | -124.76730 | 31298 ft | 562 kts | 54° |
| 2026-04-24 20:31 | 29.75770 | -124.73011 | 31433 ft | 561 kts | 54° |
| 2026-04-24 20:31 | 29.77938 | -124.69266 | 31579 ft | 561 kts | 54° |
| 2026-04-24 20:31 | 29.80083 | -124.65550 | 31720 ft | 560 kts | 54° |
| 2026-04-24 20:32 | 29.82238 | -124.61816 | 31857 ft | 560 kts | 54° |
| 2026-04-24 20:32 | 29.84402 | -124.58061 | 32002 ft | 559 kts | 54° |
| 2026-04-24 20:32 | 29.86546 | -124.54336 | 32147 ft | 559 kts | 54° |
| 2026-04-24 20:32 | 29.88699 | -124.50599 | 32299 ft | 558 kts | 54° |
| 2026-04-24 20:33 | 29.90833 | -124.46887 | 32444 ft | 558 kts | 54° |
| 2026-04-24 20:33 | 29.92971 | -124.43163 | 32593 ft | 557 kts | 54° |
| 2026-04-24 20:33 | 29.95102 | -124.39452 | 32738 ft | 557 kts | 54° |
| 2026-04-24 20:33 | 29.97243 | -124.35716 | 32892 ft | 556 kts | 54° |
| 2026-04-24 20:34 | 29.99383 | -124.31980 | 33027 ft | 556 kts | 55° |
| 2026-04-24 20:34 | 30.01494 | -124.28290 | 33148 ft | 555 kts | 55° |
| 2026-04-24 20:34 | 30.03619 | -124.24573 | 33279 ft | 555 kts | 55° |
| 2026-04-24 20:34 | 30.05764 | -124.20819 | 33409 ft | 554 kts | 55° |
| 2026-04-24 20:35 | 30.07884 | -124.17104 | 33537 ft | 553 kts | 55° |
| 2026-04-24 20:35 | 30.10018 | -124.13362 | 33680 ft | 553 kts | 55° |
| 2026-04-24 20:35 | 30.12137 | -124.09642 | 33811 ft | 552 kts | 55° |
| 2026-04-24 20:35 | 30.14247 | -124.05935 | 33942 ft | 551 kts | 55° |
| 2026-04-24 20:36 | 30.16350 | -124.02235 | 34077 ft | 550 kts | 55° |
| 2026-04-24 20:36 | 30.18477 | -123.98492 | 34212 ft | 549 kts | 54° |
| 2026-04-24 20:36 | 30.20592 | -123.94767 | 34347 ft | 549 kts | 54° |
| 2026-04-24 20:36 | 30.22682 | -123.91079 | 34481 ft | 548 kts | 55° |
| 2026-04-24 20:37 | 30.24794 | -123.87349 | 34616 ft | 547 kts | 54° |
| 2026-04-24 20:37 | 30.26881 | -123.83665 | 34746 ft | 546 kts | 54° |
| 2026-04-24 20:37 | 30.28953 | -123.80000 | 34882 ft | 545 kts | 55° |
| 2026-04-24 20:37 | 30.31025 | -123.76333 | 35027 ft | 543 kts | 54° |
| 2026-04-24 20:38 | 30.35194 | -123.68940 | 35086 ft | 547 kts | 54° |
| 2026-04-24 20:38 | 30.39375 | -123.61516 | 35114 ft | 549 kts | 54° |
| 2026-04-24 20:39 | 30.43563 | -123.54068 | 35107 ft | 552 kts | 54° |
| 2026-04-24 20:39 | 30.47764 | -123.46581 | 35106 ft | 554 kts | 54° |
| 2026-04-24 20:40 | 30.51966 | -123.39080 | 35110 ft | 556 kts | 55° |
| 2026-04-24 20:40 | 30.56203 | -123.31490 | 35085 ft | 557 kts | 55° |
| 2026-04-24 20:41 | 30.60405 | -123.23961 | 35096 ft | 557 kts | 55° |
| 2026-04-24 20:41 | 30.64610 | -123.16409 | 35095 ft | 557 kts | 55° |
| 2026-04-24 20:42 | 30.68726 | -123.08721 | 35094 ft | 557 kts | 56° |
| 2026-04-24 20:42 | 30.72788 | -123.01043 | 35083 ft | 558 kts | 57° |
| 2026-04-24 20:43 | 30.76812 | -122.93351 | 35094 ft | 559 kts | 57° |
| 2026-04-24 20:43 | 30.80869 | -122.85575 | 35102 ft | 558 kts | 57° |
| 2026-04-24 20:44 | 30.84888 | -122.77862 | 35100 ft | 559 kts | 56° |
| 2026-04-24 20:44 | 30.88928 | -122.70091 | 35082 ft | 560 kts | 57° |
| 2026-04-24 20:45 | 30.92950 | -122.62330 | 35095 ft | 560 kts | 56° |
| 2026-04-24 20:45 | 30.96986 | -122.54538 | 35104 ft | 560 kts | 57° |
| 2026-04-24 20:46 | 31.01000 | -122.46771 | 35094 ft | 561 kts | 57° |
| 2026-04-24 20:46 | 31.05013 | -122.38992 | 35100 ft | 561 kts | 57° |
| 2026-04-24 20:47 | 31.09010 | -122.31217 | 35078 ft | 561 kts | 57° |
| 2026-04-24 20:47 | 31.13018 | -122.23412 | 35063 ft | 560 kts | 57° |
| 2026-04-24 20:48 | 31.17009 | -122.15632 | 35052 ft | 559 kts | 57° |
| 2026-04-24 20:48 | 31.21009 | -122.07813 | 35067 ft | 558 kts | 57° |
| 2026-04-24 20:49 | 31.24997 | -121.99995 | 35072 ft | 558 kts | 57° |
| 2026-04-24 20:49 | 31.28971 | -121.92195 | 35044 ft | 558 kts | 57° |
| 2026-04-24 20:50 | 31.32936 | -121.84401 | 35050 ft | 559 kts | 57° |
| 2026-04-24 20:50 | 31.36911 | -121.76565 | 35083 ft | 558 kts | 57° |
| 2026-04-24 20:51 | 31.40369 | -121.69734 | 35044 ft | 559 kts | 57° |
| 2026-04-24 20:51 | 31.44354 | -121.61848 | 35064 ft | 559 kts | 57° |
| 2026-04-24 20:52 | 31.48304 | -121.54023 | 35071 ft | 559 kts | 58° |
| 2026-04-24 20:52 | 31.52275 | -121.46133 | 35042 ft | 560 kts | 57° |
| 2026-04-24 20:53 | 31.56204 | -121.38330 | 35056 ft | 560 kts | 56° |
| 2026-04-24 20:53 | 31.60278 | -121.30534 | 35047 ft | 560 kts | 56° |
| 2026-04-24 20:54 | 31.64334 | -121.22732 | 35035 ft | 560 kts | 56° |
| 2026-04-24 20:54 | 31.68419 | -121.14865 | 35036 ft | 560 kts | 56° |
| 2026-04-24 20:55 | 31.72477 | -121.07036 | 35048 ft | 559 kts | 56° |
| 2026-04-24 20:55 | 31.76549 | -120.99159 | 35023 ft | 560 kts | 56° |
| 2026-04-24 20:56 | 31.80583 | -120.91348 | 35033 ft | 560 kts | 56° |
| 2026-04-24 20:56 | 31.82591 | -120.87449 | 34745 ft | 551 kts | 56° |
| 2026-04-24 20:56 | 31.84533 | -120.83672 | 34131 ft | 532 kts | 56° |
| 2026-04-24 20:57 | 31.86427 | -120.79984 | 33620 ft | 514 kts | 56° |
| 2026-04-24 20:57 | 31.88246 | -120.76450 | 33157 ft | 498 kts | 56° |
| 2026-04-24 20:57 | 31.89999 | -120.73029 | 32685 ft | 484 kts | 56° |
| 2026-04-24 20:57 | 31.91721 | -120.69671 | 32175 ft | 472 kts | 56° |
| 2026-04-24 20:58 | 31.93401 | -120.66400 | 31417 ft | 468 kts | 56° |
| 2026-04-24 20:58 | 31.95080 | -120.63120 | 30644 ft | 463 kts | 56° |
| 2026-04-24 20:58 | 31.96743 | -120.59867 | 29886 ft | 458 kts | 56° |
| 2026-04-24 20:58 | 31.98368 | -120.56688 | 29126 ft | 453 kts | 56° |
| 2026-04-24 20:59 | 31.99965 | -120.53560 | 29076 ft | 435 kts | 56° |
| 2026-04-24 20:59 | 32.01469 | -120.50604 | 29504 ft | 412 kts | 56° |
| 2026-04-24 20:59 | 32.02932 | -120.47734 | 29766 ft | 411 kts | 56° |
| 2026-04-24 20:59 | 32.04404 | -120.44853 | 30075 ft | 410 kts | 55° |
| 2026-04-24 21:00 | 32.05859 | -120.41988 | 30371 ft | 409 kts | 56° |
| 2026-04-24 21:00 | 32.07311 | -120.39136 | 30650 ft | 407 kts | 56° |